<?xml version='1.0' encoding='UTF-8'?><gpx version="1.1" creator="JPX - https://github.com/jenetics/jpx" xmlns="http://www.topografix.com/GPX/1/1"><trk><trkseg><trkpt lat="45.4137683" lon="7.7864733"><ele>385.0</ele><time>2026-04-18T12:20:06.159Z</time></trkpt><trkpt lat="45.4136983" lon="7.7864817"><ele>385.0</ele><time>2026-04-18T12:22:18.158Z</time></trkpt><trkpt lat="45.4137411" lon="7.786408"><ele>385.0</ele><time>2026-04-18T12:22:35.215Z</time></trkpt><trkpt lat="45.413845" lon="7.7863135"><ele>385.0</ele><time>2026-04-18T12:24:18.288Z</time></trkpt><trkpt lat="45.4139082" lon="7.7863489"><ele>385.0</ele><time>2026-04-18T12:27:12.184Z</time></trkpt><trkpt lat="45.4140284" lon="7.786268"><ele>384.0</ele><time>2026-04-18T12:27:15.209Z</time></trkpt><trkpt lat="45.4141333" lon="7.7861717"><ele>383.0</ele><time>2026-04-18T12:27:16.157Z</time></trkpt><trkpt lat="45.4142417" lon="7.7861133"><ele>382.0</ele><time>2026-04-18T12:27:18.158Z</time></trkpt><trkpt lat="45.414325" lon="7.786055"><ele>381.0</ele><time>2026-04-18T12:27:20.158Z</time></trkpt><trkpt lat="45.4144017" lon="7.7859883"><ele>380.0</ele><time>2026-04-18T12:27:22.158Z</time></trkpt><trkpt lat="45.414415" lon="7.78585"><ele>379.83333333333337</ele><time>2026-04-18T12:27:25.159Z</time></trkpt><trkpt lat="45.4143733" lon="7.7856967"><ele>379.6666666666667</ele><time>2026-04-18T12:27:27.159Z</time></trkpt><trkpt lat="45.414335" lon="7.7856117"><ele>379.5</ele><time>2026-04-18T12:27:28.157Z</time></trkpt><trkpt lat="45.4142983" lon="7.78553"><ele>379.3333333333333</ele><time>2026-04-18T12:27:29.159Z</time></trkpt><trkpt lat="45.414255" lon="7.7854467"><ele>379.16666666666663</ele><time>2026-04-18T12:27:30.162Z</time></trkpt><trkpt lat="45.414215" lon="7.785365"><ele>379.0</ele><time>2026-04-18T12:27:31.161Z</time></trkpt><trkpt lat="45.414145" lon="7.7852267"><ele>378.5</ele><time>2026-04-18T12:27:33.16Z</time></trkpt><trkpt lat="45.4140767" lon="7.7850917"><ele>378.0</ele><time>2026-04-18T12:27:35.159Z</time></trkpt><trkpt lat="45.4140433" lon="7.785015"><ele>377.5</ele><time>2026-04-18T12:27:36.159Z</time></trkpt><trkpt lat="45.41401" lon="7.7849367"><ele>377.0</ele><time>2026-04-18T12:27:37.163Z</time></trkpt><trkpt lat="45.4139517" lon="7.78479"><ele>376.5</ele><time>2026-04-18T12:27:39.162Z</time></trkpt><trkpt lat="45.4139217" lon="7.78471"><ele>376.0</ele><time>2026-04-18T12:27:40.16Z</time></trkpt><trkpt lat="45.41389" lon="7.7846283"><ele>376.0</ele><time>2026-04-18T12:27:41.16Z</time></trkpt><trkpt lat="45.4138583" lon="7.7845467"><ele>376.0</ele><time>2026-04-18T12:27:42.16Z</time></trkpt><trkpt lat="45.4138" lon="7.784395"><ele>376.0</ele><time>2026-04-18T12:27:44.16Z</time></trkpt><trkpt lat="45.41375" lon="7.78423"><ele>376.0</ele><time>2026-04-18T12:27:46.16Z</time></trkpt><trkpt lat="45.4137267" lon="7.7841417"><ele>376.0</ele><time>2026-04-18T12:27:47.16Z</time></trkpt><trkpt lat="45.4137033" lon="7.7840567"><ele>376.0</ele><time>2026-04-18T12:27:48.161Z</time></trkpt><trkpt lat="45.4136833" lon="7.7839667"><ele>376.8333333333333</ele><time>2026-04-18T12:27:49.157Z</time></trkpt><trkpt lat="45.4136667" lon="7.78388"><ele>377.66666666666663</ele><time>2026-04-18T12:27:50.159Z</time></trkpt><trkpt lat="45.41365" lon="7.78379"><ele>378.5</ele><time>2026-04-18T12:27:51.159Z</time></trkpt><trkpt lat="45.4136367" lon="7.7836983"><ele>379.3333333333333</ele><time>2026-04-18T12:27:52.158Z</time></trkpt><trkpt lat="45.4136017" lon="7.7835167"><ele>380.1666666666667</ele><time>2026-04-18T12:27:54.16Z</time></trkpt><trkpt lat="45.4135817" lon="7.7834133"><ele>381.0</ele><time>2026-04-18T12:27:55.158Z</time></trkpt><trkpt lat="45.4135633" lon="7.78332"><ele>381.0</ele><time>2026-04-18T12:27:56.159Z</time></trkpt><trkpt lat="45.4135483" lon="7.7831533"><ele>381.0</ele><time>2026-04-18T12:27:58.158Z</time></trkpt><trkpt lat="45.413555" lon="7.782995"><ele>381.0</ele><time>2026-04-18T12:28:00.157Z</time></trkpt><trkpt lat="45.41357" lon="7.7828433"><ele>381.0</ele><time>2026-04-18T12:28:02.159Z</time></trkpt><trkpt lat="45.4136067" lon="7.782705"><ele>381.0</ele><time>2026-04-18T12:28:04.159Z</time></trkpt><trkpt lat="45.4136383" lon="7.7825417"><ele>381.20000000000005</ele><time>2026-04-18T12:28:06.159Z</time></trkpt><trkpt lat="45.4136467" lon="7.7824517"><ele>381.40000000000003</ele><time>2026-04-18T12:28:07.162Z</time></trkpt><trkpt lat="45.413655" lon="7.7822867"><ele>381.6</ele><time>2026-04-18T12:28:09.16Z</time></trkpt><trkpt lat="45.413645" lon="7.7821233"><ele>381.8</ele><time>2026-04-18T12:28:11.159Z</time></trkpt><trkpt lat="45.4136267" lon="7.781945"><ele>382.0</ele><time>2026-04-18T12:28:13.162Z</time></trkpt><trkpt lat="45.4136033" lon="7.78178"><ele>382.0</ele><time>2026-04-18T12:28:15.159Z</time></trkpt><trkpt lat="45.4135683" lon="7.7816567"><ele>382.0</ele><time>2026-04-18T12:28:17.16Z</time></trkpt><trkpt lat="45.4134967" lon="7.7816733"><ele>382.0</ele><time>2026-04-18T12:28:19.158Z</time></trkpt><trkpt lat="45.4134267" lon="7.781745"><ele>382.0</ele><time>2026-04-18T12:28:20.159Z</time></trkpt><trkpt lat="45.4133367" lon="7.7818233"><ele>382.0</ele><time>2026-04-18T12:28:21.159Z</time></trkpt><trkpt lat="45.413245" lon="7.7818917"><ele>382.0</ele><time>2026-04-18T12:28:22.158Z</time></trkpt><trkpt lat="45.413165" lon="7.781985"><ele>382.0</ele><time>2026-04-18T12:28:23.159Z</time></trkpt><trkpt lat="45.4130833" lon="7.7820733"><ele>382.0</ele><time>2026-04-18T12:28:24.159Z</time></trkpt><trkpt lat="45.4129983" lon="7.78214"><ele>382.0</ele><time>2026-04-18T12:28:25.159Z</time></trkpt><trkpt lat="45.412915" lon="7.782215"><ele>382.0</ele><time>2026-04-18T12:28:26.16Z</time></trkpt><trkpt lat="45.4128433" lon="7.7822933"><ele>382.3333333333333</ele><time>2026-04-18T12:28:27.16Z</time></trkpt><trkpt lat="45.41277" lon="7.78237"><ele>382.66666666666663</ele><time>2026-04-18T12:28:28.159Z</time></trkpt><trkpt lat="45.4126967" lon="7.7824417"><ele>383.0</ele><time>2026-04-18T12:28:29.159Z</time></trkpt><trkpt lat="45.4126233" lon="7.78251"><ele>383.3333333333333</ele><time>2026-04-18T12:28:30.16Z</time></trkpt><trkpt lat="45.4125567" lon="7.7825917"><ele>383.6666666666667</ele><time>2026-04-18T12:28:31.158Z</time></trkpt><trkpt lat="45.4124867" lon="7.7826683"><ele>384.0</ele><time>2026-04-18T12:28:32.16Z</time></trkpt><trkpt lat="45.412425" lon="7.7827417"><ele>384.6666666666667</ele><time>2026-04-18T12:28:33.16Z</time></trkpt><trkpt lat="45.41237" lon="7.7828183"><ele>385.33333333333337</ele><time>2026-04-18T12:28:34.157Z</time></trkpt><trkpt lat="45.4123117" lon="7.7828967"><ele>386.0</ele><time>2026-04-18T12:28:35.159Z</time></trkpt><trkpt lat="45.4122483" lon="7.7829567"><ele>386.6666666666667</ele><time>2026-04-18T12:28:36.159Z</time></trkpt><trkpt lat="45.41218" lon="7.7830183"><ele>387.33333333333337</ele><time>2026-04-18T12:28:37.158Z</time></trkpt><trkpt lat="45.4121067" lon="7.7830683"><ele>388.0</ele><time>2026-04-18T12:28:38.16Z</time></trkpt><trkpt lat="45.412025" lon="7.7831467"><ele>389.00000000000006</ele><time>2026-04-18T12:28:39.159Z</time></trkpt><trkpt lat="45.4119617" lon="7.7832517"><ele>390.0</ele><time>2026-04-18T12:28:40.158Z</time></trkpt><trkpt lat="45.411925" lon="7.7833617"><ele>391.0</ele><time>2026-04-18T12:28:41.158Z</time></trkpt><trkpt lat="45.411895" lon="7.783455"><ele>392.0</ele><time>2026-04-18T12:28:42.16Z</time></trkpt><trkpt lat="45.41184" lon="7.78358"><ele>393.00000000000006</ele><time>2026-04-18T12:28:44.159Z</time></trkpt><trkpt lat="45.4118" lon="7.7836883"><ele>394.0</ele><time>2026-04-18T12:28:46.159Z</time></trkpt><trkpt lat="45.4117267" lon="7.7836983"><ele>394.00000000000006</ele><time>2026-04-18T12:28:49.159Z</time></trkpt><trkpt lat="45.4116833" lon="7.783575"><ele>394.0</ele><time>2026-04-18T12:28:51.16Z</time></trkpt><trkpt lat="45.41165" lon="7.7834917"><ele>394.0</ele><time>2026-04-18T12:28:52.157Z</time></trkpt><trkpt lat="45.41161" lon="7.783395"><ele>394.0</ele><time>2026-04-18T12:28:53.158Z</time></trkpt><trkpt lat="45.4115533" lon="7.7832717"><ele>394.00000000000006</ele><time>2026-04-18T12:28:54.159Z</time></trkpt><trkpt lat="45.411505" lon="7.7831567"><ele>394.0</ele><time>2026-04-18T12:28:55.159Z</time></trkpt><trkpt lat="45.4114817" lon="7.7830133"><ele>394.0</ele><time>2026-04-18T12:28:56.16Z</time></trkpt><trkpt lat="45.41143" lon="7.7828767"><ele>394.0</ele><time>2026-04-18T12:28:57.159Z</time></trkpt><trkpt lat="45.41137" lon="7.7827483"><ele>394.0</ele><time>2026-04-18T12:28:58.158Z</time></trkpt><trkpt lat="45.4113317" lon="7.7826117"><ele>394.0</ele><time>2026-04-18T12:28:59.159Z</time></trkpt><trkpt lat="45.4113133" lon="7.782435"><ele>394.0</ele><time>2026-04-18T12:29:00.158Z</time></trkpt><trkpt lat="45.4112983" lon="7.7822317"><ele>399.0</ele><time>2026-04-18T12:29:01.159Z</time></trkpt><trkpt lat="45.4112933" lon="7.7820567"><ele>404.0</ele><time>2026-04-18T12:29:02.159Z</time></trkpt><trkpt lat="45.4112917" lon="7.7818983"><ele>409.0</ele><time>2026-04-18T12:29:03.159Z</time></trkpt><trkpt lat="45.4112983" lon="7.78174"><ele>414.0</ele><time>2026-04-18T12:29:04.158Z</time></trkpt><trkpt lat="45.4113083" lon="7.7815183"><ele>414.5</ele><time>2026-04-18T12:29:05.158Z</time></trkpt><trkpt lat="45.4113217" lon="7.78135"><ele>415.0</ele><time>2026-04-18T12:29:06.158Z</time></trkpt><trkpt lat="45.41136" lon="7.781155"><ele>415.5</ele><time>2026-04-18T12:29:07.158Z</time></trkpt><trkpt lat="45.411395" lon="7.7809667"><ele>416.0</ele><time>2026-04-18T12:29:08.158Z</time></trkpt><trkpt lat="45.4114283" lon="7.7807917"><ele>410.0</ele><time>2026-04-18T12:29:09.159Z</time></trkpt><trkpt lat="45.4114567" lon="7.7806167"><ele>404.0</ele><time>2026-04-18T12:29:10.157Z</time></trkpt><trkpt lat="45.411465" lon="7.7804633"><ele>398.0</ele><time>2026-04-18T12:29:11.158Z</time></trkpt><trkpt lat="45.4115367" lon="7.78014"><ele>398.0</ele><time>2026-04-18T12:29:12.159Z</time></trkpt><trkpt lat="45.4115633" lon="7.77998"><ele>398.0</ele><time>2026-04-18T12:29:13.158Z</time></trkpt><trkpt lat="45.4115817" lon="7.7798217"><ele>398.0</ele><time>2026-04-18T12:29:14.159Z</time></trkpt><trkpt lat="45.4115917" lon="7.7796533"><ele>398.0</ele><time>2026-04-18T12:29:15.158Z</time></trkpt><trkpt lat="45.4115933" lon="7.7794617"><ele>399.0</ele><time>2026-04-18T12:29:16.157Z</time></trkpt><trkpt lat="45.4115767" lon="7.779245"><ele>400.0</ele><time>2026-04-18T12:29:17.159Z</time></trkpt><trkpt lat="45.4115617" lon="7.779055"><ele>401.0</ele><time>2026-04-18T12:29:18.158Z</time></trkpt><trkpt lat="45.4115583" lon="7.7788733"><ele>402.0</ele><time>2026-04-18T12:29:19.157Z</time></trkpt><trkpt lat="45.4115617" lon="7.7787233"><ele>402.0</ele><time>2026-04-18T12:29:20.159Z</time></trkpt><trkpt lat="45.4115717" lon="7.7785867"><ele>402.0</ele><time>2026-04-18T12:29:21.157Z</time></trkpt><trkpt lat="45.4115883" lon="7.7784817"><ele>402.0</ele><time>2026-04-18T12:29:22.157Z</time></trkpt><trkpt lat="45.41163" lon="7.7783183"><ele>402.0</ele><time>2026-04-18T12:29:24.157Z</time></trkpt><trkpt lat="45.4116633" lon="7.7782283"><ele>402.0</ele><time>2026-04-18T12:29:25.157Z</time></trkpt><trkpt lat="45.4117117" lon="7.778155"><ele>402.0</ele><time>2026-04-18T12:29:26.158Z</time></trkpt><trkpt lat="45.4117867" lon="7.7780017"><ele>401.8</ele><time>2026-04-18T12:29:28.157Z</time></trkpt><trkpt lat="45.4118117" lon="7.7779033"><ele>401.6</ele><time>2026-04-18T12:29:29.158Z</time></trkpt><trkpt lat="45.41183" lon="7.7777733"><ele>401.40000000000003</ele><time>2026-04-18T12:29:30.158Z</time></trkpt><trkpt lat="45.4118467" lon="7.7776483"><ele>401.20000000000005</ele><time>2026-04-18T12:29:31.157Z</time></trkpt><trkpt lat="45.4118583" lon="7.7775083"><ele>401.0</ele><time>2026-04-18T12:29:32.158Z</time></trkpt><trkpt lat="45.4118117" lon="7.7773483"><ele>401.0</ele><time>2026-04-18T12:29:33.159Z</time></trkpt><trkpt lat="45.4118" lon="7.7771983"><ele>401.0</ele><time>2026-04-18T12:29:34.156Z</time></trkpt><trkpt lat="45.4117683" lon="7.77705"><ele>401.0</ele><time>2026-04-18T12:29:35.157Z</time></trkpt><trkpt lat="45.411725" lon="7.7769183"><ele>401.0</ele><time>2026-04-18T12:29:36.159Z</time></trkpt><trkpt lat="45.4116867" lon="7.7767833"><ele>401.0</ele><time>2026-04-18T12:29:37.158Z</time></trkpt><trkpt lat="45.4116317" lon="7.7766483"><ele>401.20000000000005</ele><time>2026-04-18T12:29:38.158Z</time></trkpt><trkpt lat="45.411575" lon="7.7765183"><ele>401.40000000000003</ele><time>2026-04-18T12:29:39.158Z</time></trkpt><trkpt lat="45.4115283" lon="7.7764017"><ele>401.6</ele><time>2026-04-18T12:29:40.156Z</time></trkpt><trkpt lat="45.4114833" lon="7.7763033"><ele>401.8</ele><time>2026-04-18T12:29:41.158Z</time></trkpt><trkpt lat="45.41144" lon="7.7762033"><ele>402.0</ele><time>2026-04-18T12:29:42.159Z</time></trkpt><trkpt lat="45.41139" lon="7.7761"><ele>402.0</ele><time>2026-04-18T12:29:43.156Z</time></trkpt><trkpt lat="45.4113283" lon="7.7759967"><ele>402.0</ele><time>2026-04-18T12:29:44.158Z</time></trkpt><trkpt lat="45.4112683" lon="7.7758667"><ele>402.0</ele><time>2026-04-18T12:29:45.158Z</time></trkpt><trkpt lat="45.4112117" lon="7.77573"><ele>402.0</ele><time>2026-04-18T12:29:46.156Z</time></trkpt><trkpt lat="45.4111617" lon="7.7756017"><ele>402.0</ele><time>2026-04-18T12:29:47.158Z</time></trkpt><trkpt lat="45.4111217" lon="7.7754883"><ele>404.0</ele><time>2026-04-18T12:29:48.158Z</time></trkpt><trkpt lat="45.4111083" lon="7.7753417"><ele>406.0</ele><time>2026-04-18T12:29:49.157Z</time></trkpt><trkpt lat="45.4110983" lon="7.775215"><ele>408.0</ele><time>2026-04-18T12:29:50.157Z</time></trkpt><trkpt lat="45.4110983" lon="7.7750917"><ele>410.0</ele><time>2026-04-18T12:29:51.159Z</time></trkpt><trkpt lat="45.4110883" lon="7.7749617"><ele>412.0</ele><time>2026-04-18T12:29:52.159Z</time></trkpt><trkpt lat="45.4110733" lon="7.7748567"><ele>414.0</ele><time>2026-04-18T12:29:53.158Z</time></trkpt><trkpt lat="45.4110533" lon="7.774735"><ele>414.1666666666667</ele><time>2026-04-18T12:29:54.159Z</time></trkpt><trkpt lat="45.4110233" lon="7.774615"><ele>414.33333333333337</ele><time>2026-04-18T12:29:55.157Z</time></trkpt><trkpt lat="45.41097" lon="7.7745117"><ele>414.5</ele><time>2026-04-18T12:29:56.158Z</time></trkpt><trkpt lat="45.4109117" lon="7.774415"><ele>414.6666666666667</ele><time>2026-04-18T12:29:57.159Z</time></trkpt><trkpt lat="45.41085" lon="7.7743317"><ele>414.83333333333337</ele><time>2026-04-18T12:29:58.156Z</time></trkpt><trkpt lat="45.4107733" lon="7.774275"><ele>415.0</ele><time>2026-04-18T12:29:59.158Z</time></trkpt><trkpt lat="45.4107017" lon="7.774255"><ele>414.6</ele><time>2026-04-18T12:30:00.156Z</time></trkpt><trkpt lat="45.4106333" lon="7.774255"><ele>414.2</ele><time>2026-04-18T12:30:01.157Z</time></trkpt><trkpt lat="45.4105683" lon="7.7742683"><ele>413.79999999999995</ele><time>2026-04-18T12:30:02.158Z</time></trkpt><trkpt lat="45.410505" lon="7.7742917"><ele>413.4</ele><time>2026-04-18T12:30:03.158Z</time></trkpt><trkpt lat="45.4103567" lon="7.7743167"><ele>413.0</ele><time>2026-04-18T12:30:06.157Z</time></trkpt><trkpt lat="45.4102567" lon="7.77434"><ele>413.79999999999995</ele><time>2026-04-18T12:30:08.157Z</time></trkpt><trkpt lat="45.410195" lon="7.7743683"><ele>414.6</ele><time>2026-04-18T12:30:10.161Z</time></trkpt><trkpt lat="45.41015" lon="7.774465"><ele>415.4</ele><time>2026-04-18T12:30:12.158Z</time></trkpt><trkpt lat="45.4101367" lon="7.7746683"><ele>416.20000000000005</ele><time>2026-04-18T12:30:14.157Z</time></trkpt><trkpt lat="45.4101383" lon="7.7748667"><ele>417.0</ele><time>2026-04-18T12:30:15.161Z</time></trkpt><trkpt lat="45.4101067" lon="7.7750717"><ele>416.6</ele><time>2026-04-18T12:30:16.158Z</time></trkpt><trkpt lat="45.4100733" lon="7.7752267"><ele>416.20000000000005</ele><time>2026-04-18T12:30:17.159Z</time></trkpt><trkpt lat="45.4100333" lon="7.7753667"><ele>415.8</ele><time>2026-04-18T12:30:18.158Z</time></trkpt><trkpt lat="45.40999" lon="7.7754933"><ele>415.4</ele><time>2026-04-18T12:30:19.158Z</time></trkpt><trkpt lat="45.409955" lon="7.775595"><ele>415.0</ele><time>2026-04-18T12:30:20.159Z</time></trkpt><trkpt lat="45.409935" lon="7.7756883"><ele>415.0</ele><time>2026-04-18T12:30:21.159Z</time></trkpt><trkpt lat="45.4098967" lon="7.7757783"><ele>415.0</ele><time>2026-04-18T12:30:22.16Z</time></trkpt><trkpt lat="45.40985" lon="7.77589"><ele>415.0</ele><time>2026-04-18T12:30:24.161Z</time></trkpt><trkpt lat="45.4097417" lon="7.775855"><ele>415.0</ele><time>2026-04-18T12:30:27.162Z</time></trkpt><trkpt lat="45.4096733" lon="7.7757817"><ele>415.0</ele><time>2026-04-18T12:30:28.158Z</time></trkpt><trkpt lat="45.409595" lon="7.7757083"><ele>414.00000000000006</ele><time>2026-04-18T12:30:29.159Z</time></trkpt><trkpt lat="45.40949" lon="7.7756283"><ele>413.0</ele><time>2026-04-18T12:30:31.159Z</time></trkpt><trkpt lat="45.4094217" lon="7.7755817"><ele>412.0</ele><time>2026-04-18T12:30:32.158Z</time></trkpt><trkpt lat="45.409355" lon="7.7755283"><ele>411.0</ele><time>2026-04-18T12:30:33.159Z</time></trkpt><trkpt lat="45.4092883" lon="7.7754867"><ele>410.00000000000006</ele><time>2026-04-18T12:30:34.158Z</time></trkpt><trkpt lat="45.4092267" lon="7.7754567"><ele>409.0</ele><time>2026-04-18T12:30:35.158Z</time></trkpt><trkpt lat="45.40911" lon="7.7754583"><ele>409.00000000000006</ele><time>2026-04-18T12:30:37.159Z</time></trkpt><trkpt lat="45.4090467" lon="7.7754733"><ele>409.0</ele><time>2026-04-18T12:30:38.158Z</time></trkpt><trkpt lat="45.4089717" lon="7.7754767"><ele>409.0</ele><time>2026-04-18T12:30:39.158Z</time></trkpt><trkpt lat="45.4088983" lon="7.7754667"><ele>409.0</ele><time>2026-04-18T12:30:40.158Z</time></trkpt><trkpt lat="45.4088133" lon="7.7754217"><ele>409.00000000000006</ele><time>2026-04-18T12:30:41.158Z</time></trkpt><trkpt lat="45.40875" lon="7.7753633"><ele>409.0</ele><time>2026-04-18T12:30:42.158Z</time></trkpt><trkpt lat="45.4086683" lon="7.7752217"><ele>409.2</ele><time>2026-04-18T12:30:44.159Z</time></trkpt><trkpt lat="45.408635" lon="7.775115"><ele>409.4</ele><time>2026-04-18T12:30:45.16Z</time></trkpt><trkpt lat="45.4086033" lon="7.7750117"><ele>409.6</ele><time>2026-04-18T12:30:46.159Z</time></trkpt><trkpt lat="45.4085717" lon="7.7748933"><ele>409.8</ele><time>2026-04-18T12:30:47.16Z</time></trkpt><trkpt lat="45.4085233" lon="7.774755"><ele>410.0</ele><time>2026-04-18T12:30:48.161Z</time></trkpt><trkpt lat="45.4084583" lon="7.774645"><ele>410.0</ele><time>2026-04-18T12:30:49.158Z</time></trkpt><trkpt lat="45.408405" lon="7.7745167"><ele>410.0</ele><time>2026-04-18T12:30:50.158Z</time></trkpt><trkpt lat="45.4083483" lon="7.774365"><ele>410.0</ele><time>2026-04-18T12:30:51.159Z</time></trkpt><trkpt lat="45.4082733" lon="7.7742167"><ele>410.0</ele><time>2026-04-18T12:30:52.16Z</time></trkpt><trkpt lat="45.408195" lon="7.7740817"><ele>409.8333333333333</ele><time>2026-04-18T12:30:53.16Z</time></trkpt><trkpt lat="45.4081283" lon="7.773975"><ele>409.66666666666663</ele><time>2026-04-18T12:30:54.16Z</time></trkpt><trkpt lat="45.4080767" lon="7.7738783"><ele>409.5</ele><time>2026-04-18T12:30:55.162Z</time></trkpt><trkpt lat="45.4080367" lon="7.7737883"><ele>409.33333333333337</ele><time>2026-04-18T12:30:56.16Z</time></trkpt><trkpt lat="45.408005" lon="7.7736967"><ele>409.1666666666667</ele><time>2026-04-18T12:30:57.16Z</time></trkpt><trkpt lat="45.4079817" lon="7.7735917"><ele>409.0</ele><time>2026-04-18T12:30:58.16Z</time></trkpt><trkpt lat="45.40796" lon="7.7734917"><ele>410.0</ele><time>2026-04-18T12:30:59.16Z</time></trkpt><trkpt lat="45.4079483" lon="7.773365"><ele>411.0</ele><time>2026-04-18T12:31:00.16Z</time></trkpt><trkpt lat="45.4079483" lon="7.7732017"><ele>412.0</ele><time>2026-04-18T12:31:01.16Z</time></trkpt><trkpt lat="45.40795" lon="7.7729967"><ele>413.0</ele><time>2026-04-18T12:31:02.16Z</time></trkpt><trkpt lat="45.40794" lon="7.772755"><ele>413.0</ele><time>2026-04-18T12:31:03.161Z</time></trkpt><trkpt lat="45.4079233" lon="7.7725267"><ele>413.0</ele><time>2026-04-18T12:31:04.159Z</time></trkpt><trkpt lat="45.4078983" lon="7.7723133"><ele>413.0</ele><time>2026-04-18T12:31:05.158Z</time></trkpt><trkpt lat="45.4078683" lon="7.7720867"><ele>413.0</ele><time>2026-04-18T12:31:06.159Z</time></trkpt><trkpt lat="45.4078283" lon="7.77188"><ele>413.0</ele><time>2026-04-18T12:31:07.159Z</time></trkpt><trkpt lat="45.40779" lon="7.7716917"><ele>413.0</ele><time>2026-04-18T12:31:08.161Z</time></trkpt><trkpt lat="45.4077417" lon="7.7715267"><ele>413.0</ele><time>2026-04-18T12:31:09.161Z</time></trkpt><trkpt lat="45.40769" lon="7.7713533"><ele>413.59999999999997</ele><time>2026-04-18T12:31:10.159Z</time></trkpt><trkpt lat="45.407655" lon="7.77118"><ele>414.2</ele><time>2026-04-18T12:31:11.159Z</time></trkpt><trkpt lat="45.407615" lon="7.771055"><ele>414.8</ele><time>2026-04-18T12:31:12.161Z</time></trkpt><trkpt lat="45.4075767" lon="7.770935"><ele>415.4</ele><time>2026-04-18T12:31:13.159Z</time></trkpt><trkpt lat="45.4075433" lon="7.770845"><ele>416.0</ele><time>2026-04-18T12:31:14.159Z</time></trkpt><trkpt lat="45.4075183" lon="7.7707533"><ele>417.20000000000005</ele><time>2026-04-18T12:31:15.16Z</time></trkpt><trkpt lat="45.4075017" lon="7.770655"><ele>418.40000000000003</ele><time>2026-04-18T12:31:16.158Z</time></trkpt><trkpt lat="45.407455" lon="7.77051"><ele>419.6</ele><time>2026-04-18T12:31:18.16Z</time></trkpt><trkpt lat="45.4074167" lon="7.7703733"><ele>420.8</ele><time>2026-04-18T12:31:20.158Z</time></trkpt><trkpt lat="45.4074067" lon="7.7701783"><ele>422.0</ele><time>2026-04-18T12:31:22.16Z</time></trkpt><trkpt lat="45.4074167" lon="7.7700417"><ele>423.3333333333333</ele><time>2026-04-18T12:31:23.161Z</time></trkpt><trkpt lat="45.4074667" lon="7.769835"><ele>424.66666666666663</ele><time>2026-04-18T12:31:24.162Z</time></trkpt><trkpt lat="45.4075133" lon="7.7696467"><ele>426.0</ele><time>2026-04-18T12:31:25.16Z</time></trkpt><trkpt lat="45.4075733" lon="7.7694317"><ele>424.5</ele><time>2026-04-18T12:31:26.158Z</time></trkpt><trkpt lat="45.4076233" lon="7.76923"><ele>423.0</ele><time>2026-04-18T12:31:27.159Z</time></trkpt><trkpt lat="45.40767" lon="7.7690217"><ele>421.5</ele><time>2026-04-18T12:31:28.159Z</time></trkpt><trkpt lat="45.4076983" lon="7.7688317"><ele>420.0</ele><time>2026-04-18T12:31:29.158Z</time></trkpt><trkpt lat="45.4077183" lon="7.7686583"><ele>419.4</ele><time>2026-04-18T12:31:30.159Z</time></trkpt><trkpt lat="45.4077383" lon="7.7685"><ele>418.8</ele><time>2026-04-18T12:31:31.162Z</time></trkpt><trkpt lat="45.4077567" lon="7.7683533"><ele>418.20000000000005</ele><time>2026-04-18T12:31:32.159Z</time></trkpt><trkpt lat="45.4077667" lon="7.7682033"><ele>417.6</ele><time>2026-04-18T12:31:33.159Z</time></trkpt><trkpt lat="45.407755" lon="7.768025"><ele>417.0</ele><time>2026-04-18T12:31:34.158Z</time></trkpt><trkpt lat="45.4077217" lon="7.7678167"><ele>416.5</ele><time>2026-04-18T12:31:35.158Z</time></trkpt><trkpt lat="45.40768" lon="7.767615"><ele>416.0</ele><time>2026-04-18T12:31:36.159Z</time></trkpt><trkpt lat="45.4076483" lon="7.7674333"><ele>415.5</ele><time>2026-04-18T12:31:37.16Z</time></trkpt><trkpt lat="45.4076117" lon="7.76727"><ele>415.0</ele><time>2026-04-18T12:31:38.159Z</time></trkpt><trkpt lat="45.4075817" lon="7.76713"><ele>415.0</ele><time>2026-04-18T12:31:39.16Z</time></trkpt><trkpt lat="45.40755" lon="7.7670217"><ele>415.0</ele><time>2026-04-18T12:31:40.159Z</time></trkpt><trkpt lat="45.4075233" lon="7.766925"><ele>415.0</ele><time>2026-04-18T12:31:41.157Z</time></trkpt><trkpt lat="45.40748" lon="7.7667633"><ele>415.0</ele><time>2026-04-18T12:31:43.16Z</time></trkpt><trkpt lat="45.4074183" lon="7.7666333"><ele>415.0</ele><time>2026-04-18T12:31:45.16Z</time></trkpt><trkpt lat="45.4073583" lon="7.7665517"><ele>414.6</ele><time>2026-04-18T12:31:47.158Z</time></trkpt><trkpt lat="45.40729" lon="7.7665633"><ele>414.2</ele><time>2026-04-18T12:31:49.161Z</time></trkpt><trkpt lat="45.407235" lon="7.766645"><ele>413.79999999999995</ele><time>2026-04-18T12:31:51.162Z</time></trkpt><trkpt lat="45.407145" lon="7.7667517"><ele>413.4</ele><time>2026-04-18T12:31:52.16Z</time></trkpt><trkpt lat="45.4070533" lon="7.766885"><ele>413.0</ele><time>2026-04-18T12:31:53.159Z</time></trkpt><trkpt lat="45.4069383" lon="7.76703"><ele>415.0</ele><time>2026-04-18T12:31:54.161Z</time></trkpt><trkpt lat="45.406845" lon="7.7671133"><ele>417.0</ele><time>2026-04-18T12:31:55.16Z</time></trkpt><trkpt lat="45.4067417" lon="7.7671933"><ele>419.0</ele><time>2026-04-18T12:31:56.159Z</time></trkpt><trkpt lat="45.4066417" lon="7.7672733"><ele>421.0</ele><time>2026-04-18T12:31:57.16Z</time></trkpt><trkpt lat="45.4065433" lon="7.767365"><ele>421.0</ele><time>2026-04-18T12:31:58.16Z</time></trkpt><trkpt lat="45.4064583" lon="7.767455"><ele>421.0</ele><time>2026-04-18T12:31:59.16Z</time></trkpt><trkpt lat="45.40638" lon="7.7675567"><ele>421.0</ele><time>2026-04-18T12:32:00.159Z</time></trkpt><trkpt lat="45.4062967" lon="7.7676717"><ele>421.0</ele><time>2026-04-18T12:32:01.161Z</time></trkpt><trkpt lat="45.4062133" lon="7.76778"><ele>421.0</ele><time>2026-04-18T12:32:02.16Z</time></trkpt><trkpt lat="45.4061483" lon="7.76787"><ele>423.6666666666667</ele><time>2026-04-18T12:32:03.161Z</time></trkpt><trkpt lat="45.40609" lon="7.767945"><ele>426.33333333333337</ele><time>2026-04-18T12:32:04.159Z</time></trkpt><trkpt lat="45.4060383" lon="7.7679983"><ele>429.0</ele><time>2026-04-18T12:32:05.16Z</time></trkpt><trkpt lat="45.4059633" lon="7.76806"><ele>431.66666666666663</ele><time>2026-04-18T12:32:07.16Z</time></trkpt><trkpt lat="45.40589" lon="7.7680733"><ele>434.3333333333333</ele><time>2026-04-18T12:32:09.16Z</time></trkpt><trkpt lat="45.4058733" lon="7.767925"><ele>437.0</ele><time>2026-04-18T12:32:13.159Z</time></trkpt><trkpt lat="45.4059283" lon="7.767755"><ele>437.16666666666663</ele><time>2026-04-18T12:32:15.16Z</time></trkpt><trkpt lat="45.4059617" lon="7.76765"><ele>437.3333333333333</ele><time>2026-04-18T12:32:16.16Z</time></trkpt><trkpt lat="45.406005" lon="7.7675283"><ele>437.5</ele><time>2026-04-18T12:32:17.161Z</time></trkpt><trkpt lat="45.4060283" lon="7.767415"><ele>437.66666666666663</ele><time>2026-04-18T12:32:18.16Z</time></trkpt><trkpt lat="45.4060483" lon="7.7673017"><ele>437.8333333333333</ele><time>2026-04-18T12:32:19.16Z</time></trkpt><trkpt lat="45.4060617" lon="7.7671917"><ele>438.0</ele><time>2026-04-18T12:32:20.159Z</time></trkpt><trkpt lat="45.4060767" lon="7.7670833"><ele>438.0</ele><time>2026-04-18T12:32:21.161Z</time></trkpt><trkpt lat="45.406085" lon="7.7669783"><ele>437.99999999999994</ele><time>2026-04-18T12:32:22.158Z</time></trkpt><trkpt lat="45.40609" lon="7.76679"><ele>437.99999999999994</ele><time>2026-04-18T12:32:24.158Z</time></trkpt><trkpt lat="45.4060833" lon="7.7666933"><ele>438.0</ele><time>2026-04-18T12:32:25.16Z</time></trkpt><trkpt lat="45.4060483" lon="7.766605"><ele>438.0</ele><time>2026-04-18T12:32:26.161Z</time></trkpt><trkpt lat="45.40596" lon="7.76648"><ele>438.7142857142857</ele><time>2026-04-18T12:32:28.164Z</time></trkpt><trkpt lat="45.4059183" lon="7.7664067"><ele>439.4285714285714</ele><time>2026-04-18T12:32:29.161Z</time></trkpt><trkpt lat="45.4058933" lon="7.7663167"><ele>440.1428571428571</ele><time>2026-04-18T12:32:30.158Z</time></trkpt><trkpt lat="45.40588" lon="7.766225"><ele>440.8571428571429</ele><time>2026-04-18T12:32:31.16Z</time></trkpt><trkpt lat="45.405865" lon="7.76613"><ele>441.57142857142856</ele><time>2026-04-18T12:32:32.161Z</time></trkpt><trkpt lat="45.40584" lon="7.7660233"><ele>442.2857142857143</ele><time>2026-04-18T12:32:33.16Z</time></trkpt><trkpt lat="45.405815" lon="7.7659217"><ele>443.0</ele><time>2026-04-18T12:32:34.161Z</time></trkpt><trkpt lat="45.40578" lon="7.7658333"><ele>443.3333333333333</ele><time>2026-04-18T12:32:35.161Z</time></trkpt><trkpt lat="45.40573" lon="7.7657717"><ele>443.66666666666663</ele><time>2026-04-18T12:32:36.161Z</time></trkpt><trkpt lat="45.405645" lon="7.7656683"><ele>444.0</ele><time>2026-04-18T12:32:38.161Z</time></trkpt><trkpt lat="45.4056083" lon="7.7655833"><ele>444.33333333333337</ele><time>2026-04-18T12:32:39.164Z</time></trkpt><trkpt lat="45.4055767" lon="7.7654717"><ele>444.6666666666667</ele><time>2026-04-18T12:32:40.16Z</time></trkpt><trkpt lat="45.4055417" lon="7.7653367"><ele>445.0</ele><time>2026-04-18T12:32:41.16Z</time></trkpt><trkpt lat="45.4054917" lon="7.765195"><ele>446.1666666666667</ele><time>2026-04-18T12:32:42.159Z</time></trkpt><trkpt lat="45.4054433" lon="7.7650717"><ele>447.33333333333337</ele><time>2026-04-18T12:32:43.16Z</time></trkpt><trkpt lat="45.4054017" lon="7.764965"><ele>448.5</ele><time>2026-04-18T12:32:44.161Z</time></trkpt><trkpt lat="45.40536" lon="7.7648683"><ele>449.66666666666663</ele><time>2026-04-18T12:32:45.163Z</time></trkpt><trkpt lat="45.4053267" lon="7.7647733"><ele>450.8333333333333</ele><time>2026-04-18T12:32:46.162Z</time></trkpt><trkpt lat="45.4052933" lon="7.7646917"><ele>452.0</ele><time>2026-04-18T12:32:47.158Z</time></trkpt><trkpt lat="45.4052683" lon="7.7646033"><ele>452.0</ele><time>2026-04-18T12:32:48.159Z</time></trkpt><trkpt lat="45.4052233" lon="7.764505"><ele>452.00000000000006</ele><time>2026-04-18T12:32:50.159Z</time></trkpt><trkpt lat="45.4051483" lon="7.7645583"><ele>452.00000000000006</ele><time>2026-04-18T12:34:27.16Z</time></trkpt><trkpt lat="45.405035" lon="7.764605"><ele>452.0</ele><time>2026-04-18T12:34:29.159Z</time></trkpt><trkpt lat="45.4049267" lon="7.764655"><ele>452.0</ele><time>2026-04-18T12:34:31.159Z</time></trkpt><trkpt lat="45.4048617" lon="7.7646783"><ele>451.99999999999994</ele><time>2026-04-18T12:34:32.159Z</time></trkpt><trkpt lat="45.4047817" lon="7.764695"><ele>452.0</ele><time>2026-04-18T12:34:33.161Z</time></trkpt><trkpt lat="45.4047133" lon="7.7647017"><ele>452.0</ele><time>2026-04-18T12:34:34.16Z</time></trkpt><trkpt lat="45.404635" lon="7.7646733"><ele>452.0</ele><time>2026-04-18T12:34:35.16Z</time></trkpt><trkpt lat="45.4045717" lon="7.7646433"><ele>451.99999999999994</ele><time>2026-04-18T12:34:36.159Z</time></trkpt><trkpt lat="45.4045" lon="7.7646017"><ele>452.0</ele><time>2026-04-18T12:34:37.161Z</time></trkpt><trkpt lat="45.4044217" lon="7.7645383"><ele>452.6</ele><time>2026-04-18T12:34:38.159Z</time></trkpt><trkpt lat="45.4043433" lon="7.7644733"><ele>453.20000000000005</ele><time>2026-04-18T12:34:39.161Z</time></trkpt><trkpt lat="45.4042533" lon="7.7643883"><ele>453.8</ele><time>2026-04-18T12:34:40.161Z</time></trkpt><trkpt lat="45.4041917" lon="7.7643167"><ele>454.4</ele><time>2026-04-18T12:34:41.159Z</time></trkpt><trkpt lat="45.4041317" lon="7.7642633"><ele>455.0</ele><time>2026-04-18T12:34:42.16Z</time></trkpt><trkpt lat="45.4040517" lon="7.76416"><ele>455.1428571428571</ele><time>2026-04-18T12:34:44.16Z</time></trkpt><trkpt lat="45.4040167" lon="7.7640417"><ele>455.2857142857143</ele><time>2026-04-18T12:34:46.159Z</time></trkpt><trkpt lat="45.403985" lon="7.763955"><ele>455.42857142857144</ele><time>2026-04-18T12:34:47.16Z</time></trkpt><trkpt lat="45.4039517" lon="7.7638517"><ele>455.57142857142856</ele><time>2026-04-18T12:34:48.16Z</time></trkpt><trkpt lat="45.40392" lon="7.7637683"><ele>455.71428571428567</ele><time>2026-04-18T12:34:49.161Z</time></trkpt><trkpt lat="45.4038917" lon="7.7636833"><ele>455.85714285714283</ele><time>2026-04-18T12:34:50.159Z</time></trkpt><trkpt lat="45.40386" lon="7.763595"><ele>456.0</ele><time>2026-04-18T12:34:51.16Z</time></trkpt><trkpt lat="45.403825" lon="7.76352"><ele>460.6</ele><time>2026-04-18T12:34:52.161Z</time></trkpt><trkpt lat="45.4037483" lon="7.7633433"><ele>465.20000000000005</ele><time>2026-04-18T12:34:54.16Z</time></trkpt><trkpt lat="45.4037033" lon="7.7632733"><ele>469.79999999999995</ele><time>2026-04-18T12:34:55.16Z</time></trkpt><trkpt lat="45.403655" lon="7.763215"><ele>474.4</ele><time>2026-04-18T12:34:56.16Z</time></trkpt><trkpt lat="45.4035867" lon="7.7630883"><ele>479.0</ele><time>2026-04-18T12:34:58.16Z</time></trkpt><trkpt lat="45.4035383" lon="7.762935"><ele>478.99999999999994</ele><time>2026-04-18T12:35:00.158Z</time></trkpt><trkpt lat="45.4035017" lon="7.7628383"><ele>479.0</ele><time>2026-04-18T12:35:01.159Z</time></trkpt><trkpt lat="45.4034767" lon="7.7627483"><ele>479.0</ele><time>2026-04-18T12:35:02.16Z</time></trkpt><trkpt lat="45.403445" lon="7.7626633"><ele>479.0</ele><time>2026-04-18T12:35:03.16Z</time></trkpt><trkpt lat="45.4034067" lon="7.7625883"><ele>478.99999999999994</ele><time>2026-04-18T12:35:04.16Z</time></trkpt><trkpt lat="45.40334" lon="7.762435"><ele>479.0</ele><time>2026-04-18T12:35:06.159Z</time></trkpt><trkpt lat="45.4033017" lon="7.7623433"><ele>476.6</ele><time>2026-04-18T12:35:07.16Z</time></trkpt><trkpt lat="45.4032567" lon="7.7622733"><ele>474.2</ele><time>2026-04-18T12:35:08.161Z</time></trkpt><trkpt lat="45.40317" lon="7.7621333"><ele>471.80000000000007</ele><time>2026-04-18T12:35:10.159Z</time></trkpt><trkpt lat="45.4031333" lon="7.762045"><ele>469.40000000000003</ele><time>2026-04-18T12:35:11.16Z</time></trkpt><trkpt lat="45.4030617" lon="7.7618983"><ele>467.0</ele><time>2026-04-18T12:35:13.159Z</time></trkpt><trkpt lat="45.4029867" lon="7.7618017"><ele>465.0</ele><time>2026-04-18T12:35:15.159Z</time></trkpt><trkpt lat="45.402945" lon="7.76168"><ele>463.00000000000006</ele><time>2026-04-18T12:35:17.158Z</time></trkpt><trkpt lat="45.402915" lon="7.7615867"><ele>461.00000000000006</ele><time>2026-04-18T12:35:19.161Z</time></trkpt><trkpt lat="45.40289" lon="7.76146"><ele>459.0</ele><time>2026-04-18T12:35:21.16Z</time></trkpt><trkpt lat="45.40287" lon="7.7612983"><ele>457.0</ele><time>2026-04-18T12:35:23.158Z</time></trkpt><trkpt lat="45.402835" lon="7.76114"><ele>457.20000000000005</ele><time>2026-04-18T12:35:25.16Z</time></trkpt><trkpt lat="45.4028067" lon="7.761005"><ele>457.40000000000003</ele><time>2026-04-18T12:35:27.16Z</time></trkpt><trkpt lat="45.4027883" lon="7.7609017"><ele>457.59999999999997</ele><time>2026-04-18T12:35:30.16Z</time></trkpt><trkpt lat="45.4028183" lon="7.7607433"><ele>457.79999999999995</ele><time>2026-04-18T12:40:21.161Z</time></trkpt><trkpt lat="45.4028217" lon="7.76063"><ele>458.0</ele><time>2026-04-18T12:40:24.161Z</time></trkpt><trkpt lat="45.40284" lon="7.7605117"><ele>457.99999999999994</ele><time>2026-04-18T12:40:26.161Z</time></trkpt><trkpt lat="45.4028517" lon="7.760395"><ele>458.0</ele><time>2026-04-18T12:40:28.16Z</time></trkpt><trkpt lat="45.40286" lon="7.7602917"><ele>458.0</ele><time>2026-04-18T12:40:30.162Z</time></trkpt><trkpt lat="45.4028733" lon="7.7601867"><ele>458.0</ele><time>2026-04-18T12:40:33.163Z</time></trkpt><trkpt lat="45.4029" lon="7.760085"><ele>457.99999999999994</ele><time>2026-04-18T12:40:36.163Z</time></trkpt><trkpt lat="45.4029167" lon="7.7599733"><ele>458.0</ele><time>2026-04-18T12:40:43.16Z</time></trkpt><trkpt lat="45.4029267" lon="7.76008"><ele>457.99999999999994</ele><time>2026-04-18T12:40:46.159Z</time></trkpt><trkpt lat="45.402955" lon="7.7601967"><ele>458.0</ele><time>2026-04-18T12:40:49.161Z</time></trkpt><trkpt lat="45.4029533" lon="7.76032"><ele>458.0</ele><time>2026-04-18T12:40:52.16Z</time></trkpt><trkpt lat="45.4029333" lon="7.7604267"><ele>458.0</ele><time>2026-04-18T12:40:54.159Z</time></trkpt><trkpt lat="45.4029183" lon="7.76052"><ele>457.99999999999994</ele><time>2026-04-18T12:40:56.159Z</time></trkpt><trkpt lat="45.4029267" lon="7.7606267"><ele>458.0</ele><time>2026-04-18T12:40:58.159Z</time></trkpt><trkpt lat="45.4029433" lon="7.76076"><ele>457.99999999999994</ele><time>2026-04-18T12:41:00.159Z</time></trkpt><trkpt lat="45.4029417" lon="7.76089"><ele>458.0</ele><time>2026-04-18T12:41:02.16Z</time></trkpt><trkpt lat="45.402955" lon="7.76101"><ele>458.0</ele><time>2026-04-18T12:41:04.16Z</time></trkpt><trkpt lat="45.4029717" lon="7.76111"><ele>458.0</ele><time>2026-04-18T12:41:06.159Z</time></trkpt><trkpt lat="45.4030183" lon="7.7612183"><ele>457.99999999999994</ele><time>2026-04-18T12:41:09.16Z</time></trkpt><trkpt lat="45.4030933" lon="7.7612933"><ele>458.0</ele><time>2026-04-18T12:41:12.162Z</time></trkpt><trkpt lat="45.4031533" lon="7.761395"><ele>457.16666666666663</ele><time>2026-04-18T12:41:14.161Z</time></trkpt><trkpt lat="45.403215" lon="7.7615033"><ele>456.3333333333333</ele><time>2026-04-18T12:41:16.159Z</time></trkpt><trkpt lat="45.4032733" lon="7.7615883"><ele>455.5</ele><time>2026-04-18T12:41:18.16Z</time></trkpt><trkpt lat="45.4033217" lon="7.7616867"><ele>454.66666666666663</ele><time>2026-04-18T12:41:20.161Z</time></trkpt><trkpt lat="45.40336" lon="7.76177"><ele>453.8333333333333</ele><time>2026-04-18T12:41:21.161Z</time></trkpt><trkpt lat="45.4033967" lon="7.76185"><ele>453.0</ele><time>2026-04-18T12:41:22.159Z</time></trkpt><trkpt lat="45.40342" lon="7.761935"><ele>455.3333333333333</ele><time>2026-04-18T12:41:23.159Z</time></trkpt><trkpt lat="45.4034617" lon="7.7620367"><ele>457.66666666666663</ele><time>2026-04-18T12:41:25.16Z</time></trkpt><trkpt lat="45.4035083" lon="7.7621367"><ele>460.0</ele><time>2026-04-18T12:41:27.159Z</time></trkpt><trkpt lat="45.4035467" lon="7.7622383"><ele>462.3333333333333</ele><time>2026-04-18T12:41:29.159Z</time></trkpt><trkpt lat="45.4035833" lon="7.7623667"><ele>464.66666666666663</ele><time>2026-04-18T12:41:31.159Z</time></trkpt><trkpt lat="45.4036567" lon="7.762465"><ele>467.0</ele><time>2026-04-18T12:41:33.16Z</time></trkpt><trkpt lat="45.4036983" lon="7.7626"><ele>469.40000000000003</ele><time>2026-04-18T12:41:35.159Z</time></trkpt><trkpt lat="45.4037367" lon="7.7627533"><ele>471.80000000000007</ele><time>2026-04-18T12:41:36.16Z</time></trkpt><trkpt lat="45.4037733" lon="7.7628483"><ele>474.2</ele><time>2026-04-18T12:41:38.158Z</time></trkpt><trkpt lat="45.4037867" lon="7.7629583"><ele>476.6</ele><time>2026-04-18T12:41:40.159Z</time></trkpt><trkpt lat="45.40378" lon="7.7631317"><ele>479.0</ele><time>2026-04-18T12:41:41.16Z</time></trkpt><trkpt lat="45.4037983" lon="7.7632817"><ele>479.0</ele><time>2026-04-18T12:41:43.16Z</time></trkpt><trkpt lat="45.4038117" lon="7.7634067"><ele>479.0</ele><time>2026-04-18T12:41:45.16Z</time></trkpt><trkpt lat="45.4038383" lon="7.7635433"><ele>479.0</ele><time>2026-04-18T12:41:47.159Z</time></trkpt><trkpt lat="45.4038883" lon="7.7636983"><ele>479.0</ele><time>2026-04-18T12:41:49.16Z</time></trkpt><trkpt lat="45.4039333" lon="7.7638167"><ele>479.0</ele><time>2026-04-18T12:41:51.16Z</time></trkpt><trkpt lat="45.4040033" lon="7.7639217"><ele>474.4</ele><time>2026-04-18T12:41:53.16Z</time></trkpt><trkpt lat="45.4041483" lon="7.7640183"><ele>469.79999999999995</ele><time>2026-04-18T12:41:55.16Z</time></trkpt><trkpt lat="45.404265" lon="7.764095"><ele>465.20000000000005</ele><time>2026-04-18T12:41:56.16Z</time></trkpt><trkpt lat="45.4043383" lon="7.7641083"><ele>460.6</ele><time>2026-04-18T12:41:57.16Z</time></trkpt><trkpt lat="45.4044133" lon="7.7641683"><ele>456.0</ele><time>2026-04-18T12:41:58.16Z</time></trkpt><trkpt lat="45.4044983" lon="7.7642167"><ele>456.0</ele><time>2026-04-18T12:41:59.16Z</time></trkpt><trkpt lat="45.404575" lon="7.7642183"><ele>456.0</ele><time>2026-04-18T12:42:00.159Z</time></trkpt><trkpt lat="45.404655" lon="7.7642217"><ele>456.0</ele><time>2026-04-18T12:42:01.161Z</time></trkpt><trkpt lat="45.4047267" lon="7.7642033"><ele>456.0</ele><time>2026-04-18T12:42:02.161Z</time></trkpt><trkpt lat="45.40481" lon="7.7641983"><ele>456.0</ele><time>2026-04-18T12:42:03.161Z</time></trkpt><trkpt lat="45.404885" lon="7.76419"><ele>456.0</ele><time>2026-04-18T12:42:04.158Z</time></trkpt><trkpt lat="45.4049533" lon="7.764195"><ele>454.4</ele><time>2026-04-18T12:42:05.158Z</time></trkpt><trkpt lat="45.4050733" lon="7.7642083"><ele>452.8</ele><time>2026-04-18T12:42:07.16Z</time></trkpt><trkpt lat="45.40517" lon="7.7641667"><ele>451.19999999999993</ele><time>2026-04-18T12:42:09.16Z</time></trkpt><trkpt lat="45.4052783" lon="7.76413"><ele>449.59999999999997</ele><time>2026-04-18T12:42:11.159Z</time></trkpt><trkpt lat="45.4051967" lon="7.7640833"><ele>448.0</ele><time>2026-04-18T12:42:14.161Z</time></trkpt><trkpt lat="45.4050767" lon="7.7640183"><ele>448.0</ele><time>2026-04-18T12:42:16.159Z</time></trkpt><trkpt lat="45.404995" lon="7.764"><ele>447.99999999999994</ele><time>2026-04-18T12:42:17.16Z</time></trkpt><trkpt lat="45.4048767" lon="7.7639767"><ele>447.99999999999994</ele><time>2026-04-18T12:42:19.159Z</time></trkpt><trkpt lat="45.4048017" lon="7.76396"><ele>448.0</ele><time>2026-04-18T12:42:21.161Z</time></trkpt><trkpt lat="45.404735" lon="7.763895"><ele>448.0</ele><time>2026-04-18T12:42:25.159Z</time></trkpt><trkpt lat="45.404655" lon="7.7637617"><ele>448.0</ele><time>2026-04-18T12:49:38.16Z</time></trkpt><trkpt lat="45.4045633" lon="7.763785"><ele>447.99999999999994</ele><time>2026-04-18T13:00:37.16Z</time></trkpt><trkpt lat="45.4046583" lon="7.763835"><ele>447.99999999999994</ele><time>2026-04-18T13:00:46.159Z</time></trkpt><trkpt lat="45.4047783" lon="7.7638467"><ele>448.0</ele><time>2026-04-18T13:00:48.159Z</time></trkpt><trkpt lat="45.4048583" lon="7.7638567"><ele>448.0</ele><time>2026-04-18T13:00:50.158Z</time></trkpt><trkpt lat="45.4049267" lon="7.7638683"><ele>448.0</ele><time>2026-04-18T13:01:04.159Z</time></trkpt><trkpt lat="45.40499" lon="7.763885"><ele>448.0</ele><time>2026-04-18T13:01:07.159Z</time></trkpt><trkpt lat="45.4050633" lon="7.7639333"><ele>448.0</ele><time>2026-04-18T13:01:10.159Z</time></trkpt><trkpt lat="45.405135" lon="7.7639783"><ele>448.0</ele><time>2026-04-18T13:01:12.16Z</time></trkpt><trkpt lat="45.40519" lon="7.7640333"><ele>448.0</ele><time>2026-04-18T13:01:14.161Z</time></trkpt><trkpt lat="45.4052233" lon="7.7641167"><ele>448.0</ele><time>2026-04-18T13:01:16.16Z</time></trkpt><trkpt lat="45.40522" lon="7.7642367"><ele>448.0</ele><time>2026-04-18T13:01:19.16Z</time></trkpt><trkpt lat="45.4051617" lon="7.76434"><ele>448.6666666666667</ele><time>2026-04-18T13:01:36.16Z</time></trkpt><trkpt lat="45.4051" lon="7.7643783"><ele>449.33333333333337</ele><time>2026-04-18T13:01:37.16Z</time></trkpt><trkpt lat="45.40504" lon="7.76442"><ele>450.0</ele><time>2026-04-18T13:01:38.161Z</time></trkpt><trkpt lat="45.404955" lon="7.7644617"><ele>450.66666666666663</ele><time>2026-04-18T13:01:39.16Z</time></trkpt><trkpt lat="45.4048933" lon="7.7645083"><ele>451.3333333333333</ele><time>2026-04-18T13:01:40.159Z</time></trkpt><trkpt lat="45.4047967" lon="7.7645517"><ele>452.0</ele><time>2026-04-18T13:01:41.16Z</time></trkpt><trkpt lat="45.40464" lon="7.7645733"><ele>452.49999999999994</ele><time>2026-04-18T13:01:43.16Z</time></trkpt><trkpt lat="45.4045667" lon="7.76456"><ele>453.0</ele><time>2026-04-18T13:01:44.16Z</time></trkpt><trkpt lat="45.40448" lon="7.764545"><ele>453.5</ele><time>2026-04-18T13:01:45.16Z</time></trkpt><trkpt lat="45.404415" lon="7.7645183"><ele>454.0</ele><time>2026-04-18T13:01:46.159Z</time></trkpt><trkpt lat="45.4042883" lon="7.7644117"><ele>454.49999999999994</ele><time>2026-04-18T13:01:47.158Z</time></trkpt><trkpt lat="45.4042317" lon="7.7643583"><ele>455.0</ele><time>2026-04-18T13:01:48.159Z</time></trkpt><trkpt lat="45.4041617" lon="7.7642683"><ele>455.16666666666663</ele><time>2026-04-18T13:01:49.16Z</time></trkpt><trkpt lat="45.4041017" lon="7.76418"><ele>455.3333333333333</ele><time>2026-04-18T13:01:51.16Z</time></trkpt><trkpt lat="45.404075" lon="7.76408"><ele>455.5</ele><time>2026-04-18T13:01:56.16Z</time></trkpt><trkpt lat="45.4040583" lon="7.7639683"><ele>455.66666666666663</ele><time>2026-04-18T13:02:02.161Z</time></trkpt><trkpt lat="45.4039983" lon="7.76382"><ele>455.8333333333333</ele><time>2026-04-18T13:02:04.158Z</time></trkpt><trkpt lat="45.40397" lon="7.76373"><ele>456.0</ele><time>2026-04-18T13:02:05.158Z</time></trkpt><trkpt lat="45.4039483" lon="7.76364"><ele>456.0</ele><time>2026-04-18T13:02:06.159Z</time></trkpt><trkpt lat="45.4039" lon="7.7635633"><ele>455.99999999999994</ele><time>2026-04-18T13:02:07.158Z</time></trkpt><trkpt lat="45.403855" lon="7.7634783"><ele>456.0</ele><time>2026-04-18T13:02:08.159Z</time></trkpt><trkpt lat="45.403805" lon="7.7633667"><ele>456.0</ele><time>2026-04-18T13:02:09.16Z</time></trkpt><trkpt lat="45.40376" lon="7.7632867"><ele>455.99999999999994</ele><time>2026-04-18T13:02:10.161Z</time></trkpt><trkpt lat="45.4037083" lon="7.76322"><ele>456.0</ele><time>2026-04-18T13:02:11.16Z</time></trkpt><trkpt lat="45.4036667" lon="7.7631467"><ele>456.0</ele><time>2026-04-18T13:02:12.16Z</time></trkpt><trkpt lat="45.403625" lon="7.7630567"><ele>458.20000000000005</ele><time>2026-04-18T13:02:13.159Z</time></trkpt><trkpt lat="45.4035933" lon="7.7629667"><ele>460.40000000000003</ele><time>2026-04-18T13:02:14.16Z</time></trkpt><trkpt lat="45.4035467" lon="7.76283"><ele>462.6</ele><time>2026-04-18T13:02:15.16Z</time></trkpt><trkpt lat="45.4034883" lon="7.762725"><ele>464.8</ele><time>2026-04-18T13:02:16.159Z</time></trkpt><trkpt lat="45.4034383" lon="7.7625917"><ele>467.0</ele><time>2026-04-18T13:02:17.157Z</time></trkpt><trkpt lat="45.4033983" lon="7.762485"><ele>466.99999999999994</ele><time>2026-04-18T13:02:18.16Z</time></trkpt><trkpt lat="45.403355" lon="7.7623983"><ele>467.0</ele><time>2026-04-18T13:02:19.159Z</time></trkpt><trkpt lat="45.4033233" lon="7.762295"><ele>467.0</ele><time>2026-04-18T13:02:20.16Z</time></trkpt><trkpt lat="45.40327" lon="7.762185"><ele>467.0</ele><time>2026-04-18T13:02:21.159Z</time></trkpt><trkpt lat="45.4032167" lon="7.76208"><ele>466.99999999999994</ele><time>2026-04-18T13:02:22.158Z</time></trkpt><trkpt lat="45.4031633" lon="7.7619733"><ele>467.0</ele><time>2026-04-18T13:02:23.16Z</time></trkpt><trkpt lat="45.4031283" lon="7.761885"><ele>465.0</ele><time>2026-04-18T13:02:24.16Z</time></trkpt><trkpt lat="45.4030533" lon="7.76174"><ele>463.00000000000006</ele><time>2026-04-18T13:02:26.16Z</time></trkpt><trkpt lat="45.40298" lon="7.7616483"><ele>461.00000000000006</ele><time>2026-04-18T13:02:28.158Z</time></trkpt><trkpt lat="45.4029183" lon="7.76155"><ele>459.0</ele><time>2026-04-18T13:02:30.16Z</time></trkpt><trkpt lat="45.402875" lon="7.7614567"><ele>457.0</ele><time>2026-04-18T13:02:32.158Z</time></trkpt><trkpt lat="45.4028467" lon="7.7613517"><ele>457.0</ele><time>2026-04-18T13:02:35.159Z</time></trkpt><trkpt lat="45.4028433" lon="7.7612567"><ele>457.00000000000006</ele><time>2026-04-18T13:02:46.158Z</time></trkpt><trkpt lat="45.4027983" lon="7.7611233"><ele>457.00000000000006</ele><time>2026-04-18T13:02:48.159Z</time></trkpt><trkpt lat="45.4027583" lon="7.7609867"><ele>457.0</ele><time>2026-04-18T13:02:50.161Z</time></trkpt><trkpt lat="45.4027533" lon="7.760845"><ele>457.0</ele><time>2026-04-18T13:02:52.159Z</time></trkpt><trkpt lat="45.4027517" lon="7.7606967"><ele>457.1666666666667</ele><time>2026-04-18T13:02:54.158Z</time></trkpt><trkpt lat="45.4027583" lon="7.7605683"><ele>457.33333333333337</ele><time>2026-04-18T13:02:56.159Z</time></trkpt><trkpt lat="45.4027817" lon="7.7604417"><ele>457.5</ele><time>2026-04-18T13:02:58.16Z</time></trkpt><trkpt lat="45.402795" lon="7.760325"><ele>457.66666666666663</ele><time>2026-04-18T13:03:00.158Z</time></trkpt><trkpt lat="45.402825" lon="7.76023"><ele>457.8333333333333</ele><time>2026-04-18T13:03:02.159Z</time></trkpt><trkpt lat="45.4028667" lon="7.7601183"><ele>458.0</ele><time>2026-04-18T13:03:04.159Z</time></trkpt><trkpt lat="45.4028883" lon="7.759975"><ele>458.16666666666663</ele><time>2026-04-18T13:03:07.159Z</time></trkpt><trkpt lat="45.4029067" lon="7.7598717"><ele>458.3333333333333</ele><time>2026-04-18T13:03:09.159Z</time></trkpt><trkpt lat="45.40288" lon="7.7597717"><ele>458.5</ele><time>2026-04-18T13:03:11.16Z</time></trkpt><trkpt lat="45.40285" lon="7.7596683"><ele>458.66666666666663</ele><time>2026-04-18T13:03:13.159Z</time></trkpt><trkpt lat="45.4028317" lon="7.7595733"><ele>458.8333333333333</ele><time>2026-04-18T13:03:15.16Z</time></trkpt><trkpt lat="45.4028133" lon="7.75946"><ele>459.0</ele><time>2026-04-18T13:03:17.16Z</time></trkpt><trkpt lat="45.4027817" lon="7.7593467"><ele>458.0</ele><time>2026-04-18T13:03:19.161Z</time></trkpt><trkpt lat="45.4027717" lon="7.75922"><ele>457.0</ele><time>2026-04-18T13:03:21.159Z</time></trkpt><trkpt lat="45.4027617" lon="7.75908"><ele>456.0</ele><time>2026-04-18T13:03:23.16Z</time></trkpt><trkpt lat="45.40277" lon="7.758825"><ele>455.0</ele><time>2026-04-18T13:03:25.159Z</time></trkpt><trkpt lat="45.4027733" lon="7.7587267"><ele>454.0</ele><time>2026-04-18T13:03:26.159Z</time></trkpt><trkpt lat="45.402775" lon="7.75857"><ele>452.79999999999995</ele><time>2026-04-18T13:03:28.16Z</time></trkpt><trkpt lat="45.4027817" lon="7.75836"><ele>451.59999999999997</ele><time>2026-04-18T13:03:30.161Z</time></trkpt><trkpt lat="45.4027667" lon="7.758235"><ele>450.4</ele><time>2026-04-18T13:03:32.161Z</time></trkpt><trkpt lat="45.402745" lon="7.758115"><ele>449.2</ele><time>2026-04-18T13:03:34.16Z</time></trkpt><trkpt lat="45.4027067" lon="7.7580267"><ele>448.0</ele><time>2026-04-18T13:03:37.159Z</time></trkpt><trkpt lat="45.4026283" lon="7.75807"><ele>448.00000000000006</ele><time>2026-04-18T13:03:43.16Z</time></trkpt><trkpt lat="45.4025633" lon="7.75811"><ele>448.0</ele><time>2026-04-18T13:03:47.158Z</time></trkpt><trkpt lat="45.4025583" lon="7.7582017"><ele>448.0</ele><time>2026-04-18T13:03:50.158Z</time></trkpt><trkpt lat="45.4024783" lon="7.7582883"><ele>448.0</ele><time>2026-04-18T13:03:53.16Z</time></trkpt><trkpt lat="45.4024067" lon="7.7583383"><ele>448.00000000000006</ele><time>2026-04-18T13:03:55.16Z</time></trkpt><trkpt lat="45.4023233" lon="7.7584267"><ele>448.0</ele><time>2026-04-18T13:03:57.16Z</time></trkpt><trkpt lat="45.4022667" lon="7.7585017"><ele>449.2</ele><time>2026-04-18T13:03:58.16Z</time></trkpt><trkpt lat="45.402215" lon="7.7586367"><ele>450.4</ele><time>2026-04-18T13:04:00.159Z</time></trkpt><trkpt lat="45.4022017" lon="7.75877"><ele>451.59999999999997</ele><time>2026-04-18T13:04:02.159Z</time></trkpt><trkpt lat="45.4022083" lon="7.7588833"><ele>452.79999999999995</ele><time>2026-04-18T13:04:04.159Z</time></trkpt><trkpt lat="45.402215" lon="7.7590067"><ele>454.0</ele><time>2026-04-18T13:04:06.16Z</time></trkpt><trkpt lat="45.4021967" lon="7.7591683"><ele>454.0</ele><time>2026-04-18T13:04:08.159Z</time></trkpt><trkpt lat="45.4021933" lon="7.7593083"><ele>454.0</ele><time>2026-04-18T13:04:10.16Z</time></trkpt><trkpt lat="45.402175" lon="7.75947"><ele>454.0</ele><time>2026-04-18T13:04:12.16Z</time></trkpt><trkpt lat="45.4021717" lon="7.7596317"><ele>454.0</ele><time>2026-04-18T13:04:14.158Z</time></trkpt><trkpt lat="45.4021633" lon="7.75976"><ele>454.0</ele><time>2026-04-18T13:04:16.16Z</time></trkpt><trkpt lat="45.402145" lon="7.759915"><ele>453.6</ele><time>2026-04-18T13:04:18.158Z</time></trkpt><trkpt lat="45.4021283" lon="7.7600517"><ele>453.2</ele><time>2026-04-18T13:04:20.159Z</time></trkpt><trkpt lat="45.4021583" lon="7.7601533"><ele>452.80000000000007</ele><time>2026-04-18T13:04:22.159Z</time></trkpt><trkpt lat="45.4022583" lon="7.7602733"><ele>452.40000000000003</ele><time>2026-04-18T13:04:24.159Z</time></trkpt><trkpt lat="45.40234" lon="7.7603783"><ele>452.0</ele><time>2026-04-18T13:04:26.159Z</time></trkpt><trkpt lat="45.4023933" lon="7.7604617"><ele>453.0</ele><time>2026-04-18T13:04:27.158Z</time></trkpt><trkpt lat="45.4024433" lon="7.7605867"><ele>454.00000000000006</ele><time>2026-04-18T13:04:29.16Z</time></trkpt><trkpt lat="45.4024983" lon="7.7606867"><ele>455.00000000000006</ele><time>2026-04-18T13:04:31.16Z</time></trkpt><trkpt lat="45.40256" lon="7.76081"><ele>456.0</ele><time>2026-04-18T13:04:33.16Z</time></trkpt><trkpt lat="45.4026167" lon="7.760955"><ele>457.0</ele><time>2026-04-18T13:04:34.159Z</time></trkpt><trkpt lat="45.402635" lon="7.7610517"><ele>457.00000000000006</ele><time>2026-04-18T13:04:35.159Z</time></trkpt><trkpt lat="45.4026217" lon="7.7611467"><ele>457.0</ele><time>2026-04-18T13:04:37.158Z</time></trkpt><trkpt lat="45.40256" lon="7.7612567"><ele>457.0</ele><time>2026-04-18T13:04:39.16Z</time></trkpt><trkpt lat="45.4025033" lon="7.761315"><ele>457.0</ele><time>2026-04-18T13:04:40.158Z</time></trkpt><trkpt lat="45.4024417" lon="7.7613683"><ele>457.00000000000006</ele><time>2026-04-18T13:04:41.159Z</time></trkpt><trkpt lat="45.402375" lon="7.7614333"><ele>457.0</ele><time>2026-04-18T13:04:42.159Z</time></trkpt><trkpt lat="45.4022783" lon="7.761505"><ele>457.0</ele><time>2026-04-18T13:04:43.16Z</time></trkpt><trkpt lat="45.4021883" lon="7.761575"><ele>457.0</ele><time>2026-04-18T13:04:44.158Z</time></trkpt><trkpt lat="45.402035" lon="7.7616617"><ele>457.0</ele><time>2026-04-18T13:04:45.16Z</time></trkpt><trkpt lat="45.401945" lon="7.7617067"><ele>457.0</ele><time>2026-04-18T13:04:46.159Z</time></trkpt><trkpt lat="45.40184" lon="7.761775"><ele>456.50000000000006</ele><time>2026-04-18T13:04:47.159Z</time></trkpt><trkpt lat="45.4017733" lon="7.76181"><ele>456.0</ele><time>2026-04-18T13:04:48.159Z</time></trkpt><trkpt lat="45.401705" lon="7.7618317"><ele>455.5</ele><time>2026-04-18T13:04:49.16Z</time></trkpt><trkpt lat="45.4016217" lon="7.7618517"><ele>455.0</ele><time>2026-04-18T13:04:50.16Z</time></trkpt><trkpt lat="45.401525" lon="7.7618667"><ele>454.50000000000006</ele><time>2026-04-18T13:04:51.159Z</time></trkpt><trkpt lat="45.4014317" lon="7.7618733"><ele>454.0</ele><time>2026-04-18T13:04:52.16Z</time></trkpt><trkpt lat="45.4013367" lon="7.761885"><ele>452.75</ele><time>2026-04-18T13:04:53.158Z</time></trkpt><trkpt lat="45.4012183" lon="7.7618917"><ele>451.5</ele><time>2026-04-18T13:04:54.16Z</time></trkpt><trkpt lat="45.40107" lon="7.7618933"><ele>450.25</ele><time>2026-04-18T13:04:55.159Z</time></trkpt><trkpt lat="45.4009483" lon="7.7618983"><ele>449.0</ele><time>2026-04-18T13:04:56.159Z</time></trkpt><trkpt lat="45.4008483" lon="7.7619"><ele>449.0</ele><time>2026-04-18T13:04:57.159Z</time></trkpt><trkpt lat="45.4007467" lon="7.7619"><ele>449.0</ele><time>2026-04-18T13:04:58.159Z</time></trkpt><trkpt lat="45.40067" lon="7.7619033"><ele>449.0</ele><time>2026-04-18T13:04:59.159Z</time></trkpt><trkpt lat="45.400555" lon="7.7619067"><ele>449.0</ele><time>2026-04-18T13:05:01.16Z</time></trkpt><trkpt lat="45.4004717" lon="7.7618717"><ele>449.0</ele><time>2026-04-18T13:05:02.16Z</time></trkpt><trkpt lat="45.40041" lon="7.7617817"><ele>447.6</ele><time>2026-04-18T13:05:04.159Z</time></trkpt><trkpt lat="45.400395" lon="7.7616617"><ele>446.2</ele><time>2026-04-18T13:05:06.16Z</time></trkpt><trkpt lat="45.4003767" lon="7.7615283"><ele>444.80000000000007</ele><time>2026-04-18T13:05:08.159Z</time></trkpt><trkpt lat="45.4003" lon="7.7614183"><ele>443.40000000000003</ele><time>2026-04-18T13:05:10.159Z</time></trkpt><trkpt lat="45.400205" lon="7.761345"><ele>442.0</ele><time>2026-04-18T13:05:12.159Z</time></trkpt><trkpt lat="45.4001133" lon="7.761315"><ele>442.00000000000006</ele><time>2026-04-18T13:05:14.16Z</time></trkpt><trkpt lat="45.400035" lon="7.76133"><ele>442.0</ele><time>2026-04-18T13:05:16.157Z</time></trkpt><trkpt lat="45.3999733" lon="7.7613483"><ele>442.0</ele><time>2026-04-18T13:05:18.159Z</time></trkpt><trkpt lat="45.3999417" lon="7.76144"><ele>442.0</ele><time>2026-04-18T13:05:20.159Z</time></trkpt><trkpt lat="45.3999083" lon="7.76152"><ele>442.00000000000006</ele><time>2026-04-18T13:05:23.157Z</time></trkpt><trkpt lat="45.3997983" lon="7.7615617"><ele>442.0</ele><time>2026-04-18T13:05:26.159Z</time></trkpt><trkpt lat="45.3997167" lon="7.7616083"><ele>442.33333333333337</ele><time>2026-04-18T13:05:28.159Z</time></trkpt><trkpt lat="45.3996333" lon="7.76167"><ele>442.6666666666667</ele><time>2026-04-18T13:05:31.159Z</time></trkpt><trkpt lat="45.3996067" lon="7.7617917"><ele>443.0</ele><time>2026-04-18T13:05:35.159Z</time></trkpt><trkpt lat="45.3996317" lon="7.761895"><ele>443.33333333333337</ele><time>2026-04-18T13:05:37.157Z</time></trkpt><trkpt lat="45.3996667" lon="7.7619817"><ele>443.6666666666667</ele><time>2026-04-18T13:05:39.161Z</time></trkpt><trkpt lat="45.3996917" lon="7.7621217"><ele>444.0</ele><time>2026-04-18T13:05:41.159Z</time></trkpt><trkpt lat="45.3997133" lon="7.7622333"><ele>444.6666666666667</ele><time>2026-04-18T13:05:42.159Z</time></trkpt><trkpt lat="45.3997283" lon="7.7623217"><ele>445.33333333333337</ele><time>2026-04-18T13:05:43.161Z</time></trkpt><trkpt lat="45.3997367" lon="7.762415"><ele>446.0</ele><time>2026-04-18T13:05:44.158Z</time></trkpt><trkpt lat="45.3997617" lon="7.76257"><ele>446.6666666666667</ele><time>2026-04-18T13:05:46.158Z</time></trkpt><trkpt lat="45.3997783" lon="7.7626933"><ele>447.33333333333337</ele><time>2026-04-18T13:05:48.16Z</time></trkpt><trkpt lat="45.3997483" lon="7.7628433"><ele>448.0</ele><time>2026-04-18T13:05:51.16Z</time></trkpt><trkpt lat="45.3997417" lon="7.7629733"><ele>448.79999999999995</ele><time>2026-04-18T13:05:53.158Z</time></trkpt><trkpt lat="45.3997383" lon="7.7631017"><ele>449.59999999999997</ele><time>2026-04-18T13:05:55.16Z</time></trkpt><trkpt lat="45.3997183" lon="7.76319"><ele>450.40000000000003</ele><time>2026-04-18T13:05:57.159Z</time></trkpt><trkpt lat="45.3996783" lon="7.763375"><ele>451.20000000000005</ele><time>2026-04-18T13:06:29.159Z</time></trkpt><trkpt lat="45.39977" lon="7.7633817"><ele>452.0</ele><time>2026-04-18T13:06:33.16Z</time></trkpt><trkpt lat="45.39989" lon="7.7634467"><ele>451.99999999999994</ele><time>2026-04-18T13:06:35.157Z</time></trkpt><trkpt lat="45.399955" lon="7.7635083"><ele>452.0</ele><time>2026-04-18T13:06:36.16Z</time></trkpt><trkpt lat="45.4000133" lon="7.7635983"><ele>452.0</ele><time>2026-04-18T13:06:38.159Z</time></trkpt><trkpt lat="45.4000583" lon="7.7636633"><ele>452.0</ele><time>2026-04-18T13:06:40.159Z</time></trkpt><trkpt lat="45.4001133" lon="7.7637583"><ele>451.99999999999994</ele><time>2026-04-18T13:06:42.159Z</time></trkpt><trkpt lat="45.4001383" lon="7.7638767"><ele>452.0</ele><time>2026-04-18T13:06:44.159Z</time></trkpt><trkpt lat="45.4001467" lon="7.7639833"><ele>454.75</ele><time>2026-04-18T13:06:46.159Z</time></trkpt><trkpt lat="45.4002083" lon="7.7642867"><ele>457.5</ele><time>2026-04-18T13:07:13.16Z</time></trkpt><trkpt lat="45.40015" lon="7.76437"><ele>460.25</ele><time>2026-04-18T13:07:18.16Z</time></trkpt><trkpt lat="45.40009" lon="7.764415"><ele>463.0</ele><time>2026-04-18T13:07:21.159Z</time></trkpt><trkpt lat="45.4000183" lon="7.7644717"><ele>462.83333333333337</ele><time>2026-04-18T13:07:24.158Z</time></trkpt><trkpt lat="45.3999533" lon="7.7645333"><ele>462.6666666666667</ele><time>2026-04-18T13:07:27.16Z</time></trkpt><trkpt lat="45.399875" lon="7.7646533"><ele>462.5</ele><time>2026-04-18T13:07:34.16Z</time></trkpt><trkpt lat="45.39982" lon="7.7647267"><ele>462.33333333333337</ele><time>2026-04-18T13:07:39.16Z</time></trkpt><trkpt lat="45.399745" lon="7.7647283"><ele>462.1666666666667</ele><time>2026-04-18T13:07:43.158Z</time></trkpt><trkpt lat="45.3996783" lon="7.764735"><ele>462.0</ele><time>2026-04-18T13:07:46.158Z</time></trkpt><trkpt lat="45.3996117" lon="7.76478"><ele>462.0</ele><time>2026-04-18T13:07:50.159Z</time></trkpt><trkpt lat="45.399545" lon="7.7648217"><ele>462.00000000000006</ele><time>2026-04-18T13:07:55.16Z</time></trkpt><trkpt lat="45.3994633" lon="7.7648817"><ele>462.00000000000006</ele><time>2026-04-18T13:07:59.159Z</time></trkpt><trkpt lat="45.3994183" lon="7.764975"><ele>462.0</ele><time>2026-04-18T13:08:02.159Z</time></trkpt><trkpt lat="45.399355" lon="7.764985"><ele>462.0</ele><time>2026-04-18T13:08:04.159Z</time></trkpt><trkpt lat="45.3991817" lon="7.7650533"><ele>462.0</ele><time>2026-04-18T13:08:06.159Z</time></trkpt><trkpt lat="45.3989433" lon="7.76514"><ele>462.0</ele><time>2026-04-18T13:08:08.159Z</time></trkpt><trkpt lat="45.3988067" lon="7.765165"><ele>462.0</ele><time>2026-04-18T13:08:09.16Z</time></trkpt><trkpt lat="45.3987083" lon="7.765165"><ele>461.2857142857143</ele><time>2026-04-18T13:08:10.159Z</time></trkpt><trkpt lat="45.3986167" lon="7.76516"><ele>460.57142857142856</ele><time>2026-04-18T13:08:12.16Z</time></trkpt><trkpt lat="45.3985533" lon="7.765165"><ele>459.8571428571429</ele><time>2026-04-18T13:08:14.159Z</time></trkpt><trkpt lat="45.398505" lon="7.765245"><ele>459.14285714285717</ele><time>2026-04-18T13:08:17.159Z</time></trkpt><trkpt lat="45.3984583" lon="7.765345"><ele>458.42857142857144</ele><time>2026-04-18T13:08:19.159Z</time></trkpt><trkpt lat="45.398425" lon="7.7654233"><ele>457.7142857142858</ele><time>2026-04-18T13:08:21.16Z</time></trkpt><trkpt lat="45.3983733" lon="7.7654933"><ele>457.00000000000006</ele><time>2026-04-18T13:08:23.16Z</time></trkpt><trkpt lat="45.398325" lon="7.76559"><ele>457.0</ele><time>2026-04-18T13:08:25.16Z</time></trkpt><trkpt lat="45.398275" lon="7.7656817"><ele>457.00000000000006</ele><time>2026-04-18T13:08:27.159Z</time></trkpt><trkpt lat="45.3982083" lon="7.765795"><ele>457.00000000000006</ele><time>2026-04-18T13:08:30.159Z</time></trkpt><trkpt lat="45.39814" lon="7.7659117"><ele>457.0</ele><time>2026-04-18T13:08:32.159Z</time></trkpt><trkpt lat="45.3980833" lon="7.7659933"><ele>457.0</ele><time>2026-04-18T13:08:34.16Z</time></trkpt><trkpt lat="45.3980167" lon="7.7660883"><ele>459.0</ele><time>2026-04-18T13:08:39.16Z</time></trkpt><trkpt lat="45.398015" lon="7.7662"><ele>461.00000000000006</ele><time>2026-04-18T13:08:43.159Z</time></trkpt><trkpt lat="45.3980283" lon="7.766365"><ele>463.00000000000006</ele><time>2026-04-18T13:08:45.16Z</time></trkpt><trkpt lat="45.3980283" lon="7.7664683"><ele>465.0</ele><time>2026-04-18T13:08:46.158Z</time></trkpt><trkpt lat="45.3980183" lon="7.766645"><ele>467.0</ele><time>2026-04-18T13:08:48.16Z</time></trkpt><trkpt lat="45.3980217" lon="7.766755"><ele>468.8333333333333</ele><time>2026-04-18T13:08:49.16Z</time></trkpt><trkpt lat="45.39802" lon="7.7668917"><ele>470.66666666666663</ele><time>2026-04-18T13:08:50.159Z</time></trkpt><trkpt lat="45.398015" lon="7.7669967"><ele>472.5</ele><time>2026-04-18T13:08:51.16Z</time></trkpt><trkpt lat="45.3979933" lon="7.767105"><ele>474.33333333333337</ele><time>2026-04-18T13:08:52.159Z</time></trkpt><trkpt lat="45.39798" lon="7.7671967"><ele>476.1666666666667</ele><time>2026-04-18T13:08:53.16Z</time></trkpt><trkpt lat="45.3979133" lon="7.7673483"><ele>478.0</ele><time>2026-04-18T13:08:55.158Z</time></trkpt><trkpt lat="45.397855" lon="7.7674833"><ele>475.4</ele><time>2026-04-18T13:08:57.16Z</time></trkpt><trkpt lat="45.39782" lon="7.7675667"><ele>472.79999999999995</ele><time>2026-04-18T13:08:58.159Z</time></trkpt><trkpt lat="45.397735" lon="7.7677367"><ele>470.2</ele><time>2026-04-18T13:09:00.159Z</time></trkpt><trkpt lat="45.3976983" lon="7.767815"><ele>467.6</ele><time>2026-04-18T13:09:01.16Z</time></trkpt><trkpt lat="45.397625" lon="7.7679733"><ele>465.0</ele><time>2026-04-18T13:09:03.161Z</time></trkpt><trkpt lat="45.39757" lon="7.7680667"><ele>465.0</ele><time>2026-04-18T13:09:04.16Z</time></trkpt><trkpt lat="45.397535" lon="7.76817"><ele>465.0</ele><time>2026-04-18T13:09:05.159Z</time></trkpt><trkpt lat="45.39749" lon="7.768295"><ele>465.0</ele><time>2026-04-18T13:09:06.16Z</time></trkpt><trkpt lat="45.3974633" lon="7.7684083"><ele>465.0</ele><time>2026-04-18T13:09:07.16Z</time></trkpt><trkpt lat="45.397435" lon="7.7685133"><ele>465.0</ele><time>2026-04-18T13:09:08.159Z</time></trkpt><trkpt lat="45.3973767" lon="7.7686217"><ele>465.0</ele><time>2026-04-18T13:09:09.159Z</time></trkpt><trkpt lat="45.3973417" lon="7.7687033"><ele>464.3333333333333</ele><time>2026-04-18T13:09:10.16Z</time></trkpt><trkpt lat="45.3972983" lon="7.7687733"><ele>463.66666666666663</ele><time>2026-04-18T13:09:11.159Z</time></trkpt><trkpt lat="45.3972467" lon="7.76884"><ele>463.0</ele><time>2026-04-18T13:09:12.16Z</time></trkpt><trkpt lat="45.3971667" lon="7.7689083"><ele>462.3333333333333</ele><time>2026-04-18T13:09:13.161Z</time></trkpt><trkpt lat="45.3970917" lon="7.768955"><ele>461.66666666666663</ele><time>2026-04-18T13:09:14.161Z</time></trkpt><trkpt lat="45.3970267" lon="7.7689833"><ele>461.0</ele><time>2026-04-18T13:09:15.16Z</time></trkpt><trkpt lat="45.3969083" lon="7.7690167"><ele>461.0</ele><time>2026-04-18T13:09:17.159Z</time></trkpt><trkpt lat="45.3968367" lon="7.7690233"><ele>461.00000000000006</ele><time>2026-04-18T13:09:18.16Z</time></trkpt><trkpt lat="45.3967533" lon="7.7690583"><ele>461.0</ele><time>2026-04-18T13:09:20.159Z</time></trkpt><trkpt lat="45.3966967" lon="7.7691033"><ele>461.0</ele><time>2026-04-18T13:09:22.158Z</time></trkpt><trkpt lat="45.3966283" lon="7.769145"><ele>461.00000000000006</ele><time>2026-04-18T13:09:24.161Z</time></trkpt><trkpt lat="45.3965683" lon="7.7692117"><ele>461.0</ele><time>2026-04-18T13:09:27.157Z</time></trkpt><trkpt lat="45.3965033" lon="7.7691583"><ele>461.0</ele><time>2026-04-18T13:09:30.159Z</time></trkpt><trkpt lat="45.3964533" lon="7.7691017"><ele>461.0</ele><time>2026-04-18T13:09:32.159Z</time></trkpt><trkpt lat="45.39639" lon="7.769005"><ele>461.0</ele><time>2026-04-18T13:09:35.159Z</time></trkpt><trkpt lat="45.3963283" lon="7.7689117"><ele>461.0</ele><time>2026-04-18T13:09:37.16Z</time></trkpt><trkpt lat="45.39625" lon="7.7687767"><ele>461.0</ele><time>2026-04-18T13:09:39.161Z</time></trkpt><trkpt lat="45.3961383" lon="7.7686983"><ele>461.0</ele><time>2026-04-18T13:09:41.16Z</time></trkpt><trkpt lat="45.396075" lon="7.7686633"><ele>460.3333333333333</ele><time>2026-04-18T13:09:42.16Z</time></trkpt><trkpt lat="45.396" lon="7.7686383"><ele>459.66666666666663</ele><time>2026-04-18T13:09:43.159Z</time></trkpt><trkpt lat="45.3958867" lon="7.7686083"><ele>459.0</ele><time>2026-04-18T13:09:45.159Z</time></trkpt><trkpt lat="45.3958217" lon="7.768585"><ele>458.33333333333337</ele><time>2026-04-18T13:09:46.159Z</time></trkpt><trkpt lat="45.3957583" lon="7.7685617"><ele>457.6666666666667</ele><time>2026-04-18T13:09:47.16Z</time></trkpt><trkpt lat="45.3956933" lon="7.7685367"><ele>457.0</ele><time>2026-04-18T13:09:48.158Z</time></trkpt><trkpt lat="45.3956283" lon="7.7685133"><ele>455.1666666666667</ele><time>2026-04-18T13:09:49.16Z</time></trkpt><trkpt lat="45.395565" lon="7.7684983"><ele>453.33333333333337</ele><time>2026-04-18T13:09:50.158Z</time></trkpt><trkpt lat="45.3955" lon="7.76848"><ele>451.5</ele><time>2026-04-18T13:09:51.161Z</time></trkpt><trkpt lat="45.3954267" lon="7.7684683"><ele>449.66666666666663</ele><time>2026-04-18T13:09:52.158Z</time></trkpt><trkpt lat="45.3953583" lon="7.7684567"><ele>447.8333333333333</ele><time>2026-04-18T13:09:53.159Z</time></trkpt><trkpt lat="45.3952733" lon="7.768445"><ele>446.0</ele><time>2026-04-18T13:09:54.158Z</time></trkpt><trkpt lat="45.3951767" lon="7.76844"><ele>445.4</ele><time>2026-04-18T13:09:55.16Z</time></trkpt><trkpt lat="45.3950733" lon="7.7684333"><ele>444.8</ele><time>2026-04-18T13:09:56.158Z</time></trkpt><trkpt lat="45.3949717" lon="7.7684333"><ele>444.19999999999993</ele><time>2026-04-18T13:09:57.161Z</time></trkpt><trkpt lat="45.39487" lon="7.768435"><ele>443.59999999999997</ele><time>2026-04-18T13:09:58.158Z</time></trkpt><trkpt lat="45.3947633" lon="7.7684233"><ele>443.0</ele><time>2026-04-18T13:09:59.158Z</time></trkpt><trkpt lat="45.3946983" lon="7.7684133"><ele>441.66666666666663</ele><time>2026-04-18T13:10:00.158Z</time></trkpt><trkpt lat="45.3946233" lon="7.76838"><ele>440.3333333333333</ele><time>2026-04-18T13:10:01.161Z</time></trkpt><trkpt lat="45.394555" lon="7.7683367"><ele>439.0</ele><time>2026-04-18T13:10:02.159Z</time></trkpt><trkpt lat="45.3944867" lon="7.76829"><ele>437.66666666666663</ele><time>2026-04-18T13:10:03.16Z</time></trkpt><trkpt lat="45.3943983" lon="7.7682"><ele>436.3333333333333</ele><time>2026-04-18T13:10:04.158Z</time></trkpt><trkpt lat="45.3943367" lon="7.7680983"><ele>435.0</ele><time>2026-04-18T13:10:05.161Z</time></trkpt><trkpt lat="45.3942983" lon="7.7679967"><ele>435.0</ele><time>2026-04-18T13:10:06.158Z</time></trkpt><trkpt lat="45.3942633" lon="7.7678833"><ele>435.0</ele><time>2026-04-18T13:10:07.161Z</time></trkpt><trkpt lat="45.394225" lon="7.7677683"><ele>435.0</ele><time>2026-04-18T13:10:08.158Z</time></trkpt><trkpt lat="45.3941983" lon="7.7676783"><ele>435.0</ele><time>2026-04-18T13:10:09.161Z</time></trkpt><trkpt lat="45.394145" lon="7.7675217"><ele>435.0</ele><time>2026-04-18T13:10:11.159Z</time></trkpt><trkpt lat="45.394105" lon="7.76742"><ele>435.0</ele><time>2026-04-18T13:10:12.16Z</time></trkpt><trkpt lat="45.3940533" lon="7.7673283"><ele>434.6666666666667</ele><time>2026-04-18T13:10:13.158Z</time></trkpt><trkpt lat="45.3940017" lon="7.76725"><ele>434.33333333333337</ele><time>2026-04-18T13:10:14.16Z</time></trkpt><trkpt lat="45.3939467" lon="7.7671967"><ele>434.0</ele><time>2026-04-18T13:10:15.16Z</time></trkpt><trkpt lat="45.3938817" lon="7.7671617"><ele>433.6666666666667</ele><time>2026-04-18T13:10:16.159Z</time></trkpt><trkpt lat="45.3938067" lon="7.7671583"><ele>433.33333333333337</ele><time>2026-04-18T13:10:17.161Z</time></trkpt><trkpt lat="45.3937133" lon="7.767165"><ele>433.0</ele><time>2026-04-18T13:10:18.159Z</time></trkpt><trkpt lat="45.39362" lon="7.7671667"><ele>433.00000000000006</ele><time>2026-04-18T13:10:19.161Z</time></trkpt><trkpt lat="45.3935317" lon="7.7671617"><ele>433.0</ele><time>2026-04-18T13:10:20.158Z</time></trkpt><trkpt lat="45.3934433" lon="7.7671483"><ele>433.0</ele><time>2026-04-18T13:10:21.16Z</time></trkpt><trkpt lat="45.3933683" lon="7.7671367"><ele>433.0</ele><time>2026-04-18T13:10:22.158Z</time></trkpt><trkpt lat="45.3932967" lon="7.7671133"><ele>433.00000000000006</ele><time>2026-04-18T13:10:23.16Z</time></trkpt><trkpt lat="45.393225" lon="7.767085"><ele>433.0</ele><time>2026-04-18T13:10:24.158Z</time></trkpt><trkpt lat="45.3931333" lon="7.767045"><ele>433.00000000000006</ele><time>2026-04-18T13:10:25.16Z</time></trkpt><trkpt lat="45.3930433" lon="7.7669883"><ele>433.0</ele><time>2026-04-18T13:10:26.158Z</time></trkpt><trkpt lat="45.3929617" lon="7.7669283"><ele>433.0</ele><time>2026-04-18T13:10:27.159Z</time></trkpt><trkpt lat="45.3928883" lon="7.7668633"><ele>433.0</ele><time>2026-04-18T13:10:28.158Z</time></trkpt><trkpt lat="45.392825" lon="7.7668"><ele>433.00000000000006</ele><time>2026-04-18T13:10:29.159Z</time></trkpt><trkpt lat="45.3927633" lon="7.7667583"><ele>433.0</ele><time>2026-04-18T13:10:30.158Z</time></trkpt><trkpt lat="45.3926383" lon="7.7667317"><ele>432.33333333333337</ele><time>2026-04-18T13:10:32.159Z</time></trkpt><trkpt lat="45.39257" lon="7.7667167"><ele>431.6666666666667</ele><time>2026-04-18T13:10:33.16Z</time></trkpt><trkpt lat="45.3924967" lon="7.76671"><ele>431.0</ele><time>2026-04-18T13:10:34.158Z</time></trkpt><trkpt lat="45.3924267" lon="7.7666967"><ele>430.33333333333337</ele><time>2026-04-18T13:10:35.16Z</time></trkpt><trkpt lat="45.3923633" lon="7.7666867"><ele>429.6666666666667</ele><time>2026-04-18T13:10:36.16Z</time></trkpt><trkpt lat="45.3922517" lon="7.7666567"><ele>429.0</ele><time>2026-04-18T13:10:38.159Z</time></trkpt><trkpt lat="45.392165" lon="7.7666317"><ele>429.0</ele><time>2026-04-18T13:10:40.159Z</time></trkpt><trkpt lat="45.3921133" lon="7.7665717"><ele>429.0</ele><time>2026-04-18T13:10:42.163Z</time></trkpt><trkpt lat="45.3921267" lon="7.766405"><ele>429.0</ele><time>2026-04-18T13:10:44.162Z</time></trkpt><trkpt lat="45.3921783" lon="7.7663167"><ele>429.0</ele><time>2026-04-18T13:10:45.162Z</time></trkpt><trkpt lat="45.392255" lon="7.7662217"><ele>429.0</ele><time>2026-04-18T13:10:46.161Z</time></trkpt><trkpt lat="45.3923417" lon="7.76614"><ele>429.0</ele><time>2026-04-18T13:10:47.162Z</time></trkpt><trkpt lat="45.39244" lon="7.7660567"><ele>429.0</ele><time>2026-04-18T13:10:48.159Z</time></trkpt><trkpt lat="45.3925383" lon="7.765985"><ele>429.0</ele><time>2026-04-18T13:10:49.16Z</time></trkpt><trkpt lat="45.392625" lon="7.7659217"><ele>429.0</ele><time>2026-04-18T13:10:50.159Z</time></trkpt><trkpt lat="45.3926983" lon="7.7658617"><ele>429.0</ele><time>2026-04-18T13:10:51.161Z</time></trkpt><trkpt lat="45.39276" lon="7.7657883"><ele>428.0</ele><time>2026-04-18T13:10:52.16Z</time></trkpt><trkpt lat="45.3928133" lon="7.7656967"><ele>427.0</ele><time>2026-04-18T13:10:53.16Z</time></trkpt><trkpt lat="45.3928567" lon="7.76559"><ele>426.0</ele><time>2026-04-18T13:10:54.16Z</time></trkpt><trkpt lat="45.392915" lon="7.76548"><ele>425.0</ele><time>2026-04-18T13:10:55.16Z</time></trkpt><trkpt lat="45.3929933" lon="7.765345"><ele>424.0</ele><time>2026-04-18T13:10:56.16Z</time></trkpt><trkpt lat="45.39307" lon="7.7652167"><ele>422.4</ele><time>2026-04-18T13:10:57.161Z</time></trkpt><trkpt lat="45.393135" lon="7.7650833"><ele>420.79999999999995</ele><time>2026-04-18T13:10:58.161Z</time></trkpt><trkpt lat="45.3931817" lon="7.7649583"><ele>419.20000000000005</ele><time>2026-04-18T13:10:59.159Z</time></trkpt><trkpt lat="45.3932133" lon="7.7648417"><ele>417.6</ele><time>2026-04-18T13:11:00.161Z</time></trkpt><trkpt lat="45.393245" lon="7.76472"><ele>416.0</ele><time>2026-04-18T13:11:01.161Z</time></trkpt><trkpt lat="45.3932617" lon="7.764585"><ele>416.0</ele><time>2026-04-18T13:11:02.16Z</time></trkpt><trkpt lat="45.393265" lon="7.7644267"><ele>416.0</ele><time>2026-04-18T13:11:03.161Z</time></trkpt><trkpt lat="45.3932783" lon="7.7642517"><ele>416.0</ele><time>2026-04-18T13:11:04.159Z</time></trkpt><trkpt lat="45.393285" lon="7.7640867"><ele>416.0</ele><time>2026-04-18T13:11:05.16Z</time></trkpt><trkpt lat="45.3932917" lon="7.7639517"><ele>416.0</ele><time>2026-04-18T13:11:06.16Z</time></trkpt><trkpt lat="45.3932967" lon="7.7638417"><ele>415.6</ele><time>2026-04-18T13:11:07.16Z</time></trkpt><trkpt lat="45.3933017" lon="7.7637467"><ele>415.20000000000005</ele><time>2026-04-18T13:11:08.16Z</time></trkpt><trkpt lat="45.3933183" lon="7.7635933"><ele>414.79999999999995</ele><time>2026-04-18T13:11:10.159Z</time></trkpt><trkpt lat="45.39324" lon="7.7635283"><ele>414.4</ele><time>2026-04-18T13:11:14.159Z</time></trkpt><trkpt lat="45.3931" lon="7.7635933"><ele>414.0</ele><time>2026-04-18T13:11:16.163Z</time></trkpt><trkpt lat="45.3930183" lon="7.7636517"><ele>413.6</ele><time>2026-04-18T13:11:17.159Z</time></trkpt><trkpt lat="45.3929433" lon="7.763735"><ele>413.2</ele><time>2026-04-18T13:11:18.159Z</time></trkpt><trkpt lat="45.39288" lon="7.7638633"><ele>412.8</ele><time>2026-04-18T13:11:19.16Z</time></trkpt><trkpt lat="45.39284" lon="7.7640067"><ele>412.40000000000003</ele><time>2026-04-18T13:11:20.161Z</time></trkpt><trkpt lat="45.3927967" lon="7.7641233"><ele>412.0</ele><time>2026-04-18T13:11:21.16Z</time></trkpt><trkpt lat="45.3927483" lon="7.7642367"><ele>412.0</ele><time>2026-04-18T13:11:22.161Z</time></trkpt><trkpt lat="45.3926933" lon="7.76434"><ele>412.0</ele><time>2026-04-18T13:11:23.16Z</time></trkpt><trkpt lat="45.3926267" lon="7.7644017"><ele>412.0</ele><time>2026-04-18T13:11:24.16Z</time></trkpt><trkpt lat="45.392525" lon="7.7644167"><ele>412.0</ele><time>2026-04-18T13:11:25.162Z</time></trkpt><trkpt lat="45.392425" lon="7.764415"><ele>412.0</ele><time>2026-04-18T13:11:26.163Z</time></trkpt><trkpt lat="45.3922917" lon="7.76438"><ele>411.40000000000003</ele><time>2026-04-18T13:11:27.161Z</time></trkpt><trkpt lat="45.39219" lon="7.7643667"><ele>410.8</ele><time>2026-04-18T13:11:28.161Z</time></trkpt><trkpt lat="45.3921017" lon="7.764355"><ele>410.2</ele><time>2026-04-18T13:11:29.159Z</time></trkpt><trkpt lat="45.3920217" lon="7.76434"><ele>409.6</ele><time>2026-04-18T13:11:30.16Z</time></trkpt><trkpt lat="45.391935" lon="7.7643183"><ele>409.0</ele><time>2026-04-18T13:11:31.16Z</time></trkpt><trkpt lat="45.3918417" lon="7.7642983"><ele>409.0</ele><time>2026-04-18T13:11:32.16Z</time></trkpt><trkpt lat="45.3917517" lon="7.7642867"><ele>409.0</ele><time>2026-04-18T13:11:33.16Z</time></trkpt><trkpt lat="45.39166" lon="7.7642933"><ele>409.0</ele><time>2026-04-18T13:11:34.16Z</time></trkpt><trkpt lat="45.3915467" lon="7.7643167"><ele>409.0</ele><time>2026-04-18T13:11:35.159Z</time></trkpt><trkpt lat="45.391435" lon="7.7643383"><ele>409.0</ele><time>2026-04-18T13:11:36.159Z</time></trkpt><trkpt lat="45.39133" lon="7.76436"><ele>409.6666666666667</ele><time>2026-04-18T13:11:37.16Z</time></trkpt><trkpt lat="45.3912267" lon="7.7643783"><ele>410.33333333333337</ele><time>2026-04-18T13:11:38.161Z</time></trkpt><trkpt lat="45.391135" lon="7.7644067"><ele>411.0</ele><time>2026-04-18T13:11:39.161Z</time></trkpt><trkpt lat="45.3910567" lon="7.7644433"><ele>411.66666666666663</ele><time>2026-04-18T13:11:40.16Z</time></trkpt><trkpt lat="45.3909817" lon="7.76448"><ele>412.3333333333333</ele><time>2026-04-18T13:11:41.159Z</time></trkpt><trkpt lat="45.3909083" lon="7.7645183"><ele>413.0</ele><time>2026-04-18T13:11:42.159Z</time></trkpt><trkpt lat="45.3908317" lon="7.76455"><ele>412.99999999999994</ele><time>2026-04-18T13:11:43.161Z</time></trkpt><trkpt lat="45.3907533" lon="7.7645767"><ele>413.0</ele><time>2026-04-18T13:11:44.161Z</time></trkpt><trkpt lat="45.3906783" lon="7.764595"><ele>413.0</ele><time>2026-04-18T13:11:45.159Z</time></trkpt><trkpt lat="45.3906083" lon="7.7645983"><ele>413.0</ele><time>2026-04-18T13:11:46.161Z</time></trkpt><trkpt lat="45.39054" lon="7.76458"><ele>412.99999999999994</ele><time>2026-04-18T13:11:47.162Z</time></trkpt><trkpt lat="45.39046" lon="7.7645067"><ele>413.0</ele><time>2026-04-18T13:11:48.162Z</time></trkpt><trkpt lat="45.3903833" lon="7.7643967"><ele>411.16666666666663</ele><time>2026-04-18T13:11:49.162Z</time></trkpt><trkpt lat="45.390325" lon="7.7642983"><ele>409.3333333333333</ele><time>2026-04-18T13:11:50.161Z</time></trkpt><trkpt lat="45.3902817" lon="7.7641933"><ele>407.5</ele><time>2026-04-18T13:11:51.159Z</time></trkpt><trkpt lat="45.39025" lon="7.76408"><ele>405.66666666666663</ele><time>2026-04-18T13:11:52.162Z</time></trkpt><trkpt lat="45.390225" lon="7.76397"><ele>403.8333333333333</ele><time>2026-04-18T13:11:53.162Z</time></trkpt><trkpt lat="45.3902067" lon="7.76387"><ele>402.0</ele><time>2026-04-18T13:11:54.162Z</time></trkpt><trkpt lat="45.3901917" lon="7.7637717"><ele>402.0</ele><time>2026-04-18T13:11:55.16Z</time></trkpt><trkpt lat="45.3901667" lon="7.76368"><ele>402.0</ele><time>2026-04-18T13:11:56.159Z</time></trkpt><trkpt lat="45.3901283" lon="7.7635883"><ele>402.0</ele><time>2026-04-18T13:11:57.161Z</time></trkpt><trkpt lat="45.3900667" lon="7.7635133"><ele>402.0</ele><time>2026-04-18T13:11:58.161Z</time></trkpt><trkpt lat="45.3900033" lon="7.7634467"><ele>402.0</ele><time>2026-04-18T13:11:59.158Z</time></trkpt><trkpt lat="45.389945" lon="7.76337"><ele>402.0</ele><time>2026-04-18T13:12:00.16Z</time></trkpt><trkpt lat="45.3898983" lon="7.763295"><ele>402.5</ele><time>2026-04-18T13:12:01.16Z</time></trkpt><trkpt lat="45.3898667" lon="7.7632133"><ele>403.0</ele><time>2026-04-18T13:12:02.159Z</time></trkpt><trkpt lat="45.389845" lon="7.763115"><ele>403.5</ele><time>2026-04-18T13:12:03.161Z</time></trkpt><trkpt lat="45.3898133" lon="7.7630017"><ele>404.0</ele><time>2026-04-18T13:12:04.159Z</time></trkpt><trkpt lat="45.38979" lon="7.762875"><ele>404.5</ele><time>2026-04-18T13:12:05.16Z</time></trkpt><trkpt lat="45.3897783" lon="7.76275"><ele>405.0</ele><time>2026-04-18T13:12:06.16Z</time></trkpt><trkpt lat="45.3897717" lon="7.762635"><ele>406.0</ele><time>2026-04-18T13:12:07.16Z</time></trkpt><trkpt lat="45.3897683" lon="7.7625283"><ele>407.0</ele><time>2026-04-18T13:12:08.158Z</time></trkpt><trkpt lat="45.3897683" lon="7.7624267"><ele>408.0</ele><time>2026-04-18T13:12:09.16Z</time></trkpt><trkpt lat="45.38977" lon="7.7623283"><ele>409.0</ele><time>2026-04-18T13:12:10.161Z</time></trkpt><trkpt lat="45.3897683" lon="7.76223"><ele>410.0</ele><time>2026-04-18T13:12:11.161Z</time></trkpt><trkpt lat="45.3897733" lon="7.762125"><ele>411.0</ele><time>2026-04-18T13:12:12.159Z</time></trkpt><trkpt lat="45.389805" lon="7.7619833"><ele>411.0</ele><time>2026-04-18T13:12:14.16Z</time></trkpt><trkpt lat="45.38983" lon="7.76189"><ele>411.0</ele><time>2026-04-18T13:12:16.159Z</time></trkpt><trkpt lat="45.38975" lon="7.761855"><ele>411.0</ele><time>2026-04-18T13:12:25.161Z</time></trkpt><trkpt lat="45.3896367" lon="7.7618117"><ele>411.0</ele><time>2026-04-18T13:12:27.163Z</time></trkpt><trkpt lat="45.3895333" lon="7.7617817"><ele>411.0</ele><time>2026-04-18T13:12:29.158Z</time></trkpt><trkpt lat="45.389465" lon="7.761755"><ele>411.0</ele><time>2026-04-18T13:12:31.16Z</time></trkpt><trkpt lat="45.3895522" lon="7.7617158"><ele>411.0</ele><time>2026-04-18T13:13:15.217Z</time></trkpt><trkpt lat="45.3896349" lon="7.7617468"><ele>411.0</ele><time>2026-04-18T13:13:19.232Z</time></trkpt><trkpt lat="45.3897248" lon="7.7620525"><ele>411.0</ele><time>2026-04-18T13:13:31.161Z</time></trkpt><trkpt lat="45.3897325" lon="7.76226"><ele>411.0</ele><time>2026-04-18T13:13:32.161Z</time></trkpt><trkpt lat="45.3897398" lon="7.7624383"><ele>411.0</ele><time>2026-04-18T13:13:33.16Z</time></trkpt><trkpt lat="45.3897429" lon="7.7625947"><ele>411.0</ele><time>2026-04-18T13:13:34.16Z</time></trkpt><trkpt lat="45.3897398" lon="7.7627291"><ele>411.0</ele><time>2026-04-18T13:13:35.158Z</time></trkpt><trkpt lat="45.3897325" lon="7.7628501"><ele>411.0</ele><time>2026-04-18T13:13:36.159Z</time></trkpt><trkpt lat="45.3897121" lon="7.7629587"><ele>410.5</ele><time>2026-04-18T13:13:37.161Z</time></trkpt><trkpt lat="45.3896936" lon="7.7630524"><ele>410.0</ele><time>2026-04-18T13:13:38.159Z</time></trkpt><trkpt lat="45.3896824" lon="7.7631429"><ele>409.5</ele><time>2026-04-18T13:13:39.16Z</time></trkpt><trkpt lat="45.3896392" lon="7.7632993"><ele>409.0</ele><time>2026-04-18T13:13:41.159Z</time></trkpt><trkpt lat="45.3896004" lon="7.7633749"><ele>408.5</ele><time>2026-04-18T13:13:42.161Z</time></trkpt><trkpt lat="45.389535" lon="7.7634663"><ele>408.0</ele><time>2026-04-18T13:13:43.159Z</time></trkpt><trkpt lat="45.3894729" lon="7.7635636"><ele>407.0</ele><time>2026-04-18T13:13:44.16Z</time></trkpt><trkpt lat="45.3894093" lon="7.7636564"><ele>406.0</ele><time>2026-04-18T13:13:45.163Z</time></trkpt><trkpt lat="45.3893407" lon="7.7637345"><ele>405.0</ele><time>2026-04-18T13:13:46.159Z</time></trkpt><trkpt lat="45.3892791" lon="7.7638095"><ele>404.0</ele><time>2026-04-18T13:13:47.161Z</time></trkpt><trkpt lat="45.389226" lon="7.7638697"><ele>403.0</ele><time>2026-04-18T13:13:48.161Z</time></trkpt><trkpt lat="45.389124" lon="7.7639411"><ele>402.0</ele><time>2026-04-18T13:13:50.163Z</time></trkpt><trkpt lat="45.3889954" lon="7.7639281"><ele>402.0</ele><time>2026-04-18T13:13:52.161Z</time></trkpt><trkpt lat="45.3889201" lon="7.7639229"><ele>402.0</ele><time>2026-04-18T13:13:53.158Z</time></trkpt><trkpt lat="45.388844" lon="7.7639299"><ele>402.0</ele><time>2026-04-18T13:13:54.16Z</time></trkpt><trkpt lat="45.3887601" lon="7.763946"><ele>402.0</ele><time>2026-04-18T13:13:55.158Z</time></trkpt><trkpt lat="45.3886757" lon="7.7639689"><ele>402.0</ele><time>2026-04-18T13:13:56.159Z</time></trkpt><trkpt lat="45.3885994" lon="7.7639846"><ele>402.0</ele><time>2026-04-18T13:13:57.16Z</time></trkpt><trkpt lat="45.388528" lon="7.7639789"><ele>403.5</ele><time>2026-04-18T13:13:58.16Z</time></trkpt><trkpt lat="45.3884617" lon="7.763958"><ele>405.0</ele><time>2026-04-18T13:13:59.161Z</time></trkpt><trkpt lat="45.388396" lon="7.7639195"><ele>406.5</ele><time>2026-04-18T13:14:00.158Z</time></trkpt><trkpt lat="45.388339" lon="7.7638778"><ele>408.0</ele><time>2026-04-18T13:14:01.161Z</time></trkpt><trkpt lat="45.3882337" lon="7.7638458"><ele>409.5</ele><time>2026-04-18T13:14:03.16Z</time></trkpt><trkpt lat="45.3881338" lon="7.7638802"><ele>411.0</ele><time>2026-04-18T13:14:05.159Z</time></trkpt><trkpt lat="45.3880224" lon="7.763936"><ele>413.6</ele><time>2026-04-18T13:14:07.16Z</time></trkpt><trkpt lat="45.3879133" lon="7.7640476"><ele>416.20000000000005</ele><time>2026-04-18T13:14:09.16Z</time></trkpt><trkpt lat="45.387835" lon="7.7641341"><ele>418.79999999999995</ele><time>2026-04-18T13:14:10.16Z</time></trkpt><trkpt lat="45.3877488" lon="7.7642283"><ele>421.4</ele><time>2026-04-18T13:14:11.16Z</time></trkpt><trkpt lat="45.387664" lon="7.7643153"><ele>424.0</ele><time>2026-04-18T13:14:12.16Z</time></trkpt><trkpt lat="45.3875978" lon="7.7643984"><ele>424.6666666666667</ele><time>2026-04-18T13:14:13.161Z</time></trkpt><trkpt lat="45.3875311" lon="7.7644754"><ele>425.33333333333337</ele><time>2026-04-18T13:14:14.159Z</time></trkpt><trkpt lat="45.3874655" lon="7.764533"><ele>426.0</ele><time>2026-04-18T13:14:15.16Z</time></trkpt><trkpt lat="45.3873916" lon="7.7645796"><ele>426.66666666666663</ele><time>2026-04-18T13:14:16.158Z</time></trkpt><trkpt lat="45.3873021" lon="7.7646352"><ele>427.3333333333333</ele><time>2026-04-18T13:14:18.159Z</time></trkpt><trkpt lat="45.3872386" lon="7.764651"><ele>428.0</ele><time>2026-04-18T13:14:20.16Z</time></trkpt><trkpt lat="45.3872224" lon="7.7644993"><ele>427.3333333333333</ele><time>2026-04-18T13:14:22.16Z</time></trkpt><trkpt lat="45.3872375" lon="7.7643419"><ele>426.66666666666663</ele><time>2026-04-18T13:14:24.16Z</time></trkpt><trkpt lat="45.3872533" lon="7.7642237"><ele>426.0</ele><time>2026-04-18T13:14:25.156Z</time></trkpt><trkpt lat="45.3872481" lon="7.7641213"><ele>425.33333333333337</ele><time>2026-04-18T13:14:26.161Z</time></trkpt><trkpt lat="45.3872282" lon="7.7640285"><ele>424.6666666666667</ele><time>2026-04-18T13:14:27.159Z</time></trkpt><trkpt lat="45.3872273" lon="7.7639189"><ele>424.0</ele><time>2026-04-18T13:14:28.159Z</time></trkpt><trkpt lat="45.3872364" lon="7.7637591"><ele>424.00000000000006</ele><time>2026-04-18T13:14:30.16Z</time></trkpt><trkpt lat="45.3872321" lon="7.7635895"><ele>424.0</ele><time>2026-04-18T13:14:32.16Z</time></trkpt><trkpt lat="45.3872238" lon="7.7634698"><ele>424.0</ele><time>2026-04-18T13:14:34.16Z</time></trkpt><trkpt lat="45.3872067" lon="7.7633683"><ele>424.0</ele><time>2026-04-18T13:14:36.159Z</time></trkpt><trkpt lat="45.3871883" lon="7.7632483"><ele>424.00000000000006</ele><time>2026-04-18T13:14:39.16Z</time></trkpt><trkpt lat="45.3871533" lon="7.7631433"><ele>424.0</ele><time>2026-04-18T13:14:42.159Z</time></trkpt><trkpt lat="45.38707" lon="7.76313"><ele>421.8571428571429</ele><time>2026-04-18T13:14:45.161Z</time></trkpt><trkpt lat="45.3869917" lon="7.7631233"><ele>419.71428571428567</ele><time>2026-04-18T13:14:47.157Z</time></trkpt><trkpt lat="45.3869167" lon="7.7631117"><ele>417.57142857142856</ele><time>2026-04-18T13:14:50.162Z</time></trkpt><trkpt lat="45.38685" lon="7.763115"><ele>415.42857142857144</ele><time>2026-04-18T13:14:53.159Z</time></trkpt><trkpt lat="45.3867917" lon="7.7631567"><ele>413.28571428571433</ele><time>2026-04-18T13:14:57.16Z</time></trkpt><trkpt lat="45.3867533" lon="7.7632333"><ele>411.1428571428571</ele><time>2026-04-18T13:15:03.16Z</time></trkpt><trkpt lat="45.386735" lon="7.7633267"><ele>409.0</ele><time>2026-04-18T13:15:05.159Z</time></trkpt><trkpt lat="45.386715" lon="7.7634517"><ele>410.00000000000006</ele><time>2026-04-18T13:15:08.159Z</time></trkpt><trkpt lat="45.3867283" lon="7.7635583"><ele>411.0</ele><time>2026-04-18T13:15:10.16Z</time></trkpt><trkpt lat="45.3867533" lon="7.7636833"><ele>412.0</ele><time>2026-04-18T13:15:12.16Z</time></trkpt><trkpt lat="45.3867717" lon="7.763805"><ele>413.0</ele><time>2026-04-18T13:15:14.159Z</time></trkpt><trkpt lat="45.38676" lon="7.7639"><ele>414.00000000000006</ele><time>2026-04-18T13:15:15.16Z</time></trkpt><trkpt lat="45.386735" lon="7.7640367"><ele>415.0</ele><time>2026-04-18T13:15:16.16Z</time></trkpt><trkpt lat="45.3867167" lon="7.7641717"><ele>415.0</ele><time>2026-04-18T13:15:17.161Z</time></trkpt><trkpt lat="45.386685" lon="7.76432"><ele>415.0</ele><time>2026-04-18T13:15:18.16Z</time></trkpt><trkpt lat="45.38665" lon="7.7645767"><ele>415.0</ele><time>2026-04-18T13:15:20.158Z</time></trkpt><trkpt lat="45.38663" lon="7.7646817"><ele>415.0</ele><time>2026-04-18T13:15:21.16Z</time></trkpt><trkpt lat="45.3866217" lon="7.7647833"><ele>415.0</ele><time>2026-04-18T13:15:22.16Z</time></trkpt><trkpt lat="45.3866167" lon="7.764905"><ele>415.83333333333337</ele><time>2026-04-18T13:15:23.16Z</time></trkpt><trkpt lat="45.386615" lon="7.765035"><ele>416.6666666666667</ele><time>2026-04-18T13:15:24.16Z</time></trkpt><trkpt lat="45.3866167" lon="7.7651533"><ele>417.5</ele><time>2026-04-18T13:15:25.16Z</time></trkpt><trkpt lat="45.38662" lon="7.7652667"><ele>418.33333333333337</ele><time>2026-04-18T13:15:26.16Z</time></trkpt><trkpt lat="45.386635" lon="7.7653583"><ele>419.1666666666667</ele><time>2026-04-18T13:15:27.159Z</time></trkpt><trkpt lat="45.3866467" lon="7.7654533"><ele>420.0</ele><time>2026-04-18T13:15:28.16Z</time></trkpt><trkpt lat="45.3866633" lon="7.765545"><ele>421.0</ele><time>2026-04-18T13:15:29.16Z</time></trkpt><trkpt lat="45.3866767" lon="7.7656333"><ele>422.0</ele><time>2026-04-18T13:15:30.16Z</time></trkpt><trkpt lat="45.38667" lon="7.76578"><ele>423.0</ele><time>2026-04-18T13:15:32.16Z</time></trkpt><trkpt lat="45.3866267" lon="7.7659383"><ele>424.0</ele><time>2026-04-18T13:15:34.16Z</time></trkpt><trkpt lat="45.3866133" lon="7.7660417"><ele>425.0</ele><time>2026-04-18T13:15:35.159Z</time></trkpt><trkpt lat="45.38659" lon="7.7661483"><ele>426.0</ele><time>2026-04-18T13:15:36.16Z</time></trkpt><trkpt lat="45.38656" lon="7.76625"><ele>427.0</ele><time>2026-04-18T13:15:37.16Z</time></trkpt><trkpt lat="45.3865467" lon="7.7663583"><ele>428.0</ele><time>2026-04-18T13:15:38.16Z</time></trkpt><trkpt lat="45.3865367" lon="7.7664667"><ele>429.0</ele><time>2026-04-18T13:15:39.159Z</time></trkpt><trkpt lat="45.386485" lon="7.7666267"><ele>430.0</ele><time>2026-04-18T13:15:41.161Z</time></trkpt><trkpt lat="45.38638" lon="7.7667083"><ele>431.0</ele><time>2026-04-18T13:15:43.163Z</time></trkpt><trkpt lat="45.386315" lon="7.766725"><ele>430.66666666666663</ele><time>2026-04-18T13:15:45.161Z</time></trkpt><trkpt lat="45.3862633" lon="7.7667817"><ele>430.3333333333333</ele><time>2026-04-18T13:15:47.16Z</time></trkpt><trkpt lat="45.3862417" lon="7.7668783"><ele>430.0</ele><time>2026-04-18T13:15:49.159Z</time></trkpt><trkpt lat="45.3861983" lon="7.76697"><ele>429.66666666666663</ele><time>2026-04-18T13:15:51.159Z</time></trkpt><trkpt lat="45.3861167" lon="7.767055"><ele>429.3333333333333</ele><time>2026-04-18T13:15:53.16Z</time></trkpt><trkpt lat="45.386035" lon="7.7671533"><ele>429.0</ele><time>2026-04-18T13:15:55.159Z</time></trkpt><trkpt lat="45.3859567" lon="7.76729"><ele>429.0</ele><time>2026-04-18T13:15:57.159Z</time></trkpt><trkpt lat="45.385895" lon="7.7673933"><ele>429.0</ele><time>2026-04-18T13:15:58.16Z</time></trkpt><trkpt lat="45.385855" lon="7.7675033"><ele>429.0</ele><time>2026-04-18T13:15:59.159Z</time></trkpt><trkpt lat="45.3858217" lon="7.767605"><ele>429.0</ele><time>2026-04-18T13:16:00.159Z</time></trkpt><trkpt lat="45.3857717" lon="7.7676833"><ele>429.0</ele><time>2026-04-18T13:16:01.16Z</time></trkpt><trkpt lat="45.3857033" lon="7.7677683"><ele>429.0</ele><time>2026-04-18T13:16:02.159Z</time></trkpt><trkpt lat="45.3856533" lon="7.7678283"><ele>429.1666666666667</ele><time>2026-04-18T13:16:03.159Z</time></trkpt><trkpt lat="45.38558" lon="7.7679317"><ele>429.33333333333337</ele><time>2026-04-18T13:16:05.158Z</time></trkpt><trkpt lat="45.3855417" lon="7.7680117"><ele>429.5</ele><time>2026-04-18T13:16:06.159Z</time></trkpt><trkpt lat="45.3855117" lon="7.7680983"><ele>429.6666666666667</ele><time>2026-04-18T13:16:07.161Z</time></trkpt><trkpt lat="45.385495" lon="7.7682067"><ele>429.83333333333337</ele><time>2026-04-18T13:16:08.16Z</time></trkpt><trkpt lat="45.385475" lon="7.7683083"><ele>430.0</ele><time>2026-04-18T13:16:09.16Z</time></trkpt><trkpt lat="45.3854967" lon="7.7684317"><ele>431.1666666666667</ele><time>2026-04-18T13:16:11.161Z</time></trkpt><trkpt lat="45.3855917" lon="7.768495"><ele>432.33333333333337</ele><time>2026-04-18T13:16:13.161Z</time></trkpt><trkpt lat="45.38566" lon="7.7685283"><ele>433.5</ele><time>2026-04-18T13:16:14.16Z</time></trkpt><trkpt lat="45.3857467" lon="7.76855"><ele>434.66666666666663</ele><time>2026-04-18T13:16:15.16Z</time></trkpt><trkpt lat="45.385825" lon="7.7685767"><ele>435.8333333333333</ele><time>2026-04-18T13:16:16.159Z</time></trkpt><trkpt lat="45.3859233" lon="7.7686167"><ele>437.0</ele><time>2026-04-18T13:16:18.16Z</time></trkpt><trkpt lat="45.3859917" lon="7.76867"><ele>437.8</ele><time>2026-04-18T13:16:20.159Z</time></trkpt><trkpt lat="45.38604" lon="7.7687933"><ele>438.6</ele><time>2026-04-18T13:16:23.16Z</time></trkpt><trkpt lat="45.3860783" lon="7.76892"><ele>439.40000000000003</ele><time>2026-04-18T13:16:25.16Z</time></trkpt><trkpt lat="45.3860917" lon="7.7690233"><ele>440.20000000000005</ele><time>2026-04-18T13:16:27.161Z</time></trkpt><trkpt lat="45.386075" lon="7.7691317"><ele>441.0</ele><time>2026-04-18T13:16:30.159Z</time></trkpt><trkpt lat="45.3860417" lon="7.769275"><ele>441.8</ele><time>2026-04-18T13:16:32.161Z</time></trkpt><trkpt lat="45.38598" lon="7.7693967"><ele>442.6</ele><time>2026-04-18T13:16:34.158Z</time></trkpt><trkpt lat="45.385905" lon="7.7695"><ele>443.4</ele><time>2026-04-18T13:16:36.162Z</time></trkpt><trkpt lat="45.385865" lon="7.7695983"><ele>444.2</ele><time>2026-04-18T13:16:39.16Z</time></trkpt><trkpt lat="45.385807" lon="7.7696734"><ele>445.0</ele><time>2026-04-18T13:16:44.084Z</time></trkpt><trkpt lat="45.385883" lon="7.76986"><ele>445.0</ele><time>2026-04-18T13:16:52.215Z</time></trkpt><trkpt lat="45.3859113" lon="7.7700602"><ele>445.0</ele><time>2026-04-18T13:16:54.221Z</time></trkpt><trkpt lat="45.385908" lon="7.7702834"><ele>445.0</ele><time>2026-04-18T13:16:57.143Z</time></trkpt><trkpt lat="45.3858968" lon="7.7703789"><ele>445.0</ele><time>2026-04-18T13:16:58.237Z</time></trkpt><trkpt lat="45.38578" lon="7.7705631"><ele>445.2</ele><time>2026-04-18T13:17:02.251Z</time></trkpt><trkpt lat="45.3856131" lon="7.7706453"><ele>445.4</ele><time>2026-04-18T13:17:05.159Z</time></trkpt><trkpt lat="45.3855397" lon="7.7706819"><ele>445.6</ele><time>2026-04-18T13:17:07.16Z</time></trkpt><trkpt lat="45.3854803" lon="7.7708261"><ele>445.8</ele><time>2026-04-18T13:17:10.159Z</time></trkpt><trkpt lat="45.3854503" lon="7.7709055"><ele>446.0</ele><time>2026-04-18T13:17:11.161Z</time></trkpt><trkpt lat="45.3853641" lon="7.7710966"><ele>447.8</ele><time>2026-04-18T13:17:12.16Z</time></trkpt><trkpt lat="45.3853194" lon="7.7712019"><ele>449.6</ele><time>2026-04-18T13:17:13.159Z</time></trkpt><trkpt lat="45.3852914" lon="7.7712961"><ele>451.4</ele><time>2026-04-18T13:17:14.16Z</time></trkpt><trkpt lat="45.3852173" lon="7.7714339"><ele>453.2</ele><time>2026-04-18T13:17:15.16Z</time></trkpt><trkpt lat="45.3851747" lon="7.7715485"><ele>455.0</ele><time>2026-04-18T13:17:16.16Z</time></trkpt><trkpt lat="45.3851339" lon="7.7716563"><ele>455.0</ele><time>2026-04-18T13:17:17.159Z</time></trkpt><trkpt lat="45.3850931" lon="7.771781"><ele>455.0</ele><time>2026-04-18T13:17:18.161Z</time></trkpt><trkpt lat="45.385055" lon="7.7718768"><ele>455.0</ele><time>2026-04-18T13:17:19.161Z</time></trkpt><trkpt lat="45.3850041" lon="7.7719675"><ele>455.0</ele><time>2026-04-18T13:17:20.158Z</time></trkpt><trkpt lat="45.3849473" lon="7.7720625"><ele>455.0</ele><time>2026-04-18T13:17:21.159Z</time></trkpt><trkpt lat="45.3848805" lon="7.7722019"><ele>454.49999999999994</ele><time>2026-04-18T13:17:22.159Z</time></trkpt><trkpt lat="45.3848331" lon="7.7723119"><ele>454.0</ele><time>2026-04-18T13:17:23.159Z</time></trkpt><trkpt lat="45.3847847" lon="7.7723982"><ele>453.5</ele><time>2026-04-18T13:17:24.161Z</time></trkpt><trkpt lat="45.3847325" lon="7.7724869"><ele>453.0</ele><time>2026-04-18T13:17:25.161Z</time></trkpt><trkpt lat="45.3846701" lon="7.7725682"><ele>452.49999999999994</ele><time>2026-04-18T13:17:26.161Z</time></trkpt><trkpt lat="45.3846098" lon="7.772643"><ele>452.0</ele><time>2026-04-18T13:17:27.16Z</time></trkpt><trkpt lat="45.3845437" lon="7.7727175"><ele>453.8</ele><time>2026-04-18T13:17:28.161Z</time></trkpt><trkpt lat="45.3844631" lon="7.7727973"><ele>455.6</ele><time>2026-04-18T13:17:29.159Z</time></trkpt><trkpt lat="45.3843906" lon="7.77288"><ele>457.40000000000003</ele><time>2026-04-18T13:17:30.159Z</time></trkpt><trkpt lat="45.3843085" lon="7.772955"><ele>459.20000000000005</ele><time>2026-04-18T13:17:31.16Z</time></trkpt><trkpt lat="45.3842343" lon="7.7730265"><ele>461.0</ele><time>2026-04-18T13:17:32.161Z</time></trkpt><trkpt lat="45.3841641" lon="7.7730932"><ele>460.99999999999994</ele><time>2026-04-18T13:17:33.161Z</time></trkpt><trkpt lat="45.3840961" lon="7.7731676"><ele>461.0</ele><time>2026-04-18T13:17:34.16Z</time></trkpt><trkpt lat="45.3840361" lon="7.773239"><ele>461.0</ele><time>2026-04-18T13:17:35.158Z</time></trkpt><trkpt lat="45.3839838" lon="7.7733196"><ele>461.0</ele><time>2026-04-18T13:17:36.161Z</time></trkpt><trkpt lat="45.3839507" lon="7.7733965"><ele>460.99999999999994</ele><time>2026-04-18T13:17:37.16Z</time></trkpt><trkpt lat="45.3839204" lon="7.7735258"><ele>461.0</ele><time>2026-04-18T13:17:39.161Z</time></trkpt><trkpt lat="45.3839147" lon="7.7736585"><ele>461.16666666666663</ele><time>2026-04-18T13:17:41.159Z</time></trkpt><trkpt lat="45.383928" lon="7.7737734"><ele>461.3333333333333</ele><time>2026-04-18T13:17:43.159Z</time></trkpt><trkpt lat="45.3839488" lon="7.7738617"><ele>461.5</ele><time>2026-04-18T13:17:45.16Z</time></trkpt><trkpt lat="45.3839607" lon="7.7739666"><ele>461.66666666666663</ele><time>2026-04-18T13:17:47.157Z</time></trkpt><trkpt lat="45.3839784" lon="7.7740966"><ele>461.8333333333333</ele><time>2026-04-18T13:17:49.159Z</time></trkpt><trkpt lat="45.3839979" lon="7.7742099"><ele>462.0</ele><time>2026-04-18T13:17:51.16Z</time></trkpt><trkpt lat="45.3840059" lon="7.7743112"><ele>462.5</ele><time>2026-04-18T13:17:53.158Z</time></trkpt><trkpt lat="45.3840689" lon="7.7743964"><ele>463.0</ele><time>2026-04-18T13:17:54.16Z</time></trkpt><trkpt lat="45.3841481" lon="7.7744944"><ele>463.5</ele><time>2026-04-18T13:17:55.16Z</time></trkpt><trkpt lat="45.3841823" lon="7.7745743"><ele>464.0</ele><time>2026-04-18T13:17:56.159Z</time></trkpt><trkpt lat="45.3842094" lon="7.7746651"><ele>464.5</ele><time>2026-04-18T13:17:57.16Z</time></trkpt><trkpt lat="45.3842367" lon="7.7747617"><ele>465.0</ele><time>2026-04-18T13:17:58.16Z</time></trkpt><trkpt lat="45.3842767" lon="7.7749"><ele>465.0</ele><time>2026-04-18T13:18:00.159Z</time></trkpt><trkpt lat="45.3842617" lon="7.7750467"><ele>465.0</ele><time>2026-04-18T13:18:02.159Z</time></trkpt><trkpt lat="45.3842217" lon="7.7751467"><ele>465.0</ele><time>2026-04-18T13:18:04.16Z</time></trkpt><trkpt lat="45.384205" lon="7.7752533"><ele>465.0</ele><time>2026-04-18T13:18:06.16Z</time></trkpt><trkpt lat="45.3841783" lon="7.775355"><ele>465.0</ele><time>2026-04-18T13:18:08.158Z</time></trkpt><trkpt lat="45.3841217" lon="7.77546"><ele>465.0</ele><time>2026-04-18T13:18:10.159Z</time></trkpt><trkpt lat="45.3840617" lon="7.775585"><ele>465.6</ele><time>2026-04-18T13:18:12.16Z</time></trkpt><trkpt lat="45.38402" lon="7.7756933"><ele>466.2</ele><time>2026-04-18T13:18:14.16Z</time></trkpt><trkpt lat="45.383995" lon="7.775915"><ele>466.79999999999995</ele><time>2026-04-18T13:18:27.159Z</time></trkpt><trkpt lat="45.3839633" lon="7.7760383"><ele>467.4</ele><time>2026-04-18T13:18:30.159Z</time></trkpt><trkpt lat="45.3839467" lon="7.7761283"><ele>468.0</ele><time>2026-04-18T13:18:32.159Z</time></trkpt><trkpt lat="45.383915" lon="7.7762133"><ele>468.0</ele><time>2026-04-18T13:18:35.158Z</time></trkpt><trkpt lat="45.383909" lon="7.7763048"><ele>468.0</ele><time>2026-04-18T13:18:38.239Z</time></trkpt><trkpt lat="45.3838789" lon="7.77642"><ele>468.0</ele><time>2026-04-18T13:18:41.251Z</time></trkpt><trkpt lat="45.3838955" lon="7.7765504"><ele>468.0</ele><time>2026-04-18T13:18:43.257Z</time></trkpt><trkpt lat="45.3838521" lon="7.7766355"><ele>468.0</ele><time>2026-04-18T13:18:45.264Z</time></trkpt><trkpt lat="45.3838094" lon="7.7768087"><ele>468.0</ele><time>2026-04-18T13:18:56.236Z</time></trkpt><trkpt lat="45.3837219" lon="7.7771489"><ele>468.4</ele><time>2026-04-18T13:18:59.158Z</time></trkpt><trkpt lat="45.3836852" lon="7.777262"><ele>468.79999999999995</ele><time>2026-04-18T13:19:00.161Z</time></trkpt><trkpt lat="45.3836532" lon="7.7773518"><ele>469.2</ele><time>2026-04-18T13:19:01.16Z</time></trkpt><trkpt lat="45.3836067" lon="7.7774433"><ele>469.6</ele><time>2026-04-18T13:19:02.161Z</time></trkpt><trkpt lat="45.383525" lon="7.7775917"><ele>470.0</ele><time>2026-04-18T13:19:03.16Z</time></trkpt><trkpt lat="45.3833983" lon="7.7777533"><ele>470.4</ele><time>2026-04-18T13:19:04.161Z</time></trkpt><trkpt lat="45.3833367" lon="7.7778167"><ele>470.8</ele><time>2026-04-18T13:19:05.158Z</time></trkpt><trkpt lat="45.3831983" lon="7.77796"><ele>471.20000000000005</ele><time>2026-04-18T13:19:06.16Z</time></trkpt><trkpt lat="45.383135" lon="7.7780283"><ele>471.6</ele><time>2026-04-18T13:19:07.159Z</time></trkpt><trkpt lat="45.38306" lon="7.778105"><ele>472.0</ele><time>2026-04-18T13:19:08.16Z</time></trkpt><trkpt lat="45.3830033" lon="7.7781817"><ele>472.6</ele><time>2026-04-18T13:19:09.16Z</time></trkpt><trkpt lat="45.3829283" lon="7.7782867"><ele>473.20000000000005</ele><time>2026-04-18T13:19:10.16Z</time></trkpt><trkpt lat="45.3828633" lon="7.77839"><ele>473.8</ele><time>2026-04-18T13:19:11.16Z</time></trkpt><trkpt lat="45.3827967" lon="7.7784933"><ele>474.4</ele><time>2026-04-18T13:19:12.159Z</time></trkpt><trkpt lat="45.382775" lon="7.7785933"><ele>475.0</ele><time>2026-04-18T13:19:13.159Z</time></trkpt><trkpt lat="45.3827217" lon="7.7787317"><ele>475.00000000000006</ele><time>2026-04-18T13:19:15.159Z</time></trkpt><trkpt lat="45.3826767" lon="7.778805"><ele>475.0</ele><time>2026-04-18T13:19:16.159Z</time></trkpt><trkpt lat="45.3826283" lon="7.7789533"><ele>475.0</ele><time>2026-04-18T13:19:18.16Z</time></trkpt><trkpt lat="45.3826283" lon="7.7791033"><ele>475.0</ele><time>2026-04-18T13:19:20.159Z</time></trkpt><trkpt lat="45.382635" lon="7.7791933"><ele>475.00000000000006</ele><time>2026-04-18T13:19:21.161Z</time></trkpt><trkpt lat="45.382635" lon="7.7792983"><ele>475.0</ele><time>2026-04-18T13:19:22.159Z</time></trkpt><trkpt lat="45.3826583" lon="7.779465"><ele>476.25</ele><time>2026-04-18T13:19:24.159Z</time></trkpt><trkpt lat="45.38267" lon="7.7796317"><ele>477.5</ele><time>2026-04-18T13:19:26.161Z</time></trkpt><trkpt lat="45.38269" lon="7.77974"><ele>478.75</ele><time>2026-04-18T13:19:27.162Z</time></trkpt><trkpt lat="45.3827217" lon="7.7799483"><ele>480.0</ele><time>2026-04-18T13:19:29.159Z</time></trkpt><trkpt lat="45.3827517" lon="7.7801067"><ele>480.2</ele><time>2026-04-18T13:19:30.16Z</time></trkpt><trkpt lat="45.3827817" lon="7.7802383"><ele>480.4</ele><time>2026-04-18T13:19:31.159Z</time></trkpt><trkpt lat="45.382825" lon="7.7803617"><ele>480.6</ele><time>2026-04-18T13:19:32.159Z</time></trkpt><trkpt lat="45.3828633" lon="7.78046"><ele>480.8</ele><time>2026-04-18T13:19:33.161Z</time></trkpt><trkpt lat="45.3829167" lon="7.7805717"><ele>481.0</ele><time>2026-04-18T13:19:34.161Z</time></trkpt><trkpt lat="45.3829717" lon="7.7807267"><ele>480.83333333333337</ele><time>2026-04-18T13:19:36.158Z</time></trkpt><trkpt lat="45.3830183" lon="7.780865"><ele>480.6666666666667</ele><time>2026-04-18T13:19:38.159Z</time></trkpt><trkpt lat="45.3830483" lon="7.780995"><ele>480.5</ele><time>2026-04-18T13:19:40.16Z</time></trkpt><trkpt lat="45.3830767" lon="7.7810883"><ele>480.33333333333337</ele><time>2026-04-18T13:19:41.159Z</time></trkpt><trkpt lat="45.3831183" lon="7.7812067"><ele>480.1666666666667</ele><time>2026-04-18T13:19:42.159Z</time></trkpt><trkpt lat="45.3831367" lon="7.7813033"><ele>480.0</ele><time>2026-04-18T13:19:43.159Z</time></trkpt><trkpt lat="45.3831367" lon="7.7814067"><ele>481.4</ele><time>2026-04-18T13:19:44.16Z</time></trkpt><trkpt lat="45.3831267" lon="7.7815133"><ele>482.8</ele><time>2026-04-18T13:19:45.157Z</time></trkpt><trkpt lat="45.3831" lon="7.7815983"><ele>484.20000000000005</ele><time>2026-04-18T13:19:46.159Z</time></trkpt><trkpt lat="45.3830317" lon="7.781755"><ele>485.6</ele><time>2026-04-18T13:19:48.159Z</time></trkpt><trkpt lat="45.3829867" lon="7.7818283"><ele>487.0</ele><time>2026-04-18T13:19:49.16Z</time></trkpt><trkpt lat="45.3829017" lon="7.7819833"><ele>488.83333333333337</ele><time>2026-04-18T13:19:51.161Z</time></trkpt><trkpt lat="45.3828517" lon="7.78209"><ele>490.6666666666667</ele><time>2026-04-18T13:19:52.16Z</time></trkpt><trkpt lat="45.3828083" lon="7.7821633"><ele>492.5</ele><time>2026-04-18T13:19:53.159Z</time></trkpt><trkpt lat="45.3827883" lon="7.782255"><ele>494.33333333333337</ele><time>2026-04-18T13:19:54.16Z</time></trkpt><trkpt lat="45.38274" lon="7.782405"><ele>496.1666666666667</ele><time>2026-04-18T13:19:56.16Z</time></trkpt><trkpt lat="45.3827383" lon="7.7825167"><ele>498.0</ele><time>2026-04-18T13:19:58.159Z</time></trkpt><trkpt lat="45.382785" lon="7.78263"><ele>499.0</ele><time>2026-04-18T13:20:00.159Z</time></trkpt><trkpt lat="45.382775" lon="7.7828183"><ele>499.99999999999994</ele><time>2026-04-18T13:20:02.158Z</time></trkpt><trkpt lat="45.3827667" lon="7.78291"><ele>500.99999999999994</ele><time>2026-04-18T13:20:03.16Z</time></trkpt><trkpt lat="45.3827667" lon="7.7830067"><ele>502.0</ele><time>2026-04-18T13:20:04.159Z</time></trkpt><trkpt lat="45.3827833" lon="7.7831067"><ele>503.0</ele><time>2026-04-18T13:20:05.158Z</time></trkpt><trkpt lat="45.3827967" lon="7.7832767"><ele>503.0</ele><time>2026-04-18T13:20:07.159Z</time></trkpt><trkpt lat="45.3827717" lon="7.7834367"><ele>502.99999999999994</ele><time>2026-04-18T13:20:09.161Z</time></trkpt><trkpt lat="45.3827183" lon="7.7836"><ele>502.99999999999994</ele><time>2026-04-18T13:20:11.161Z</time></trkpt><trkpt lat="45.3826733" lon="7.7837583"><ele>503.0</ele><time>2026-04-18T13:20:13.16Z</time></trkpt><trkpt lat="45.382655" lon="7.783845"><ele>503.0</ele><time>2026-04-18T13:20:14.159Z</time></trkpt><trkpt lat="45.3826483" lon="7.7839717"><ele>502.16666666666663</ele><time>2026-04-18T13:20:16.159Z</time></trkpt><trkpt lat="45.3826467" lon="7.78407"><ele>501.3333333333333</ele><time>2026-04-18T13:20:18.159Z</time></trkpt><trkpt lat="45.3826983" lon="7.78416"><ele>500.5</ele><time>2026-04-18T13:20:20.159Z</time></trkpt><trkpt lat="45.38271" lon="7.7842717"><ele>499.66666666666663</ele><time>2026-04-18T13:20:22.16Z</time></trkpt><trkpt lat="45.3827583" lon="7.784395"><ele>498.8333333333333</ele><time>2026-04-18T13:20:24.16Z</time></trkpt><trkpt lat="45.38276" lon="7.7844867"><ele>498.0</ele><time>2026-04-18T13:20:25.16Z</time></trkpt><trkpt lat="45.382775" lon="7.7845817"><ele>498.0</ele><time>2026-04-18T13:20:27.161Z</time></trkpt><trkpt lat="45.3827883" lon="7.7847267"><ele>497.99999999999994</ele><time>2026-04-18T13:20:29.16Z</time></trkpt><trkpt lat="45.3827983" lon="7.7848317"><ele>497.99999999999994</ele><time>2026-04-18T13:20:31.16Z</time></trkpt><trkpt lat="45.3828133" lon="7.7849983"><ele>498.0</ele><time>2026-04-18T13:20:33.16Z</time></trkpt><trkpt lat="45.3828417" lon="7.785145"><ele>498.0</ele><time>2026-04-18T13:20:35.16Z</time></trkpt><trkpt lat="45.3828717" lon="7.7852333"><ele>500.0</ele><time>2026-04-18T13:20:36.158Z</time></trkpt><trkpt lat="45.3829133" lon="7.7853917"><ele>501.99999999999994</ele><time>2026-04-18T13:20:38.16Z</time></trkpt><trkpt lat="45.382955" lon="7.7855617"><ele>503.99999999999994</ele><time>2026-04-18T13:20:40.158Z</time></trkpt><trkpt lat="45.3829717" lon="7.7856667"><ele>506.0</ele><time>2026-04-18T13:20:41.158Z</time></trkpt><trkpt lat="45.3829667" lon="7.7858"><ele>508.0</ele><time>2026-04-18T13:20:42.16Z</time></trkpt><trkpt lat="45.3829533" lon="7.7859867"><ele>509.2</ele><time>2026-04-18T13:20:44.159Z</time></trkpt><trkpt lat="45.38294" lon="7.7860833"><ele>510.4</ele><time>2026-04-18T13:20:47.159Z</time></trkpt><trkpt lat="45.38289" lon="7.7862133"><ele>511.59999999999997</ele><time>2026-04-18T13:25:26.161Z</time></trkpt><trkpt lat="45.3828317" lon="7.7863167"><ele>512.8</ele><time>2026-04-18T13:31:54.16Z</time></trkpt><trkpt lat="45.3828417" lon="7.7864367"><ele>514.0</ele><time>2026-04-18T13:32:46.161Z</time></trkpt><trkpt lat="45.3828683" lon="7.7865733"><ele>514.0</ele><time>2026-04-18T13:32:49.161Z</time></trkpt><trkpt lat="45.3829267" lon="7.7866717"><ele>514.0</ele><time>2026-04-18T13:32:51.158Z</time></trkpt><trkpt lat="45.38286" lon="7.786835"><ele>514.0</ele><time>2026-04-18T13:32:53.16Z</time></trkpt><trkpt lat="45.382835" lon="7.7869283"><ele>514.0</ele><time>2026-04-18T13:32:54.161Z</time></trkpt><trkpt lat="45.38284" lon="7.7870633"><ele>514.0</ele><time>2026-04-18T13:32:55.16Z</time></trkpt><trkpt lat="45.3828467" lon="7.787195"><ele>515.3333333333334</ele><time>2026-04-18T13:32:56.161Z</time></trkpt><trkpt lat="45.38286" lon="7.78732"><ele>516.6666666666667</ele><time>2026-04-18T13:32:57.161Z</time></trkpt><trkpt lat="45.3828567" lon="7.787435"><ele>518.0</ele><time>2026-04-18T13:32:58.16Z</time></trkpt><trkpt lat="45.3828483" lon="7.7875883"><ele>519.3333333333334</ele><time>2026-04-18T13:32:59.16Z</time></trkpt><trkpt lat="45.382825" lon="7.7876883"><ele>520.6666666666666</ele><time>2026-04-18T13:33:00.159Z</time></trkpt><trkpt lat="45.3827967" lon="7.78777"><ele>522.0</ele><time>2026-04-18T13:33:01.162Z</time></trkpt><trkpt lat="45.3827633" lon="7.7878567"><ele>522.0</ele><time>2026-04-18T13:33:02.158Z</time></trkpt><trkpt lat="45.3827683" lon="7.787965"><ele>522.0</ele><time>2026-04-18T13:33:03.159Z</time></trkpt><trkpt lat="45.382755" lon="7.7881583"><ele>522.0</ele><time>2026-04-18T13:33:05.16Z</time></trkpt><trkpt lat="45.3827533" lon="7.7882733"><ele>522.0</ele><time>2026-04-18T13:33:06.159Z</time></trkpt><trkpt lat="45.3827633" lon="7.788385"><ele>522.0</ele><time>2026-04-18T13:33:07.161Z</time></trkpt><trkpt lat="45.3827733" lon="7.788475"><ele>522.0</ele><time>2026-04-18T13:33:08.159Z</time></trkpt><trkpt lat="45.3827717" lon="7.788625"><ele>522.0</ele><time>2026-04-18T13:33:10.159Z</time></trkpt><trkpt lat="45.3827467" lon="7.7887717"><ele>522.0</ele><time>2026-04-18T13:33:12.159Z</time></trkpt><trkpt lat="45.3826833" lon="7.788895"><ele>522.0</ele><time>2026-04-18T13:33:14.162Z</time></trkpt><trkpt lat="45.3826067" lon="7.7889883"><ele>522.0</ele><time>2026-04-18T13:33:16.16Z</time></trkpt><trkpt lat="45.3825267" lon="7.78913"><ele>522.0</ele><time>2026-04-18T13:33:18.161Z</time></trkpt><trkpt lat="45.3824917" lon="7.7892233"><ele>522.0</ele><time>2026-04-18T13:33:19.16Z</time></trkpt><trkpt lat="45.38246" lon="7.7893167"><ele>522.0</ele><time>2026-04-18T13:33:20.16Z</time></trkpt><trkpt lat="45.38241" lon="7.7894083"><ele>522.0</ele><time>2026-04-18T13:33:21.16Z</time></trkpt><trkpt lat="45.3823617" lon="7.7895267"><ele>522.0</ele><time>2026-04-18T13:33:22.16Z</time></trkpt><trkpt lat="45.3823233" lon="7.7896433"><ele>522.0</ele><time>2026-04-18T13:33:23.16Z</time></trkpt><trkpt lat="45.382255" lon="7.789755"><ele>522.0</ele><time>2026-04-18T13:33:24.16Z</time></trkpt><trkpt lat="45.382205" lon="7.7898417"><ele>521.2</ele><time>2026-04-18T13:33:25.161Z</time></trkpt><trkpt lat="45.3821633" lon="7.789915"><ele>520.4000000000001</ele><time>2026-04-18T13:33:26.159Z</time></trkpt><trkpt lat="45.3821233" lon="7.7900033"><ele>519.5999999999999</ele><time>2026-04-18T13:33:27.16Z</time></trkpt><trkpt lat="45.3820583" lon="7.79011"><ele>518.8</ele><time>2026-04-18T13:33:28.16Z</time></trkpt><trkpt lat="45.3819983" lon="7.79023"><ele>518.0</ele><time>2026-04-18T13:33:29.161Z</time></trkpt><trkpt lat="45.3819083" lon="7.7903617"><ele>517.5</ele><time>2026-04-18T13:33:30.16Z</time></trkpt><trkpt lat="45.381805" lon="7.7904883"><ele>517.0</ele><time>2026-04-18T13:33:31.161Z</time></trkpt><trkpt lat="45.381685" lon="7.790615"><ele>516.5</ele><time>2026-04-18T13:33:32.16Z</time></trkpt><trkpt lat="45.3815517" lon="7.790745"><ele>516.0</ele><time>2026-04-18T13:33:33.16Z</time></trkpt><trkpt lat="45.3814333" lon="7.790865"><ele>516.0</ele><time>2026-04-18T13:33:34.16Z</time></trkpt><trkpt lat="45.3813383" lon="7.791"><ele>516.0</ele><time>2026-04-18T13:33:35.159Z</time></trkpt><trkpt lat="45.3812533" lon="7.7911233"><ele>516.0</ele><time>2026-04-18T13:33:36.16Z</time></trkpt><trkpt lat="45.3811833" lon="7.79123"><ele>516.0</ele><time>2026-04-18T13:33:37.16Z</time></trkpt><trkpt lat="45.38113" lon="7.7912983"><ele>516.0</ele><time>2026-04-18T13:33:38.16Z</time></trkpt><trkpt lat="45.3810717" lon="7.7913583"><ele>516.0</ele><time>2026-04-18T13:33:39.161Z</time></trkpt><trkpt lat="45.3810117" lon="7.791435"><ele>516.0</ele><time>2026-04-18T13:33:40.161Z</time></trkpt><trkpt lat="45.38096" lon="7.791525"><ele>516.0</ele><time>2026-04-18T13:33:41.161Z</time></trkpt><trkpt lat="45.3809117" lon="7.7916117"><ele>516.0</ele><time>2026-04-18T13:33:42.161Z</time></trkpt><trkpt lat="45.380875" lon="7.7917133"><ele>516.0</ele><time>2026-04-18T13:33:43.161Z</time></trkpt><trkpt lat="45.3808367" lon="7.791805"><ele>516.0</ele><time>2026-04-18T13:33:44.16Z</time></trkpt><trkpt lat="45.3808017" lon="7.79189"><ele>516.0</ele><time>2026-04-18T13:33:45.161Z</time></trkpt><trkpt lat="45.3807483" lon="7.7919567"><ele>516.0</ele><time>2026-04-18T13:33:46.162Z</time></trkpt><trkpt lat="45.380645" lon="7.7920433"><ele>516.0</ele><time>2026-04-18T13:33:48.16Z</time></trkpt><trkpt lat="45.380545" lon="7.7921317"><ele>516.0</ele><time>2026-04-18T13:33:50.16Z</time></trkpt><trkpt lat="45.3804783" lon="7.792215"><ele>516.0</ele><time>2026-04-18T13:33:52.16Z</time></trkpt><trkpt lat="45.38045" lon="7.7923233"><ele>516.0</ele><time>2026-04-18T13:33:54.16Z</time></trkpt><trkpt lat="45.38043" lon="7.7925017"><ele>516.0</ele><time>2026-04-18T13:33:56.159Z</time></trkpt><trkpt lat="45.380425" lon="7.7925983"><ele>516.0</ele><time>2026-04-18T13:33:57.159Z</time></trkpt><trkpt lat="45.3804217" lon="7.7927083"><ele>516.0</ele><time>2026-04-18T13:33:58.159Z</time></trkpt><trkpt lat="45.3804267" lon="7.792815"><ele>516.0</ele><time>2026-04-18T13:33:59.16Z</time></trkpt><trkpt lat="45.3804267" lon="7.79293"><ele>516.0</ele><time>2026-04-18T13:34:00.16Z</time></trkpt><trkpt lat="45.38042" lon="7.793045"><ele>516.0</ele><time>2026-04-18T13:34:01.16Z</time></trkpt><trkpt lat="45.3804167" lon="7.7931467"><ele>516.0</ele><time>2026-04-18T13:34:02.16Z</time></trkpt><trkpt lat="45.3804067" lon="7.7932517"><ele>516.0</ele><time>2026-04-18T13:34:03.159Z</time></trkpt><trkpt lat="45.380405" lon="7.7933633"><ele>516.0</ele><time>2026-04-18T13:34:04.16Z</time></trkpt><trkpt lat="45.3804083" lon="7.7934633"><ele>516.0</ele><time>2026-04-18T13:34:05.16Z</time></trkpt><trkpt lat="45.3804117" lon="7.7936283"><ele>516.0</ele><time>2026-04-18T13:34:07.16Z</time></trkpt><trkpt lat="45.3803783" lon="7.7937417"><ele>516.0</ele><time>2026-04-18T13:34:09.159Z</time></trkpt><trkpt lat="45.38032" lon="7.793805"><ele>516.0</ele><time>2026-04-18T13:34:11.16Z</time></trkpt><trkpt lat="45.38025" lon="7.7938317"><ele>516.0</ele><time>2026-04-18T13:34:14.162Z</time></trkpt><trkpt lat="45.380185" lon="7.793845"><ele>516.0</ele><time>2026-04-18T13:34:48.161Z</time></trkpt><trkpt lat="45.380095" lon="7.7938317"><ele>516.0</ele><time>2026-04-18T13:34:50.159Z</time></trkpt><trkpt lat="45.37998" lon="7.7938467"><ele>516.0</ele><time>2026-04-18T13:34:52.161Z</time></trkpt><trkpt lat="45.3799033" lon="7.7938667"><ele>516.0</ele><time>2026-04-18T13:34:53.161Z</time></trkpt><trkpt lat="45.3797767" lon="7.7938817"><ele>516.0</ele><time>2026-04-18T13:34:55.16Z</time></trkpt><trkpt lat="45.3796767" lon="7.7939133"><ele>516.0</ele><time>2026-04-18T13:34:57.159Z</time></trkpt><trkpt lat="45.3796217" lon="7.79401"><ele>516.0</ele><time>2026-04-18T13:34:59.159Z</time></trkpt><trkpt lat="45.3796" lon="7.794115"><ele>516.0</ele><time>2026-04-18T13:35:00.161Z</time></trkpt><trkpt lat="45.3795667" lon="7.7942017"><ele>516.0</ele><time>2026-04-18T13:35:01.161Z</time></trkpt><trkpt lat="45.379525" lon="7.794275"><ele>516.0</ele><time>2026-04-18T13:35:02.162Z</time></trkpt><trkpt lat="45.3794567" lon="7.794355"><ele>516.0</ele><time>2026-04-18T13:35:03.163Z</time></trkpt><trkpt lat="45.379355" lon="7.7944333"><ele>516.0</ele><time>2026-04-18T13:35:04.16Z</time></trkpt><trkpt lat="45.379235" lon="7.7945133"><ele>516.0</ele><time>2026-04-18T13:35:05.159Z</time></trkpt><trkpt lat="45.37912" lon="7.7945783"><ele>516.0</ele><time>2026-04-18T13:35:06.16Z</time></trkpt><trkpt lat="45.3789983" lon="7.7946483"><ele>516.0</ele><time>2026-04-18T13:35:07.161Z</time></trkpt><trkpt lat="45.378905" lon="7.7947133"><ele>516.0</ele><time>2026-04-18T13:35:08.16Z</time></trkpt><trkpt lat="45.378825" lon="7.7947833"><ele>516.0</ele><time>2026-04-18T13:35:09.16Z</time></trkpt><trkpt lat="45.37876" lon="7.7948517"><ele>516.0</ele><time>2026-04-18T13:35:10.159Z</time></trkpt><trkpt lat="45.3786983" lon="7.7949017"><ele>516.0</ele><time>2026-04-18T13:35:11.163Z</time></trkpt><trkpt lat="45.3786317" lon="7.79493"><ele>516.0</ele><time>2026-04-18T13:35:12.159Z</time></trkpt><trkpt lat="45.3785033" lon="7.79493"><ele>516.0</ele><time>2026-04-18T13:35:14.16Z</time></trkpt><trkpt lat="45.3783933" lon="7.794905"><ele>516.0</ele><time>2026-04-18T13:35:16.16Z</time></trkpt><trkpt lat="45.3783033" lon="7.7949033"><ele>516.0</ele><time>2026-04-18T13:35:18.16Z</time></trkpt><trkpt lat="45.378235" lon="7.7949367"><ele>516.0</ele><time>2026-04-18T13:35:20.161Z</time></trkpt><trkpt lat="45.3781617" lon="7.7950483"><ele>516.0</ele><time>2026-04-18T13:35:22.161Z</time></trkpt><trkpt lat="45.3781117" lon="7.7951417"><ele>516.0</ele><time>2026-04-18T13:35:23.159Z</time></trkpt><trkpt lat="45.3780633" lon="7.79524"><ele>516.0</ele><time>2026-04-18T13:35:24.16Z</time></trkpt><trkpt lat="45.3779967" lon="7.7953417"><ele>516.0</ele><time>2026-04-18T13:35:25.16Z</time></trkpt><trkpt lat="45.3779083" lon="7.7954533"><ele>514.4</ele><time>2026-04-18T13:35:26.158Z</time></trkpt><trkpt lat="45.3778483" lon="7.79555"><ele>512.8</ele><time>2026-04-18T13:35:27.16Z</time></trkpt><trkpt lat="45.377785" lon="7.7956367"><ele>511.19999999999993</ele><time>2026-04-18T13:35:28.161Z</time></trkpt><trkpt lat="45.37772" lon="7.7957183"><ele>509.59999999999997</ele><time>2026-04-18T13:35:29.161Z</time></trkpt><trkpt lat="45.3776567" lon="7.795795"><ele>508.0</ele><time>2026-04-18T13:35:30.16Z</time></trkpt><trkpt lat="45.3775683" lon="7.7958783"><ele>508.0</ele><time>2026-04-18T13:35:32.159Z</time></trkpt><trkpt lat="45.3774617" lon="7.7958767"><ele>507.99999999999994</ele><time>2026-04-18T13:35:34.161Z</time></trkpt><trkpt lat="45.3773867" lon="7.79585"><ele>507.99999999999994</ele><time>2026-04-18T13:35:36.158Z</time></trkpt><trkpt lat="45.3773233" lon="7.795915"><ele>508.0</ele><time>2026-04-18T13:35:38.161Z</time></trkpt><trkpt lat="45.377215" lon="7.7960917"><ele>508.0</ele><time>2026-04-18T13:35:40.16Z</time></trkpt><trkpt lat="45.3771267" lon="7.7962233"><ele>506.59999999999997</ele><time>2026-04-18T13:35:41.162Z</time></trkpt><trkpt lat="45.3770367" lon="7.7963383"><ele>505.19999999999993</ele><time>2026-04-18T13:35:42.161Z</time></trkpt><trkpt lat="45.3769483" lon="7.7964467"><ele>503.8</ele><time>2026-04-18T13:35:43.16Z</time></trkpt><trkpt lat="45.376875" lon="7.796535"><ele>502.4</ele><time>2026-04-18T13:35:44.159Z</time></trkpt><trkpt lat="45.376795" lon="7.7966183"><ele>501.0</ele><time>2026-04-18T13:35:45.161Z</time></trkpt><trkpt lat="45.3767217" lon="7.7966883"><ele>501.0</ele><time>2026-04-18T13:35:46.163Z</time></trkpt><trkpt lat="45.3766483" lon="7.7967233"><ele>501.0</ele><time>2026-04-18T13:35:47.158Z</time></trkpt><trkpt lat="45.37657" lon="7.796745"><ele>501.0</ele><time>2026-04-18T13:35:48.161Z</time></trkpt><trkpt lat="45.3764967" lon="7.7967567"><ele>501.0</ele><time>2026-04-18T13:35:49.159Z</time></trkpt><trkpt lat="45.3764183" lon="7.79677"><ele>501.0</ele><time>2026-04-18T13:35:50.16Z</time></trkpt><trkpt lat="45.3763467" lon="7.7968"><ele>501.0</ele><time>2026-04-18T13:35:51.161Z</time></trkpt><trkpt lat="45.3762833" lon="7.7968533"><ele>500.20000000000005</ele><time>2026-04-18T13:35:52.16Z</time></trkpt><trkpt lat="45.376205" lon="7.796945"><ele>499.40000000000003</ele><time>2026-04-18T13:35:53.159Z</time></trkpt><trkpt lat="45.3761283" lon="7.79704"><ele>498.6</ele><time>2026-04-18T13:35:54.16Z</time></trkpt><trkpt lat="45.3760383" lon="7.79716"><ele>497.8</ele><time>2026-04-18T13:35:55.161Z</time></trkpt><trkpt lat="45.3759533" lon="7.7972633"><ele>497.0</ele><time>2026-04-18T13:35:56.159Z</time></trkpt><trkpt lat="45.3758567" lon="7.79737"><ele>496.99999999999994</ele><time>2026-04-18T13:35:57.162Z</time></trkpt><trkpt lat="45.3757733" lon="7.7974467"><ele>497.0</ele><time>2026-04-18T13:35:58.16Z</time></trkpt><trkpt lat="45.3757033" lon="7.79752"><ele>497.0</ele><time>2026-04-18T13:35:59.159Z</time></trkpt><trkpt lat="45.375635" lon="7.7975867"><ele>497.0</ele><time>2026-04-18T13:36:00.16Z</time></trkpt><trkpt lat="45.375575" lon="7.797655"><ele>496.99999999999994</ele><time>2026-04-18T13:36:01.161Z</time></trkpt><trkpt lat="45.3755333" lon="7.79774"><ele>497.0</ele><time>2026-04-18T13:36:02.16Z</time></trkpt><trkpt lat="45.3755" lon="7.7978233"><ele>496.20000000000005</ele><time>2026-04-18T13:36:03.16Z</time></trkpt><trkpt lat="45.3754567" lon="7.797985"><ele>495.40000000000003</ele><time>2026-04-18T13:36:05.159Z</time></trkpt><trkpt lat="45.3754233" lon="7.7980817"><ele>494.59999999999997</ele><time>2026-04-18T13:36:06.158Z</time></trkpt><trkpt lat="45.3753867" lon="7.79818"><ele>493.79999999999995</ele><time>2026-04-18T13:36:07.16Z</time></trkpt><trkpt lat="45.3753333" lon="7.7982867"><ele>493.0</ele><time>2026-04-18T13:36:08.157Z</time></trkpt><trkpt lat="45.3752917" lon="7.7984"><ele>492.1666666666667</ele><time>2026-04-18T13:36:09.159Z</time></trkpt><trkpt lat="45.3752417" lon="7.7985033"><ele>491.33333333333337</ele><time>2026-04-18T13:36:10.16Z</time></trkpt><trkpt lat="45.3752" lon="7.7985967"><ele>490.5</ele><time>2026-04-18T13:36:11.159Z</time></trkpt><trkpt lat="45.3751633" lon="7.7986833"><ele>489.66666666666663</ele><time>2026-04-18T13:36:12.162Z</time></trkpt><trkpt lat="45.375115" lon="7.7987583"><ele>488.8333333333333</ele><time>2026-04-18T13:36:13.159Z</time></trkpt><trkpt lat="45.3750617" lon="7.79882"><ele>488.0</ele><time>2026-04-18T13:36:14.162Z</time></trkpt><trkpt lat="45.3749783" lon="7.7989167"><ele>488.0</ele><time>2026-04-18T13:36:16.16Z</time></trkpt><trkpt lat="45.3749217" lon="7.7990367"><ele>487.99999999999994</ele><time>2026-04-18T13:36:18.16Z</time></trkpt><trkpt lat="45.3748983" lon="7.7991283"><ele>487.99999999999994</ele><time>2026-04-18T13:36:19.16Z</time></trkpt><trkpt lat="45.374875" lon="7.7992617"><ele>488.0</ele><time>2026-04-18T13:36:20.157Z</time></trkpt><trkpt lat="45.3748433" lon="7.7994017"><ele>488.0</ele><time>2026-04-18T13:36:21.161Z</time></trkpt><trkpt lat="45.374795" lon="7.799555"><ele>487.75</ele><time>2026-04-18T13:36:22.159Z</time></trkpt><trkpt lat="45.3747267" lon="7.7997017"><ele>487.5</ele><time>2026-04-18T13:36:23.158Z</time></trkpt><trkpt lat="45.37465" lon="7.7998367"><ele>487.25</ele><time>2026-04-18T13:36:24.159Z</time></trkpt><trkpt lat="45.3745817" lon="7.799965"><ele>487.0</ele><time>2026-04-18T13:36:25.16Z</time></trkpt><trkpt lat="45.374525" lon="7.8000867"><ele>483.75</ele><time>2026-04-18T13:36:26.158Z</time></trkpt><trkpt lat="45.3744567" lon="7.800225"><ele>480.5</ele><time>2026-04-18T13:36:27.16Z</time></trkpt><trkpt lat="45.374395" lon="7.8003717"><ele>477.25</ele><time>2026-04-18T13:36:28.161Z</time></trkpt><trkpt lat="45.3743383" lon="7.8005267"><ele>474.0</ele><time>2026-04-18T13:36:29.159Z</time></trkpt><trkpt lat="45.3742767" lon="7.80068"><ele>474.0</ele><time>2026-04-18T13:36:30.16Z</time></trkpt><trkpt lat="45.37422" lon="7.8008233"><ele>474.0</ele><time>2026-04-18T13:36:31.16Z</time></trkpt><trkpt lat="45.3741567" lon="7.8009617"><ele>474.0</ele><time>2026-04-18T13:36:32.16Z</time></trkpt><trkpt lat="45.37409" lon="7.8010833"><ele>474.0</ele><time>2026-04-18T13:36:33.16Z</time></trkpt><trkpt lat="45.37399" lon="7.8012017"><ele>473.2</ele><time>2026-04-18T13:36:34.158Z</time></trkpt><trkpt lat="45.3739167" lon="7.8013083"><ele>472.4</ele><time>2026-04-18T13:36:35.16Z</time></trkpt><trkpt lat="45.3738367" lon="7.8014183"><ele>471.6</ele><time>2026-04-18T13:36:36.161Z</time></trkpt><trkpt lat="45.3737517" lon="7.8015217"><ele>470.8</ele><time>2026-04-18T13:36:37.16Z</time></trkpt><trkpt lat="45.373655" lon="7.80162"><ele>470.0</ele><time>2026-04-18T13:36:38.162Z</time></trkpt><trkpt lat="45.37355" lon="7.8017117"><ele>467.8</ele><time>2026-04-18T13:36:39.16Z</time></trkpt><trkpt lat="45.3734467" lon="7.8018"><ele>465.6</ele><time>2026-04-18T13:36:40.159Z</time></trkpt><trkpt lat="45.37334" lon="7.8018733"><ele>463.4</ele><time>2026-04-18T13:36:41.16Z</time></trkpt><trkpt lat="45.37325" lon="7.80192"><ele>461.2</ele><time>2026-04-18T13:36:42.159Z</time></trkpt><trkpt lat="45.3731717" lon="7.8019567"><ele>459.0</ele><time>2026-04-18T13:36:43.161Z</time></trkpt><trkpt lat="45.3731" lon="7.8019967"><ele>457.6666666666667</ele><time>2026-04-18T13:36:44.16Z</time></trkpt><trkpt lat="45.3730383" lon="7.802025"><ele>456.33333333333337</ele><time>2026-04-18T13:36:47.159Z</time></trkpt><trkpt lat="45.3731083" lon="7.802"><ele>455.0</ele><time>2026-04-18T13:37:51.16Z</time></trkpt><trkpt lat="45.37318" lon="7.8020233"><ele>453.6666666666667</ele><time>2026-04-18T13:37:54.16Z</time></trkpt><trkpt lat="45.3732733" lon="7.80206"><ele>452.33333333333337</ele><time>2026-04-18T13:37:56.159Z</time></trkpt><trkpt lat="45.3733717" lon="7.8020917"><ele>451.0</ele><time>2026-04-18T13:37:58.159Z</time></trkpt><trkpt lat="45.3734717" lon="7.802125"><ele>451.0</ele><time>2026-04-18T13:38:00.159Z</time></trkpt><trkpt lat="45.37356" lon="7.802135"><ele>451.0</ele><time>2026-04-18T13:38:02.158Z</time></trkpt><trkpt lat="45.373665" lon="7.8021317"><ele>451.0</ele><time>2026-04-18T13:38:04.158Z</time></trkpt><trkpt lat="45.37379" lon="7.8021333"><ele>451.0</ele><time>2026-04-18T13:38:06.159Z</time></trkpt><trkpt lat="45.3739" lon="7.802125"><ele>451.0</ele><time>2026-04-18T13:38:08.16Z</time></trkpt><trkpt lat="45.3740033" lon="7.8021383"><ele>453.5</ele><time>2026-04-18T13:38:10.16Z</time></trkpt><trkpt lat="45.3741083" lon="7.8022133"><ele>456.0</ele><time>2026-04-18T13:38:12.16Z</time></trkpt><trkpt lat="45.374245" lon="7.8023417"><ele>458.5</ele><time>2026-04-18T13:38:14.16Z</time></trkpt><trkpt lat="45.374355" lon="7.8024333"><ele>461.0</ele><time>2026-04-18T13:38:16.158Z</time></trkpt><trkpt lat="45.37446" lon="7.802495"><ele>460.99999999999994</ele><time>2026-04-18T13:38:18.16Z</time></trkpt><trkpt lat="45.3745467" lon="7.80252"><ele>461.0</ele><time>2026-04-18T13:38:20.158Z</time></trkpt><trkpt lat="45.3746267" lon="7.8025333"><ele>461.0</ele><time>2026-04-18T13:38:22.16Z</time></trkpt><trkpt lat="45.374685" lon="7.802575"><ele>461.0</ele><time>2026-04-18T13:38:24.16Z</time></trkpt><trkpt lat="45.3747017" lon="7.8026683"><ele>460.99999999999994</ele><time>2026-04-18T13:38:30.159Z</time></trkpt><trkpt lat="45.3747033" lon="7.802785"><ele>461.0</ele><time>2026-04-18T13:38:33.161Z</time></trkpt><trkpt lat="45.3747317" lon="7.8028833"><ele>460.8</ele><time>2026-04-18T13:38:35.16Z</time></trkpt><trkpt lat="45.374775" lon="7.80301"><ele>460.6</ele><time>2026-04-18T13:38:37.161Z</time></trkpt><trkpt lat="45.374775" lon="7.8031567"><ele>460.4</ele><time>2026-04-18T13:38:40.161Z</time></trkpt><trkpt lat="45.37475" lon="7.8032533"><ele>460.2</ele><time>2026-04-18T13:38:43.161Z</time></trkpt><trkpt lat="45.37468" lon="7.8033683"><ele>460.0</ele><time>2026-04-18T13:40:31.161Z</time></trkpt><trkpt lat="45.3747" lon="7.803495"><ele>460.0</ele><time>2026-04-18T13:40:35.161Z</time></trkpt><trkpt lat="45.37472" lon="7.8036083"><ele>460.0</ele><time>2026-04-18T13:40:37.16Z</time></trkpt><trkpt lat="45.37472" lon="7.8038133"><ele>460.0</ele><time>2026-04-18T13:42:41.16Z</time></trkpt><trkpt lat="45.374665" lon="7.80392"><ele>460.0</ele><time>2026-04-18T13:42:44.162Z</time></trkpt><trkpt lat="45.374605" lon="7.804005"><ele>460.0</ele><time>2026-04-18T13:42:46.163Z</time></trkpt><trkpt lat="45.3745517" lon="7.8040867"><ele>461.2</ele><time>2026-04-18T13:42:47.163Z</time></trkpt><trkpt lat="45.3745117" lon="7.8041633"><ele>462.4</ele><time>2026-04-18T13:42:48.162Z</time></trkpt><trkpt lat="45.3744717" lon="7.8042333"><ele>463.6</ele><time>2026-04-18T13:42:49.162Z</time></trkpt><trkpt lat="45.3744033" lon="7.804365"><ele>464.8</ele><time>2026-04-18T13:42:51.162Z</time></trkpt><trkpt lat="45.37437" lon="7.804455"><ele>466.0</ele><time>2026-04-18T13:42:53.162Z</time></trkpt><trkpt lat="45.37431" lon="7.80466"><ele>466.33333333333337</ele><time>2026-04-18T13:43:06.163Z</time></trkpt><trkpt lat="45.3742933" lon="7.804765"><ele>466.6666666666667</ele><time>2026-04-18T13:43:09.161Z</time></trkpt><trkpt lat="45.3742467" lon="7.8048667"><ele>467.0</ele><time>2026-04-18T13:43:12.161Z</time></trkpt><trkpt lat="45.3742133" lon="7.8049633"><ele>467.33333333333337</ele><time>2026-04-18T13:43:14.159Z</time></trkpt><trkpt lat="45.3741833" lon="7.8050667"><ele>467.6666666666667</ele><time>2026-04-18T13:43:16.161Z</time></trkpt><trkpt lat="45.3741283" lon="7.8051417"><ele>468.0</ele><time>2026-04-18T13:43:18.16Z</time></trkpt><trkpt lat="45.3740483" lon="7.8052133"><ele>466.5</ele><time>2026-04-18T13:43:21.159Z</time></trkpt><trkpt lat="45.3739883" lon="7.805275"><ele>465.0</ele><time>2026-04-18T13:43:23.162Z</time></trkpt><trkpt lat="45.373915" lon="7.8052983"><ele>463.5</ele><time>2026-04-18T13:43:25.162Z</time></trkpt><trkpt lat="45.3738417" lon="7.805325"><ele>462.0</ele><time>2026-04-18T13:43:27.162Z</time></trkpt><trkpt lat="45.373775" lon="7.8053283"><ele>460.5</ele><time>2026-04-18T13:43:29.16Z</time></trkpt><trkpt lat="45.3736767" lon="7.8053"><ele>459.0</ele><time>2026-04-18T13:43:32.161Z</time></trkpt><trkpt lat="45.3735783" lon="7.805325"><ele>457.8333333333333</ele><time>2026-04-18T13:43:34.16Z</time></trkpt><trkpt lat="45.3734967" lon="7.8053367"><ele>456.66666666666663</ele><time>2026-04-18T13:43:36.161Z</time></trkpt><trkpt lat="45.3734267" lon="7.8053667"><ele>455.5</ele><time>2026-04-18T13:43:39.161Z</time></trkpt><trkpt lat="45.373355" lon="7.8053717"><ele>454.3333333333333</ele><time>2026-04-18T13:43:42.161Z</time></trkpt><trkpt lat="45.3732683" lon="7.8053333"><ele>453.16666666666663</ele><time>2026-04-18T13:43:46.159Z</time></trkpt><trkpt lat="45.3732017" lon="7.8053383"><ele>452.0</ele><time>2026-04-18T13:43:48.159Z</time></trkpt><trkpt lat="45.3731367" lon="7.80532"><ele>451.99999999999994</ele><time>2026-04-18T13:43:50.162Z</time></trkpt><trkpt lat="45.3730733" lon="7.8052933"><ele>452.0</ele><time>2026-04-18T13:43:52.16Z</time></trkpt><trkpt lat="45.37299" lon="7.8052833"><ele>452.0</ele><time>2026-04-18T13:43:54.159Z</time></trkpt><trkpt lat="45.3728967" lon="7.8052467"><ele>452.0</ele><time>2026-04-18T13:43:56.161Z</time></trkpt><trkpt lat="45.3728133" lon="7.8052183"><ele>451.99999999999994</ele><time>2026-04-18T13:43:58.159Z</time></trkpt><trkpt lat="45.3727217" lon="7.8052233"><ele>452.0</ele><time>2026-04-18T13:44:00.16Z</time></trkpt><trkpt lat="45.372645" lon="7.80527"><ele>452.49999999999994</ele><time>2026-04-18T13:44:03.16Z</time></trkpt><trkpt lat="45.37258" lon="7.805305"><ele>453.0</ele><time>2026-04-18T13:44:05.162Z</time></trkpt><trkpt lat="45.3725017" lon="7.80534"><ele>453.5</ele><time>2026-04-18T13:44:07.16Z</time></trkpt><trkpt lat="45.37242" lon="7.8054017"><ele>454.0</ele><time>2026-04-18T13:44:09.163Z</time></trkpt><trkpt lat="45.3723683" lon="7.8054567"><ele>454.49999999999994</ele><time>2026-04-18T13:44:10.16Z</time></trkpt><trkpt lat="45.3722767" lon="7.8055583"><ele>455.0</ele><time>2026-04-18T13:44:12.16Z</time></trkpt><trkpt lat="45.3721833" lon="7.8056383"><ele>453.99999999999994</ele><time>2026-04-18T13:44:14.159Z</time></trkpt><trkpt lat="45.37212" lon="7.8057017"><ele>453.0</ele><time>2026-04-18T13:44:16.16Z</time></trkpt><trkpt lat="45.3721333" lon="7.805795"><ele>452.0</ele><time>2026-04-18T13:44:20.161Z</time></trkpt><trkpt lat="45.3721233" lon="7.8059183"><ele>451.0</ele><time>2026-04-18T13:44:25.161Z</time></trkpt><trkpt lat="45.3721133" lon="7.8060367"><ele>449.99999999999994</ele><time>2026-04-18T13:44:28.161Z</time></trkpt><trkpt lat="45.37208" lon="7.8061283"><ele>449.0</ele><time>2026-04-18T13:44:30.162Z</time></trkpt><trkpt lat="45.3720417" lon="7.806205"><ele>448.8333333333333</ele><time>2026-04-18T13:44:32.16Z</time></trkpt><trkpt lat="45.372005" lon="7.806315"><ele>448.66666666666663</ele><time>2026-04-18T13:44:35.159Z</time></trkpt><trkpt lat="45.3719683" lon="7.80643"><ele>448.5</ele><time>2026-04-18T13:44:37.16Z</time></trkpt><trkpt lat="45.371915" lon="7.8065283"><ele>448.33333333333337</ele><time>2026-04-18T13:44:39.159Z</time></trkpt><trkpt lat="45.37186" lon="7.8065917"><ele>448.1666666666667</ele><time>2026-04-18T13:44:41.161Z</time></trkpt><trkpt lat="45.371815" lon="7.806655"><ele>448.0</ele><time>2026-04-18T13:44:44.162Z</time></trkpt><trkpt lat="45.3717783" lon="7.8067667"><ele>446.33333333333337</ele><time>2026-04-18T13:44:47.161Z</time></trkpt><trkpt lat="45.3717583" lon="7.80686"><ele>444.6666666666667</ele><time>2026-04-18T13:44:49.158Z</time></trkpt><trkpt lat="45.3717117" lon="7.8069467"><ele>443.0</ele><time>2026-04-18T13:44:51.157Z</time></trkpt><trkpt lat="45.3716633" lon="7.8070783"><ele>441.33333333333337</ele><time>2026-04-18T13:44:54.161Z</time></trkpt><trkpt lat="45.3715967" lon="7.80721"><ele>439.6666666666667</ele><time>2026-04-18T13:44:56.16Z</time></trkpt><trkpt lat="45.371555" lon="7.80728"><ele>438.0</ele><time>2026-04-18T13:44:57.161Z</time></trkpt><trkpt lat="45.3714717" lon="7.807405"><ele>438.0</ele><time>2026-04-18T13:44:59.16Z</time></trkpt><trkpt lat="45.3714617" lon="7.8075167"><ele>438.0</ele><time>2026-04-18T13:45:00.159Z</time></trkpt><trkpt lat="45.371465" lon="7.807655"><ele>438.0</ele><time>2026-04-18T13:45:01.161Z</time></trkpt><trkpt lat="45.371485" lon="7.8077783"><ele>438.0</ele><time>2026-04-18T13:45:02.16Z</time></trkpt><trkpt lat="45.3715033" lon="7.8079033"><ele>438.0</ele><time>2026-04-18T13:45:03.161Z</time></trkpt><trkpt lat="45.3715233" lon="7.808"><ele>438.0</ele><time>2026-04-18T13:45:04.158Z</time></trkpt><trkpt lat="45.3716" lon="7.8080433"><ele>438.2</ele><time>2026-04-18T13:45:05.159Z</time></trkpt><trkpt lat="45.37167" lon="7.8081583"><ele>438.4</ele><time>2026-04-18T13:45:07.161Z</time></trkpt><trkpt lat="45.3716783" lon="7.8083183"><ele>438.59999999999997</ele><time>2026-04-18T13:45:51.16Z</time></trkpt><trkpt lat="45.371635" lon="7.8083933"><ele>438.79999999999995</ele><time>2026-04-18T13:45:53.161Z</time></trkpt><trkpt lat="45.3715867" lon="7.808485"><ele>439.0</ele><time>2026-04-18T13:45:55.16Z</time></trkpt><trkpt lat="45.3715617" lon="7.8085983"><ele>440.6666666666667</ele><time>2026-04-18T13:46:06.159Z</time></trkpt><trkpt lat="45.37164" lon="7.80863"><ele>442.33333333333337</ele><time>2026-04-18T13:46:11.161Z</time></trkpt><trkpt lat="45.371685" lon="7.8087133"><ele>444.0</ele><time>2026-04-18T13:46:13.163Z</time></trkpt><trkpt lat="45.3717333" lon="7.8088167"><ele>445.66666666666663</ele><time>2026-04-18T13:46:15.16Z</time></trkpt><trkpt lat="45.3717617" lon="7.8089217"><ele>447.3333333333333</ele><time>2026-04-18T13:46:17.159Z</time></trkpt><trkpt lat="45.3718011" lon="7.8090312"><ele>449.0</ele><time>2026-04-18T13:46:32.287Z</time></trkpt><trkpt lat="45.3718297" lon="7.8091155"><ele>449.0</ele><time>2026-04-18T13:46:42.227Z</time></trkpt><trkpt lat="45.3718436" lon="7.8092251"><ele>449.0</ele><time>2026-04-18T13:47:26.212Z</time></trkpt><trkpt lat="45.3718433" lon="7.8093801"><ele>449.0</ele><time>2026-04-18T13:50:57.136Z</time></trkpt><trkpt lat="45.3718503" lon="7.8095605"><ele>449.0</ele><time>2026-04-18T13:51:02.255Z</time></trkpt><trkpt lat="45.371839" lon="7.8096539"><ele>449.0</ele><time>2026-04-18T13:51:06.265Z</time></trkpt><trkpt lat="45.3718592" lon="7.8097519"><ele>451.66666666666663</ele><time>2026-04-18T13:51:14.301Z</time></trkpt><trkpt lat="45.3718244" lon="7.809885"><ele>454.3333333333333</ele><time>2026-04-18T13:51:16.307Z</time></trkpt><trkpt lat="45.3718014" lon="7.8100003"><ele>457.0</ele><time>2026-04-18T13:51:18.214Z</time></trkpt><trkpt lat="45.3717715" lon="7.8101108"><ele>459.66666666666663</ele><time>2026-04-18T13:51:22.24Z</time></trkpt><trkpt lat="45.3717029" lon="7.8102269"><ele>462.3333333333333</ele><time>2026-04-18T13:53:13.262Z</time></trkpt><trkpt lat="45.3717051" lon="7.8103223"><ele>465.0</ele><time>2026-04-18T13:58:28.242Z</time></trkpt><trkpt lat="45.3716969" lon="7.8104868"><ele>466.0</ele><time>2026-04-18T13:58:49.284Z</time></trkpt><trkpt lat="45.3717257" lon="7.8106799"><ele>467.0</ele><time>2026-04-18T13:58:56.245Z</time></trkpt><trkpt lat="45.3717475" lon="7.8108827"><ele>468.0</ele><time>2026-04-18T13:59:00.26Z</time></trkpt><trkpt lat="45.3717496" lon="7.810978"><ele>469.0</ele><time>2026-04-18T13:59:03.271Z</time></trkpt><trkpt lat="45.3717762" lon="7.8111133"><ele>470.0</ele><time>2026-04-18T13:59:05.278Z</time></trkpt><trkpt lat="45.3718191" lon="7.811217"><ele>469.99999999999994</ele><time>2026-04-18T13:59:07.286Z</time></trkpt><trkpt lat="45.371797" lon="7.8113145"><ele>470.0</ele><time>2026-04-18T13:59:11.202Z</time></trkpt><trkpt lat="45.3718783" lon="7.8114383"><ele>470.0</ele><time>2026-04-18T13:59:12.204Z</time></trkpt><trkpt lat="45.3718732" lon="7.8115511"><ele>470.0</ele><time>2026-04-18T13:59:14.217Z</time></trkpt><trkpt lat="45.3719129" lon="7.8116539"><ele>469.99999999999994</ele><time>2026-04-18T13:59:17.208Z</time></trkpt><trkpt lat="45.3719338" lon="7.8117462"><ele>470.0</ele><time>2026-04-18T13:59:20.234Z</time></trkpt><trkpt lat="45.3719502" lon="7.8118566"><ele>469.4</ele><time>2026-04-18T13:59:23.247Z</time></trkpt><trkpt lat="45.3719793" lon="7.8119557"><ele>468.8</ele><time>2026-04-18T13:59:26.277Z</time></trkpt><trkpt lat="45.3719522" lon="7.812061"><ele>468.20000000000005</ele><time>2026-04-18T13:59:28.284Z</time></trkpt><trkpt lat="45.3720337" lon="7.8122315"><ele>467.6</ele><time>2026-04-18T13:59:31.206Z</time></trkpt><trkpt lat="45.3720763" lon="7.8123321"><ele>467.0</ele><time>2026-04-18T13:59:33.098Z</time></trkpt><trkpt lat="45.3720768" lon="7.8124369"><ele>467.0</ele><time>2026-04-18T13:59:35.221Z</time></trkpt><trkpt lat="45.3721342" lon="7.8125479"><ele>467.0</ele><time>2026-04-18T13:59:37.292Z</time></trkpt><trkpt lat="45.3722042" lon="7.812667"><ele>467.0</ele><time>2026-04-18T13:59:39.235Z</time></trkpt><trkpt lat="45.3722892" lon="7.8128368"><ele>467.0</ele><time>2026-04-18T13:59:42.248Z</time></trkpt><trkpt lat="45.3723242" lon="7.8129768"><ele>467.8333333333333</ele><time>2026-04-18T13:59:44.339Z</time></trkpt><trkpt lat="45.372333" lon="7.8131013"><ele>468.66666666666663</ele><time>2026-04-18T13:59:46.262Z</time></trkpt><trkpt lat="45.3723578" lon="7.8132244"><ele>469.5</ele><time>2026-04-18T13:59:48.27Z</time></trkpt><trkpt lat="45.3724208" lon="7.8132821"><ele>470.33333333333337</ele><time>2026-04-18T13:59:49.273Z</time></trkpt><trkpt lat="45.372533" lon="7.8133572"><ele>471.1666666666667</ele><time>2026-04-18T13:59:50.277Z</time></trkpt><trkpt lat="45.3725796" lon="7.8134309"><ele>472.0</ele><time>2026-04-18T13:59:52.289Z</time></trkpt><trkpt lat="45.3726378" lon="7.8134745"><ele>472.1666666666667</ele><time>2026-04-18T13:59:55.215Z</time></trkpt><trkpt lat="45.3726439" lon="7.8136194"><ele>472.33333333333337</ele><time>2026-04-18T13:59:57.222Z</time></trkpt><trkpt lat="45.3726756" lon="7.8137664"><ele>472.5</ele><time>2026-04-18T14:00:00.227Z</time></trkpt><trkpt lat="45.3726933" lon="7.8138749"><ele>472.66666666666663</ele><time>2026-04-18T14:00:03.255Z</time></trkpt><trkpt lat="45.3727118" lon="7.8139631"><ele>472.8333333333333</ele><time>2026-04-18T14:00:05.263Z</time></trkpt><trkpt lat="45.3727347" lon="7.8140892"><ele>473.0</ele><time>2026-04-18T14:00:08.274Z</time></trkpt><trkpt lat="45.3727823" lon="7.8141869"><ele>472.99999999999994</ele><time>2026-04-18T14:00:10.282Z</time></trkpt><trkpt lat="45.3728037" lon="7.8143069"><ele>473.0</ele><time>2026-04-18T14:00:12.188Z</time></trkpt><trkpt lat="45.3728207" lon="7.8144209"><ele>473.0</ele><time>2026-04-18T14:00:14.295Z</time></trkpt><trkpt lat="45.3728422" lon="7.8145072"><ele>473.0</ele><time>2026-04-18T14:00:17.207Z</time></trkpt><trkpt lat="45.3728614" lon="7.814609"><ele>472.99999999999994</ele><time>2026-04-18T14:00:20.217Z</time></trkpt><trkpt lat="45.3728565" lon="7.8147192"><ele>473.0</ele><time>2026-04-18T14:00:23.245Z</time></trkpt><trkpt lat="45.3728616" lon="7.8148144"><ele>473.99999999999994</ele><time>2026-04-18T14:00:26.24Z</time></trkpt><trkpt lat="45.372881" lon="7.8149072"><ele>475.0</ele><time>2026-04-18T14:00:27.277Z</time></trkpt><trkpt lat="45.3728694" lon="7.8149996"><ele>476.0</ele><time>2026-04-18T14:00:29.261Z</time></trkpt><trkpt lat="45.3729008" lon="7.8150888"><ele>477.0</ele><time>2026-04-18T14:00:30.872Z</time></trkpt><trkpt lat="45.3729617" lon="7.8151761"><ele>477.99999999999994</ele><time>2026-04-18T14:00:33.277Z</time></trkpt><trkpt lat="45.3729447" lon="7.8153785"><ele>479.0</ele><time>2026-04-18T14:00:37.291Z</time></trkpt><trkpt lat="45.3729804" lon="7.8155078"><ele>480.3333333333333</ele><time>2026-04-18T14:00:46.225Z</time></trkpt><trkpt lat="45.3729628" lon="7.8156613"><ele>481.66666666666663</ele><time>2026-04-18T14:00:49.236Z</time></trkpt><trkpt lat="45.3729551" lon="7.8157674"><ele>483.0</ele><time>2026-04-18T14:00:52.247Z</time></trkpt><trkpt lat="45.3729783" lon="7.8158617"><ele>484.33333333333337</ele><time>2026-04-18T14:00:53.159Z</time></trkpt><trkpt lat="45.37295" lon="7.8159967"><ele>485.6666666666667</ele><time>2026-04-18T14:00:56.159Z</time></trkpt><trkpt lat="45.3729433" lon="7.8161233"><ele>487.0</ele><time>2026-04-18T14:00:58.159Z</time></trkpt><trkpt lat="45.372945" lon="7.8162383"><ele>489.20000000000005</ele><time>2026-04-18T14:01:00.159Z</time></trkpt><trkpt lat="45.372935" lon="7.8163717"><ele>491.40000000000003</ele><time>2026-04-18T14:01:02.159Z</time></trkpt><trkpt lat="45.3728533" lon="7.8165083"><ele>493.59999999999997</ele><time>2026-04-18T14:01:05.158Z</time></trkpt><trkpt lat="45.372775" lon="7.8166"><ele>495.79999999999995</ele><time>2026-04-18T14:01:07.159Z</time></trkpt><trkpt lat="45.37271" lon="7.816715"><ele>498.0</ele><time>2026-04-18T14:01:09.159Z</time></trkpt><trkpt lat="45.372685" lon="7.8168433"><ele>498.5</ele><time>2026-04-18T14:01:11.16Z</time></trkpt><trkpt lat="45.3726583" lon="7.816945"><ele>499.0</ele><time>2026-04-18T14:01:14.159Z</time></trkpt><trkpt lat="45.372635" lon="7.8170683"><ele>499.5</ele><time>2026-04-18T14:01:17.159Z</time></trkpt><trkpt lat="45.37261" lon="7.817185"><ele>500.0</ele><time>2026-04-18T14:01:20.159Z</time></trkpt><trkpt lat="45.3725733" lon="7.8173267"><ele>500.5</ele><time>2026-04-18T14:01:22.159Z</time></trkpt><trkpt lat="45.37255" lon="7.81742"><ele>501.0</ele><time>2026-04-18T14:01:23.158Z</time></trkpt><trkpt lat="45.37252" lon="7.817515"><ele>501.0</ele><time>2026-04-18T14:01:25.16Z</time></trkpt><trkpt lat="45.372455" lon="7.8176233"><ele>501.0</ele><time>2026-04-18T14:01:28.158Z</time></trkpt><trkpt lat="45.37239" lon="7.8177033"><ele>501.0</ele><time>2026-04-18T14:01:31.159Z</time></trkpt><trkpt lat="45.3723217" lon="7.8177533"><ele>501.0</ele><time>2026-04-18T14:01:33.159Z</time></trkpt><trkpt lat="45.3722367" lon="7.8178217"><ele>501.0</ele><time>2026-04-18T14:01:36.159Z</time></trkpt><trkpt lat="45.37218" lon="7.817875"><ele>501.0</ele><time>2026-04-18T14:01:38.157Z</time></trkpt><trkpt lat="45.37212" lon="7.8179467"><ele>500.0</ele><time>2026-04-18T14:01:40.158Z</time></trkpt><trkpt lat="45.372025" lon="7.8180483"><ele>499.0</ele><time>2026-04-18T14:01:42.16Z</time></trkpt><trkpt lat="45.371955" lon="7.8181283"><ele>498.0</ele><time>2026-04-18T14:01:44.157Z</time></trkpt><trkpt lat="45.371895" lon="7.818165"><ele>497.0</ele><time>2026-04-18T14:01:45.159Z</time></trkpt><trkpt lat="45.3718133" lon="7.8182017"><ele>496.0</ele><time>2026-04-18T14:01:46.16Z</time></trkpt><trkpt lat="45.3717467" lon="7.8182283"><ele>495.0</ele><time>2026-04-18T14:01:47.16Z</time></trkpt><trkpt lat="45.3716717" lon="7.8182433"><ele>495.0</ele><time>2026-04-18T14:01:48.159Z</time></trkpt><trkpt lat="45.3715983" lon="7.8182533"><ele>495.0</ele><time>2026-04-18T14:01:49.159Z</time></trkpt><trkpt lat="45.3714917" lon="7.8182617"><ele>495.0</ele><time>2026-04-18T14:01:51.16Z</time></trkpt><trkpt lat="45.3714067" lon="7.8182867"><ele>495.0</ele><time>2026-04-18T14:01:53.159Z</time></trkpt><trkpt lat="45.3713567" lon="7.818355"><ele>495.0</ele><time>2026-04-18T14:01:55.16Z</time></trkpt><trkpt lat="45.3713033" lon="7.8184317"><ele>495.0</ele><time>2026-04-18T14:01:57.159Z</time></trkpt><trkpt lat="45.3711933" lon="7.8185517"><ele>493.6666666666667</ele><time>2026-04-18T14:02:00.159Z</time></trkpt><trkpt lat="45.3711233" lon="7.8186317"><ele>492.33333333333337</ele><time>2026-04-18T14:02:02.158Z</time></trkpt><trkpt lat="45.3710817" lon="7.818745"><ele>491.0</ele><time>2026-04-18T14:02:06.158Z</time></trkpt><trkpt lat="45.3710783" lon="7.8188817"><ele>489.6666666666667</ele><time>2026-04-18T14:02:10.158Z</time></trkpt><trkpt lat="45.3710867" lon="7.8190083"><ele>488.33333333333337</ele><time>2026-04-18T14:02:12.157Z</time></trkpt><trkpt lat="45.3711133" lon="7.8190967"><ele>487.0</ele><time>2026-04-18T14:02:14.158Z</time></trkpt><trkpt lat="45.3711533" lon="7.819215"><ele>485.50000000000006</ele><time>2026-04-18T14:02:16.159Z</time></trkpt><trkpt lat="45.3711883" lon="7.819355"><ele>484.0</ele><time>2026-04-18T14:02:18.159Z</time></trkpt><trkpt lat="45.371205" lon="7.8194917"><ele>482.5</ele><time>2026-04-18T14:02:20.159Z</time></trkpt><trkpt lat="45.3711983" lon="7.8195967"><ele>481.0</ele><time>2026-04-18T14:02:21.16Z</time></trkpt><trkpt lat="45.3712117" lon="7.8197"><ele>479.50000000000006</ele><time>2026-04-18T14:02:22.157Z</time></trkpt><trkpt lat="45.3712133" lon="7.819795"><ele>478.0</ele><time>2026-04-18T14:02:23.159Z</time></trkpt><trkpt lat="45.3711867" lon="7.8198783"><ele>478.0</ele><time>2026-04-18T14:02:26.159Z</time></trkpt><trkpt lat="45.3711633" lon="7.81998"><ele>477.99999999999994</ele><time>2026-04-18T14:02:28.158Z</time></trkpt><trkpt lat="45.3711367" lon="7.820085"><ele>477.99999999999994</ele><time>2026-04-18T14:02:30.159Z</time></trkpt><trkpt lat="45.3711033" lon="7.8202033"><ele>478.0</ele><time>2026-04-18T14:02:34.159Z</time></trkpt><trkpt lat="45.3710533" lon="7.8203417"><ele>478.0</ele><time>2026-04-18T14:02:36.16Z</time></trkpt><trkpt lat="45.370905" lon="7.8204883"><ele>475.2</ele><time>2026-04-18T14:02:38.168Z</time></trkpt><trkpt lat="45.370785" lon="7.8205483"><ele>472.4</ele><time>2026-04-18T14:02:39.161Z</time></trkpt><trkpt lat="45.37065" lon="7.8206117"><ele>469.59999999999997</ele><time>2026-04-18T14:02:40.16Z</time></trkpt><trkpt lat="45.37057" lon="7.8206367"><ele>466.79999999999995</ele><time>2026-04-18T14:02:41.158Z</time></trkpt><trkpt lat="45.370495" lon="7.8206533"><ele>464.0</ele><time>2026-04-18T14:02:42.159Z</time></trkpt><trkpt lat="45.3704117" lon="7.8206667"><ele>463.3333333333333</ele><time>2026-04-18T14:02:43.159Z</time></trkpt><trkpt lat="45.3703367" lon="7.82067"><ele>462.66666666666663</ele><time>2026-04-18T14:02:44.158Z</time></trkpt><trkpt lat="45.3702683" lon="7.8206817"><ele>462.0</ele><time>2026-04-18T14:02:45.16Z</time></trkpt><trkpt lat="45.3701917" lon="7.820675"><ele>461.33333333333337</ele><time>2026-04-18T14:02:46.16Z</time></trkpt><trkpt lat="45.3700833" lon="7.820635"><ele>460.6666666666667</ele><time>2026-04-18T14:02:48.16Z</time></trkpt><trkpt lat="45.3699883" lon="7.8206217"><ele>460.0</ele><time>2026-04-18T14:02:50.159Z</time></trkpt><trkpt lat="45.3698333" lon="7.8207317"><ele>460.00000000000006</ele><time>2026-04-18T14:02:51.159Z</time></trkpt><trkpt lat="45.3697633" lon="7.8207483"><ele>460.0</ele><time>2026-04-18T14:02:53.159Z</time></trkpt><trkpt lat="45.3696917" lon="7.8207533"><ele>460.0</ele><time>2026-04-18T14:02:55.159Z</time></trkpt><trkpt lat="45.3696067" lon="7.82071"><ele>460.0</ele><time>2026-04-18T14:02:57.16Z</time></trkpt><trkpt lat="45.369505" lon="7.8206833"><ele>460.00000000000006</ele><time>2026-04-18T14:02:59.157Z</time></trkpt><trkpt lat="45.36941" lon="7.820655"><ele>460.0</ele><time>2026-04-18T14:03:01.159Z</time></trkpt><trkpt lat="45.3693467" lon="7.82065"><ele>458.50000000000006</ele><time>2026-04-18T14:03:02.159Z</time></trkpt><trkpt lat="45.369245" lon="7.8206567"><ele>457.0</ele><time>2026-04-18T14:03:03.159Z</time></trkpt><trkpt lat="45.3691717" lon="7.8206483"><ele>455.5</ele><time>2026-04-18T14:03:04.159Z</time></trkpt><trkpt lat="45.3691" lon="7.82064"><ele>454.0</ele><time>2026-04-18T14:03:05.159Z</time></trkpt><trkpt lat="45.3690283" lon="7.8206467"><ele>452.50000000000006</ele><time>2026-04-18T14:03:06.16Z</time></trkpt><trkpt lat="45.368905" lon="7.820665"><ele>451.0</ele><time>2026-04-18T14:03:08.159Z</time></trkpt><trkpt lat="45.3688317" lon="7.8206533"><ele>449.83333333333337</ele><time>2026-04-18T14:03:09.159Z</time></trkpt><trkpt lat="45.368755" lon="7.8206667"><ele>448.6666666666667</ele><time>2026-04-18T14:03:10.158Z</time></trkpt><trkpt lat="45.3686817" lon="7.8206817"><ele>447.5</ele><time>2026-04-18T14:03:11.159Z</time></trkpt><trkpt lat="45.36861" lon="7.82068"><ele>446.33333333333337</ele><time>2026-04-18T14:03:12.16Z</time></trkpt><trkpt lat="45.368515" lon="7.82066"><ele>445.1666666666667</ele><time>2026-04-18T14:03:13.16Z</time></trkpt><trkpt lat="45.3684067" lon="7.82063"><ele>444.0</ele><time>2026-04-18T14:03:14.158Z</time></trkpt><trkpt lat="45.3682717" lon="7.82058"><ele>444.0</ele><time>2026-04-18T14:03:15.158Z</time></trkpt><trkpt lat="45.3681383" lon="7.8205417"><ele>444.0</ele><time>2026-04-18T14:03:16.159Z</time></trkpt><trkpt lat="45.36802" lon="7.820515"><ele>444.0</ele><time>2026-04-18T14:03:17.158Z</time></trkpt><trkpt lat="45.3679233" lon="7.8204933"><ele>444.0</ele><time>2026-04-18T14:03:18.159Z</time></trkpt><trkpt lat="45.3678233" lon="7.8204667"><ele>442.3333333333333</ele><time>2026-04-18T14:03:19.16Z</time></trkpt><trkpt lat="45.36774" lon="7.82044"><ele>440.66666666666663</ele><time>2026-04-18T14:03:20.16Z</time></trkpt><trkpt lat="45.3676683" lon="7.8204117"><ele>439.0</ele><time>2026-04-18T14:03:21.159Z</time></trkpt><trkpt lat="45.36755" lon="7.8203733"><ele>437.3333333333333</ele><time>2026-04-18T14:03:23.158Z</time></trkpt><trkpt lat="45.367475" lon="7.8203483"><ele>435.66666666666663</ele><time>2026-04-18T14:03:25.161Z</time></trkpt><trkpt lat="45.36748" lon="7.82044"><ele>434.0</ele><time>2026-04-18T14:03:28.16Z</time></trkpt><trkpt lat="45.3675033" lon="7.8205867"><ele>433.99999999999994</ele><time>2026-04-18T14:03:30.159Z</time></trkpt><trkpt lat="45.3675167" lon="7.8207"><ele>434.0</ele><time>2026-04-18T14:03:31.16Z</time></trkpt><trkpt lat="45.3675533" lon="7.8208017"><ele>434.0</ele><time>2026-04-18T14:03:32.159Z</time></trkpt><trkpt lat="45.3675983" lon="7.8209233"><ele>434.0</ele><time>2026-04-18T14:03:33.159Z</time></trkpt><trkpt lat="45.3676233" lon="7.821015"><ele>433.99999999999994</ele><time>2026-04-18T14:03:34.159Z</time></trkpt><trkpt lat="45.3676183" lon="7.8211433"><ele>434.0</ele><time>2026-04-18T14:03:36.161Z</time></trkpt><trkpt lat="45.36756" lon="7.8212267"><ele>434.2857142857143</ele><time>2026-04-18T14:03:38.159Z</time></trkpt><trkpt lat="45.3674667" lon="7.82127"><ele>434.57142857142856</ele><time>2026-04-18T14:03:40.16Z</time></trkpt><trkpt lat="45.3673983" lon="7.8212817"><ele>434.8571428571429</ele><time>2026-04-18T14:03:42.159Z</time></trkpt><trkpt lat="45.367335" lon="7.8213217"><ele>435.1428571428571</ele><time>2026-04-18T14:03:44.158Z</time></trkpt><trkpt lat="45.3672867" lon="7.82138"><ele>435.42857142857144</ele><time>2026-04-18T14:03:46.159Z</time></trkpt><trkpt lat="45.3672483" lon="7.8214517"><ele>435.7142857142857</ele><time>2026-04-18T14:03:48.158Z</time></trkpt><trkpt lat="45.3672017" lon="7.82154"><ele>436.0</ele><time>2026-04-18T14:03:50.159Z</time></trkpt><trkpt lat="45.3671867" lon="7.8216317"><ele>434.6</ele><time>2026-04-18T14:03:52.16Z</time></trkpt><trkpt lat="45.3671967" lon="7.8218667"><ele>433.20000000000005</ele><time>2026-04-18T14:04:05.159Z</time></trkpt><trkpt lat="45.36716" lon="7.8219533"><ele>431.79999999999995</ele><time>2026-04-18T14:04:10.158Z</time></trkpt><trkpt lat="45.3671077" lon="7.8220801"><ele>430.4</ele><time>2026-04-18T14:04:19.214Z</time></trkpt><trkpt lat="45.3670975" lon="7.8221838"><ele>429.0</ele><time>2026-04-18T14:04:23.284Z</time></trkpt><trkpt lat="45.3670424" lon="7.8222974"><ele>423.0</ele><time>2026-04-18T14:04:38.194Z</time></trkpt><trkpt lat="45.3670064" lon="7.8223711"><ele>423.0</ele><time>2026-04-18T14:15:32.231Z</time></trkpt><trkpt lat="45.3669661" lon="7.8224427"><ele>423.0</ele><time>2026-04-18T14:15:44.276Z</time></trkpt></trkseg></trk></gpx>